MYDAX CHILLER For Sector 8 Monochromators  S/N 120-0453             

Key: (Temperatures in Centigrade) 
A) System is ON or OFF
B) Actual Tank Temperature as sensed by the Output RTD                   
C) Set point Temperature 
D) Calculated temperature of the refrigerant line at the suction pressure transducer
E) Pressure in PSIg of the refrigerant line at the suction pressure transducer
F & G) Temperature in the refrigerant line at the Superheat and Condenser RTDs
H) Temperature in the refrigerant line at the Discharge RTD (2-stage design only)
I) Temperature in the refrigerant line at the Subcooler RTD (inactive)
J) Valve drives of evaporator 

----------- DATE ----------: A    B     C     D     E    F    G    H   I J

 last update: Wed Sep 20 16:38:01 PDT 2017
Wed Sep 20 16:37:55 PDT 2017 ON: 20.01 +20.0 19.68 - 4.8 32.7 00 14 470A 0920 Alarm State:  5
Wed Sep 20 16:36:53 PDT 2017 ON: 19.99 +20.0 19.65 - 4.4 33.1 07 14 470E 0A05 Alarm State:  5
Wed Sep 20 16:35:52 PDT 2017 ON: 20.03 +20.0 19.71 - 5.3 32.7 0A 13 4729 0910 Alarm State:  5
Wed Sep 20 16:34:50 PDT 2017 ON: 20.01 +20.0 19.66 - 4.5 33.0 00 14 470D 0919 Alarm State:  5
Wed Sep 20 16:33:49 PDT 2017 ON: 19.98 +20.0 19.65 - 4.5 33.5 05 14 4702 0913 Alarm State:  5
Wed Sep 20 16:32:47 PDT 2017 ON: 20.01 +20.0 19.71 - 6.0 32.4 0D 13 4704 0925 Alarm State:  5
Wed Sep 20 16:31:46 PDT 2017 ON: 19.97 +20.0 19.58 - 3.5 33.8 04 14 4800 0915 Alarm State:  5
Wed Sep 20 16:30:44 PDT 2017 ON: 20.03 +20.0 19.72 - 5.7 32.5 0A 12 4729 0925 Alarm State:  5
Wed Sep 20 16:29:43 PDT 2017 ON: 19.99 +20.0 19.59 - 2.9 33.8 01 14 481F 091B Alarm State:  5
Wed Sep 20 16:28:41 PDT 2017 ON: 20.01 +20.0 19.68 - 4.5 33.4 02 14 472C 0901 Alarm State:  5
Wed Sep 20 16:27:40 PDT 2017 ON: 20.00 +20.0 19.63 - 3.6 33.7 0A 14 4721 0907 Alarm State:  5
Wed Sep 20 16:26:38 PDT 2017 ON: 20.00 +20.0 19.65 - 4.9 33.0 02 14 4703 090C Alarm State:  5
Wed Sep 20 16:25:37 PDT 2017 ON: 20.03 +20.0 19.68 - 5.0 32.7 00 14 4712 0917 Alarm State:  5
Wed Sep 20 16:24:35 PDT 2017 ON: 20.00 +20.0 19.65 - 3.9 33.7 05 14 4700 0926 Alarm State:  5
Wed Sep 20 16:23:34 PDT 2017 ON: 19.99 +20.0 19.67 - 5.2 32.8 05 14 4614 0A0F Alarm State:  5
Wed Sep 20 16:22:33 PDT 2017 ON: 20.01 +20.0 19.61 - 3.1 33.6 07 14 4713 0923 Alarm State:  5
Wed Sep 20 16:21:31 PDT 2017 ON: 20.01 +20.0 19.66 - 4.8 33.0 07 14 462D 092D Alarm State:  5
Wed Sep 20 16:20:30 PDT 2017 ON: 20.02 +20.0 19.65 - 4.3 33.0 00 14 471E 091F Alarm State:  5
Wed Sep 20 16:19:28 PDT 2017 ON: 19.99 +20.0 19.64 - 4.3 33.6 00 14 4701 0927 Alarm State:  5
Wed Sep 20 16:18:27 PDT 2017 ON: 20.02 +20.0 19.72 - 5.8 32.5 0D 12 4624 0920 Alarm State:  5
Wed Sep 20 16:17:25 PDT 2017 ON: 20.01 +20.0 19.60 - 3.1 33.5 04 14 4714 0920 Alarm State:  5
Wed Sep 20 16:16:24 PDT 2017 ON: 19.97 +20.0 19.65 - 4.8 32.9 05 14 470A 0A17 Alarm State:  5
Wed Sep 20 16:15:22 PDT 2017 ON: 20.00 +20.0 19.64 - 3.8 33.1 00 14 4810 091E Alarm State:  5
Wed Sep 20 16:14:21 PDT 2017 ON: 20.00 +20.0 19.62 - 3.5 33.3 00 14 4811 0920 Alarm State:  5
Wed Sep 20 16:13:19 PDT 2017 ON: 20.00 +20.0 19.68 - 4.6 32.8 00 14 4726 092D Alarm State:  5
Wed Sep 20 16:12:18 PDT 2017 ON: 20.03 +20.0 19.66 - 3.3 33.4 00 14 4824 0918 Alarm State:  5
Wed Sep 20 16:11:16 PDT 2017 ON: 20.00 +20.0 19.63 - 3.2 33.7 07 14 4729 0904 Alarm State:  5
Wed Sep 20 16:10:15 PDT 2017 ON: 20.00 +20.0 19.67 - 4.6 32.9 07 14 4631 0918 Alarm State:  5
Wed Sep 20 16:09:13 PDT 2017 ON: 20.04 +20.0 19.66 - 4.1 33.1 00 14 4716 0922 Alarm State:  5
Wed Sep 20 16:08:12 PDT 2017 ON: 19.98 +20.0 19.66 - 4.3 33.2 00 14 4705 0922 Alarm State:  5
Wed Sep 20 16:07:10 PDT 2017 ON: 20.01 +20.0 19.71 - 5.0 32.8 0D 13 471F 0916 Alarm State:  5
Wed Sep 20 16:06:09 PDT 2017 ON: 19.99 +20.0 19.60 - 2.8 33.8 0A 14 4811 0909 Alarm State:  5
Wed Sep 20 16:05:07 PDT 2017 ON: 20.00 +20.0 19.67 - 3.9 33.8 00 14 472A 0914 Alarm State:  5
Wed Sep 20 16:04:06 PDT 2017 ON: 20.00 +20.0 19.70 - 5.0 32.9 0D 13 4715 0918 Alarm State:  5
Wed Sep 20 16:03:04 PDT 2017 ON: 20.01 +20.0 19.59 - 2.7 33.8 00 14 480A 0910 Alarm State:  5
Wed Sep 20 16:02:03 PDT 2017 ON: 20.00 +20.0 19.65 - 4.1 33.4 07 14 472A 0918 Alarm State:  5
Wed Sep 20 16:01:01 PDT 2017 ON: 20.02 +20.0 19.68 - 4.7 32.7 00 14 4732 0901 Alarm State:  5
Wed Sep 20 16:00:00 PDT 2017 ON: 20.00 +20.0 19.60 - 3.2 33.5 02 14 480A 0916 Alarm State:  5
Wed Sep 20 15:58:58 PDT 2017 ON: 19.99 +20.0 19.64 - 3.6 33.8 05 14 4725 091D Alarm State:  5
Wed Sep 20 15:57:57 PDT 2017 ON: 20.00 +20.0 19.68 - 4.5 33.1 00 14 4712 0921 Alarm State:  5
Wed Sep 20 15:56:55 PDT 2017 ON: 20.03 +20.0 19.65 - 3.5 33.3 00 14 4803 0927 Alarm State:  5
Wed Sep 20 15:55:54 PDT 2017 ON: 20.01 +20.0 19.68 - 3.9 33.6 07 14 4723 092E Alarm State:  5
Wed Sep 20 15:54:52 PDT 2017 ON: 20.02 +20.0 19.71 - 5.3 32.5 0D 13 471F 0925 Alarm State:  5
Wed Sep 20 15:53:51 PDT 2017 ON: 19.98 +20.0 19.61 - 2.9 34.0 0C 14 480B 092B Alarm State:  5
Wed Sep 20 15:52:49 PDT 2017 ON: 19.99 +20.0 19.66 - 4.1 33.6 00 14 4811 0920 Alarm State:  5
Wed Sep 20 15:51:48 PDT 2017 ON: 20.01 +20.0 19.71 - 5.1 32.9 08 13 4804 0916 Alarm State:  5
Wed Sep 20 15:50:46 PDT 2017 ON: 20.02 +20.0 19.65 - 3.2 33.5 00 14 4818 091E Alarm State:  5
Wed Sep 20 15:49:45 PDT 2017 ON: 20.01 +20.0 19.60 - 3.1 33.7 02 14 4811 0922 Alarm State:  5
Wed Sep 20 15:48:43 PDT 2017 ON: 19.98 +20.0 19.66 - 3.9 33.4 07 14 4805 0925 Alarm State:  5
Wed Sep 20 15:47:42 PDT 2017 ON: 20.02 +20.0 19.69 - 4.3 33.4 0D 14 481A 0905 Alarm State:  5
Wed Sep 20 15:46:40 PDT 2017 ON: 20.03 +20.0 19.68 - 4.6 33.4 00 14 4719 091A Alarm State:  5
Wed Sep 20 15:45:39 PDT 2017 ON: 20.01 +20.0 19.70 - 5.0 32.8 0D 14 4621 0A05 Alarm State:  5
Wed Sep 20 15:44:37 PDT 2017 ON: 20.00 +20.0 19.62 - 2.7 33.7 02 14 4720 0915 Alarm State:  5
Wed Sep 20 15:43:36 PDT 2017 ON: 20.00 +20.0 19.67 - 4.2 33.1 07 14 471B 0A0B Alarm State:  5
Wed Sep 20 15:42:34 PDT 2017 ON: 20.01 +20.0 19.67 - 4.1 33.1 00 14 4816 0921 Alarm State:  5
Wed Sep 20 15:41:33 PDT 2017 ON: 19.99 +20.0 19.62 - 3.2 33.5 05 14 4815 0919 Alarm State:  5
Wed Sep 20 15:40:31 PDT 2017 ON: 19.99 +20.0 19.67 - 4.2 33.2 05 14 4811 0A04 Alarm State:  5
Wed Sep 20 15:39:30 PDT 2017 ON: 20.01 +20.0 19.62 - 3.1 33.5 00 14 4915 0907 Alarm State:  5
Wed Sep 20 15:38:28 PDT 2017 ON: 20.01 +20.0 19.66 - 3.8 33.4 00 14 4820 091C Alarm State:  5
Wed Sep 20 15:37:27 PDT 2017 ON: 20.01 +20.0 19.65 - 3.5 33.4 00 14 480B 0903 Alarm State:  5
Wed Sep 20 15:36:25 PDT 2017 ON: 19.98 +20.0 19.63 - 4.0 33.4 05 14 4801 0921 Alarm State:  5
Wed Sep 20 15:35:24 PDT 2017 ON: 20.02 +20.0 19.69 - 4.9 32.7 05 14 4810 091E Alarm State:  5
Wed Sep 20 15:34:22 PDT 2017 ON: 20.00 +20.0 19.63 - 3.2 33.9 07 14 4731 0925 Alarm State:  5
Wed Sep 20 15:33:21 PDT 2017 ON: 20.02 +20.0 19.67 - 3.9 33.7 05 14 4708 090A Alarm State:  5
Wed Sep 20 15:32:20 PDT 2017 ON: 20.00 +20.0 19.67 - 4.8 32.9 05 14 4612 0A1C Alarm State:  5
Wed Sep 20 15:31:18 PDT 2017 ON: 19.99 +20.0 19.59 - 2.5 33.8 00 14 471D 0926 Alarm State:  5
Wed Sep 20 15:30:17 PDT 2017 ON: 20.00 +20.0 19.68 - 4.4 33.2 07 14 470A 092E Alarm State:  5
Wed Sep 20 15:29:15 PDT 2017 ON: 20.03 +20.0 19.70 - 4.9 32.7 08 13 471C 090D Alarm State:  5
Wed Sep 20 15:28:14 PDT 2017 ON: 20.01 +20.0 19.65 - 3.7 33.2 00 14 4715 0911 Alarm State:  5
Wed Sep 20 15:27:12 PDT 2017 ON: 19.97 +20.0 19.65 - 4.1 33.1 00 14 4715 092A Alarm State:  5
Wed Sep 20 15:26:11 PDT 2017 ON: 20.04 +20.0 19.69 - 4.5 32.8 08 14 4809 090F Alarm State:  5
Wed Sep 20 15:25:09 PDT 2017 ON: 20.00 +20.0 19.62 - 3.3 33.6 00 14 4728 0914 Alarm State:  5
Wed Sep 20 15:24:08 PDT 2017 ON: 19.99 +20.0 19.64 - 4.2 33.2 00 14 4715 0916 Alarm State:  5
Wed Sep 20 15:23:06 PDT 2017 ON: 20.04 +20.0 19.70 - 4.8 33.1 0D 13 4723 0920 Alarm State:  5
Wed Sep 20 15:22:05 PDT 2017 ON: 19.99 +20.0 19.62 - 3.2 33.6 05 14 4714 0924 Alarm State:  5
Wed Sep 20 15:21:03 PDT 2017 ON: 20.00 +20.0 19.65 - 4.2 33.4 0C 14 4631 0929 Alarm State:  5
Wed Sep 20 15:20:02 PDT 2017 ON: 20.04 +20.0 19.68 - 4.5 32.8 00 14 471B 0901 Alarm State:  5
Wed Sep 20 15:19:00 PDT 2017 ON: 19.98 +20.0 19.65 - 3.8 33.8 05 14 4717 0927 Alarm State:  5
Wed Sep 20 15:17:59 PDT 2017 ON: 20.02 +20.0 19.72 - 5.0 33.0 0A 12 470A 091B Alarm State:  5
Wed Sep 20 15:16:57 PDT 2017 ON: 20.01 +20.0 19.60 - 3.2 33.5 00 14 471C 090E Alarm State:  5
Wed Sep 20 15:15:56 PDT 2017 ON: 20.00 +20.0 19.66 - 4.3 33.4 07 14 462C 0918 Alarm State:  5
Wed Sep 20 15:14:54 PDT 2017 ON: 20.03 +20.0 19.71 - 5.4 32.2 0A 13 4709 0928 Alarm State:  5
Wed Sep 20 15:13:53 PDT 2017 ON: 19.98 +20.0 19.60 - 3.2 34.0 09 14 472E 091E Alarm State:  5
Wed Sep 20 15:12:51 PDT 2017 ON: 20.00 +20.0 19.69 - 4.7 33.0 0A 14 472E 0A03 Alarm State:  5
Wed Sep 20 15:11:50 PDT 2017 ON: 20.00 +20.0 19.61 - 2.8 33.6 00 14 482C 0922 Alarm State:  5
Wed Sep 20 15:10:48 PDT 2017 ON: 19.99 +20.0 19.66 - 3.6 33.8 02 14 4810 0904 Alarm State:  5
Wed Sep 20 15:09:47 PDT 2017 ON: 20.00 +20.0 19.67 - 4.3 33.3 00 14 472C 090A Alarm State:  5
Wed Sep 20 15:08:45 PDT 2017 ON: 20.03 +20.0 19.70 - 5.1 32.7 08 13 471A 0909 Alarm State:  5
Wed Sep 20 15:07:44 PDT 2017 ON: 19.99 +20.0 19.61 - 3.3 33.9 0A 14 4721 0928 Alarm State:  5
Wed Sep 20 15:06:42 PDT 2017 ON: 20.01 +20.0 19.68 - 4.8 33.0 05 14 4709 0925 Alarm State:  5
Wed Sep 20 15:05:41 PDT 2017 ON: 20.01 +20.0 19.61 - 2.7 33.7 05 14 4724 0907 Alarm State:  5
Wed Sep 20 15:04:39 PDT 2017 ON: 19.99 +20.0 19.65 - 3.9 33.6 05 14 4625 091C Alarm State:  5
Wed Sep 20 15:03:38 PDT 2017 ON: 19.99 +20.0 19.67 - 4.6 33.0 05 14 4610 092A Alarm State:  5
Wed Sep 20 15:02:36 PDT 2017 ON: 20.00 +20.0 19.66 - 3.7 33.3 00 14 4711 090A Alarm State:  5
Wed Sep 20 15:01:35 PDT 2017 ON: 19.99 +20.0 19.59 - 2.8 33.7 01 14 471C 0919 Alarm State:  5
Wed Sep 20 15:00:33 PDT 2017 ON: 20.00 +20.0 19.67 - 4.4 33.3 00 14 4700 0928 Alarm State:  5
Wed Sep 20 14:59:32 PDT 2017 ON: 20.02 +20.0 19.72 - 5.8 32.0 0A 13 4701 0A1C Alarm State:  5
Wed Sep 20 14:58:30 PDT 2017 ON: 19.97 +20.0 19.62 - 3.5 33.6 07 14 4721 0A11 Alarm State:  5
Wed Sep 20 14:57:29 PDT 2017 ON: 20.04 +20.0 19.69 - 4.7 32.8 0D 14 4805 090D Alarm State:  5
Wed Sep 20 14:56:27 PDT 2017 ON: 20.00 +20.0 19.64 - 3.1 33.8 05 14 4724 0912 Alarm State:  5
Wed Sep 20 14:55:26 PDT 2017 ON: 20.01 +20.0 19.69 - 4.6 33.1 07 14 4630 0924 Alarm State:  5
Wed Sep 20 14:54:24 PDT 2017 ON: 20.01 +20.0 19.64 - 3.5 33.3 00 14 4719 0A01 Alarm State:  5
Wed Sep 20 14:53:23 PDT 2017 ON: 19.98 +20.0 19.65 - 4.3 33.1 07 14 4702 0A22 Alarm State:  5
Wed Sep 20 14:52:21 PDT 2017 ON: 20.02 +20.0 19.64 - 3.2 33.5 00 14 480C 091F Alarm State:  5
Wed Sep 20 14:51:20 PDT 2017 ON: 19.96 +20.0 19.63 - 4.1 33.3 05 14 4810 0A06 Alarm State:  5
Wed Sep 20 14:50:18 PDT 2017 ON: 20.01 +20.0 19.66 - 3.5 33.3 00 14 490E 090F Alarm State:  5
Wed Sep 20 14:49:17 PDT 2017 ON: 19.99 +20.0 19.64 - 3.5 33.9 05 14 482B 0910 Alarm State:  5
Wed Sep 20 14:48:15 PDT 2017 ON: 19.99 +20.0 19.66 - 4.0 33.6 05 14 4810 0918 Alarm State:  5
Wed Sep 20 14:47:14 PDT 2017 ON: 19.99 +20.0 19.63 - 3.5 33.8 07 14 480E 0921 Alarm State:  5
Wed Sep 20 14:46:13 PDT 2017 ON: 20.00 +20.0 19.61 - 3.3 33.5 00 14 4813 0923 Alarm State:  5
Wed Sep 20 14:45:11 PDT 2017 ON: 20.00 +20.0 19.67 - 4.1 33.5 07 14 4809 0928 Alarm State:  5
Wed Sep 20 14:44:10 PDT 2017 ON: 20.03 +20.0 19.70 - 4.5 33.3 0A 13 4812 091D Alarm State:  5
Wed Sep 20 14:43:08 PDT 2017 ON: 20.02 +20.0 19.73 - 5.5 32.4 0A 12 4731 0920 Alarm State:  5
Wed Sep 20 14:42:07 PDT 2017 ON: 19.98 +20.0 19.60 - 2.8 34.0 05 14 481D 0915 Alarm State:  5
Wed Sep 20 14:41:05 PDT 2017 ON: 20.01 +20.0 19.66 - 4.3 33.6 05 14 4732 091C Alarm State:  5
Wed Sep 20 14:40:04 PDT 2017 ON: 19.99 +20.0 19.68 - 4.4 33.5 05 14 4717 0903 Alarm State:  5
Wed Sep 20 14:39:02 PDT 2017 ON: 20.00 +20.0 19.69 - 4.5 33.2 0D 14 471B 0A08 Alarm State:  5
Wed Sep 20 14:38:01 PDT 2017 ON: 20.02 +20.0 19.64 - 3.9 33.1 00 14 480F 0908 Alarm State:  5
Wed Sep 20 14:36:59 PDT 2017 ON: 20.00 +20.0 19.66 - 3.8 33.8 05 14 4809 0924 Alarm State:  5
Wed Sep 20 14:35:58 PDT 2017 ON: 20.02 +20.0 19.70 - 4.7 33.0 0D 13 4806 0912 Alarm State:  5
Wed Sep 20 14:34:56 PDT 2017 ON: 20.02 +20.0 19.64 - 3.2 33.5 00 14 482E 0920 Alarm State:  5
Wed Sep 20 14:33:55 PDT 2017 ON: 20.03 +20.0 19.67 - 4.0 33.3 02 14 4801 0909 Alarm State:  5
Wed Sep 20 14:32:53 PDT 2017 ON: 19.99 +20.0 19.64 - 3.5 33.8 02 14 471E 0910 Alarm State:  5
Wed Sep 20 14:31:52 PDT 2017 ON: 19.99 +20.0 19.67 - 4.5 33.2 05 14 4701 0912 Alarm State:  5
Wed Sep 20 14:30:50 PDT 2017 ON: 20.01 +20.0 19.67 - 3.8 33.2 00 14 471B 0916 Alarm State:  5
Wed Sep 20 14:29:49 PDT 2017 ON: 19.98 +20.0 19.65 - 4.0 33.3 00 14 4724 092E Alarm State:  5
Wed Sep 20 14:28:47 PDT 2017 ON: 20.03 +20.0 19.67 - 4.5 33.1 00 14 4813 0914 Alarm State:  5
Wed Sep 20 14:27:46 PDT 2017 ON: 20.01 +20.0 19.68 - 4.3 33.1 08 14 4802 091E Alarm State:  5
Wed Sep 20 14:26:44 PDT 2017 ON: 20.04 +20.0 19.69 - 5.0 32.5 0D 14 4717 0902 Alarm State:  5
Wed Sep 20 14:25:43 PDT 2017 ON: 20.00 +20.0 19.64 - 3.9 33.6 0C 14 4710 0930 Alarm State:  5
Wed Sep 20 14:24:41 PDT 2017 ON: 20.02 +20.0 19.73 - 5.6 32.4 0D 12 4706 0A1D Alarm State:  5
Wed Sep 20 14:23:40 PDT 2017 ON: 19.97 +20.0 19.60 - 3.0 34.0 0A 14 4800 0A02 Alarm State:  5
Wed Sep 20 14:22:38 PDT 2017 ON: 20.00 +20.0 19.68 - 4.6 33.1 08 14 4804 0923 Alarm State:  5
Wed Sep 20 14:21:37 PDT 2017 ON: 20.01 +20.0 19.63 - 3.1 33.5 02 14 4825 0928 Alarm State:  5
Wed Sep 20 14:20:35 PDT 2017 ON: 20.01 +20.0 19.66 - 4.1 33.4 07 14 4730 090A Alarm State:  5
Wed Sep 20 14:19:34 PDT 2017 ON: 20.05 +20.0 19.70 - 5.1 32.5 0A 13 4806 0902 Alarm State:  5
Wed Sep 20 14:18:32 PDT 2017 ON: 20.00 +20.0 19.62 - 3.1 33.8 07 14 4725 090B Alarm State:  5
Wed Sep 20 14:17:31 PDT 2017 ON: 20.01 +20.0 19.68 - 4.8 33.1 05 14 4627 091B Alarm State:  5
Wed Sep 20 14:16:29 PDT 2017 ON: 20.00 +20.0 19.60 - 2.8 33.8 00 14 470E 0924 Alarm State:  5
Wed Sep 20 14:15:28 PDT 2017 ON: 19.98 +20.0 19.65 - 4.7 33.0 00 14 4701 0A26 Alarm State:  5
Wed Sep 20 14:14:26 PDT 2017 ON: 20.01 +20.0 19.62 - 2.8 33.7 00 14 480C 0926 Alarm State:  5
Wed Sep 20 14:13:25 PDT 2017 ON: 19.98 +20.0 19.63 - 4.5 33.0 05 14 4801 0A25 Alarm State:  5
Wed Sep 20 14:12:23 PDT 2017 ON: 20.00 +20.0 19.61 - 2.7 33.6 00 14 490C 091D Alarm State:  5
Wed Sep 20 14:11:22 PDT 2017 ON: 20.00 +20.0 19.63 - 3.4 33.8 07 14 4907 0917 Alarm State:  5
Wed Sep 20 14:10:20 PDT 2017 ON: 20.01 +20.0 19.65 - 3.7 33.8 05 14 4914 0913 Alarm State:  5
Wed Sep 20 14:09:19 PDT 2017 ON: 20.01 +20.0 19.65 - 4.3 33.6 02 14 4831 0916 Alarm State:  5
Wed Sep 20 14:08:17 PDT 2017 ON: 20.01 +20.0 19.68 - 4.5 33.3 0D 14 481C 091C Alarm State:  5
Wed Sep 20 14:07:16 PDT 2017 ON: 20.01 +20.0 19.69 - 4.8 33.0 08 14 481A 0917 Alarm State:  5
Wed Sep 20 14:06:14 PDT 2017 ON: 20.01 +20.0 19.70 - 4.5 33.3 0D 13 4807 091F Alarm State:  5
Wed Sep 20 14:05:13 PDT 2017 ON: 20.03 +20.0 19.71 - 4.9 33.0 0D 13 4718 0901 Alarm State:  5
Wed Sep 20 14:04:11 PDT 2017 ON: 20.04 +20.0 19.68 - 4.6 32.6 00 14 4713 0924 Alarm State:  5
Wed Sep 20 14:03:10 PDT 2017 ON: 19.99 +20.0 19.65 - 3.6 33.9 02 14 471F 0911 Alarm State:  5
Wed Sep 20 14:02:08 PDT 2017 ON: 20.02 +20.0 19.68 - 4.5 33.4 05 14 4716 0909 Alarm State:  5
Wed Sep 20 14:01:07 PDT 2017 ON: 20.00 +20.0 19.70 - 5.0 32.9 0D 13 470A 0912 Alarm State:  5
Wed Sep 20 14:00:05 PDT 2017 ON: 19.99 +20.0 19.58 - 2.8 33.7 04 14 4806 0909 Alarm State:  5
Wed Sep 20 13:59:04 PDT 2017 ON: 20.01 +20.0 19.68 - 4.4 33.2 00 14 4715 0916 Alarm State:  5
Wed Sep 20 13:58:03 PDT 2017 ON: 20.01 +20.0 19.70 - 4.9 32.8 08 13 471A 0908 Alarm State:  5
Wed Sep 20 13:57:01 PDT 2017 ON: 20.00 +20.0 19.63 - 3.1 33.7 05 14 4728 091E Alarm State:  5
Wed Sep 20 13:56:00 PDT 2017 ON: 20.01 +20.0 19.68 - 4.5 33.0 07 14 4709 0928 Alarm State:  5
Wed Sep 20 13:54:58 PDT 2017 ON: 20.00 +20.0 19.60 - 2.9 33.5 02 14 480A 090F Alarm State:  5
Wed Sep 20 13:53:57 PDT 2017 ON: 20.00 +20.0 19.66 - 4.1 33.4 07 14 4726 0915 Alarm State:  5
Wed Sep 20 13:52:55 PDT 2017 ON: 20.01 +20.0 19.69 - 5.0 32.8 0D 14 4724 0910 Alarm State:  5
Wed Sep 20 13:51:54 PDT 2017 ON: 20.01 +20.0 19.64 - 3.5 33.4 00 14 4731 0902 Alarm State:  5
Wed Sep 20 13:50:52 PDT 2017 ON: 20.04 +20.0 19.70 - 4.5 32.9 0D 14 4632 0A17 Alarm State:  5
Wed Sep 20 13:49:51 PDT 2017 ON: 19.97 +20.0 19.62 - 3.9 33.3 07 14 4712 0A18 Alarm State:  5
Wed Sep 20 13:48:49 PDT 2017 ON: 20.03 +20.0 19.69 - 4.5 32.9 0D 14 4801 090B Alarm State:  5
Wed Sep 20 13:47:48 PDT 2017 ON: 20.02 +20.0 19.63 - 3.1 33.6 05 14 4729 0905 Alarm State:  5
Wed Sep 20 13:46:46 PDT 2017 ON: 19.98 +20.0 19.66 - 4.3 33.1 07 14 471B 092B Alarm State:  5
Wed Sep 20 13:45:45 PDT 2017 ON: 20.02 +20.0 19.68 - 4.5 33.0 05 14 480F 0916 Alarm State:  5
Wed Sep 20 13:44:43 PDT 2017 ON: 20.01 +20.0 19.64 - 3.6 33.3 00 14 480D 090D Alarm State:  5
Wed Sep 20 13:43:42 PDT 2017 ON: 20.00 +20.0 19.68 - 4.4 33.1 05 14 471F 091F Alarm State:  5
Wed Sep 20 13:42:40 PDT 2017 ON: 20.04 +20.0 19.67 - 4.2 33.1 00 14 4725 090E Alarm State:  5
Wed Sep 20 13:41:39 PDT 2017 ON: 20.01 +20.0 19.62 - 3.4 33.7 00 14 4718 0914 Alarm State:  5
Wed Sep 20 13:40:37 PDT 2017 ON: 19.98 +20.0 19.65 - 4.5 33.0 05 14 470C 0A0D Alarm State:  5
Wed Sep 20 13:39:36 PDT 2017 ON: 20.01 +20.0 19.61 - 2.5 33.8 02 14 4812 090C Alarm State:  5
Wed Sep 20 13:38:34 PDT 2017 ON: 19.99 +20.0 19.66 - 3.8 33.8 05 14 471F 091D Alarm State:  5
Wed Sep 20 13:37:33 PDT 2017 ON: 20.00 +20.0 19.67 - 4.2 33.6 00 14 4714 0929 Alarm State:  5
Wed Sep 20 13:36:31 PDT 2017 ON: 20.02 +20.0 19.70 - 5.2 32.8 0D 13 4712 0924 Alarm State:  5
Wed Sep 20 13:35:30 PDT 2017 ON: 19.99 +20.0 19.60 - 2.6 33.8 00 14 4814 0903 Alarm State:  5
Wed Sep 20 13:34:28 PDT 2017 ON: 19.99 +20.0 19.65 - 3.9 33.8 0A 14 4731 090A Alarm State:  5
Wed Sep 20 13:33:27 PDT 2017 ON: 20.01 +20.0 19.69 - 4.5 33.3 0A 14 4722 090C Alarm State:  5
Wed Sep 20 13:32:25 PDT 2017 ON: 20.01 +20.0 19.71 - 5.3 32.5 08 13 472C 091C Alarm State:  5
Wed Sep 20 13:31:24 PDT 2017 ON: 19.97 +20.0 19.59 - 3.2 33.9 09 14 481C 091A Alarm State:  5
Wed Sep 20 13:30:22 PDT 2017 ON: 20.01 +20.0 19.68 - 5.0 33.0 0D 14 480C 090B Alarm State:  5
Wed Sep 20 13:29:21 PDT 2017 ON: 20.00 +20.0 19.64 - 3.3 33.4 00 14 4900 0906 Alarm State:  5
Wed Sep 20 13:28:19 PDT 2017 ON: 20.01 +20.0 19.64 - 3.2 33.8 05 14 4829 0907 Alarm State:  5
Wed Sep 20 13:27:18 PDT 2017 ON: 20.02 +20.0 19.66 - 3.8 33.4 05 14 4812 090F Alarm State:  5
Wed Sep 20 13:26:16 PDT 2017 ON: 20.01 +20.0 19.65 - 3.9 33.2 00 14 481B 0911 Alarm State:  5
Wed Sep 20 13:25:15 PDT 2017 ON: 20.01 +20.0 19.62 - 3.3 33.4 00 14 481F 090E Alarm State:  5
Wed Sep 20 13:24:13 PDT 2017 ON: 20.01 +20.0 19.66 - 3.4 33.5 07 14 4804 091A Alarm State:  5
Wed Sep 20 13:23:12 PDT 2017 ON: 19.98 +20.0 19.66 - 4.2 33.4 05 14 471F 0930 Alarm State:  5
Wed Sep 20 13:22:10 PDT 2017 ON: 20.01 +20.0 19.72 - 5.3 32.6 0A 12 4728 0912 Alarm State:  5
Wed Sep 20 13:21:09 PDT 2017 ON: 20.00 +20.0 19.61 - 3.0 33.9 05 14 480B 0916 Alarm State:  5
Wed Sep 20 13:20:07 PDT 2017 ON: 20.00 +20.0 19.67 - 4.2 33.7 05 14 4719 0920 Alarm State:  5
Wed Sep 20 13:19:06 PDT 2017 ON: 20.01 +20.0 19.69 - 5.2 32.8 05 14 461E 090C Alarm State:  5
Wed Sep 20 13:18:04 PDT 2017 ON: 20.03 +20.0 19.63 - 3.4 33.4 00 14 4712 0913 Alarm State:  5
Wed Sep 20 13:17:03 PDT 2017 ON: 19.99 +20.0 19.64 - 3.9 33.7 05 14 4631 0916 Alarm State:  5
Wed Sep 20 13:16:01 PDT 2017 ON: 20.01 +20.0 19.70 - 4.7 33.2 0D 13 462E 090C Alarm State:  5
Wed Sep 20 13:15:00 PDT 2017 ON: 20.02 +20.0 19.69 - 5.0 32.8 0A 14 470B 091C Alarm State:  5
Wed Sep 20 13:13:58 PDT 2017 ON: 19.99 +20.0 19.62 - 3.0 33.7 00 14 472C 0928 Alarm State:  5
Wed Sep 20 13:12:57 PDT 2017 ON: 20.00 +20.0 19.67 - 4.5 33.3 00 14 470A 090A Alarm State:  5
Wed Sep 20 13:11:55 PDT 2017 ON: 20.01 +20.0 19.72 - 5.3 32.6 0D 12 4717 0923 Alarm State:  5
Wed Sep 20 13:10:54 PDT 2017 ON: 20.00 +20.0 19.61 - 2.9 33.7 00 14 4808 0902 Alarm State:  5
Wed Sep 20 13:09:52 PDT 2017 ON: 20.01 +20.0 19.67 - 4.3 33.5 05 14 4722 0908 Alarm State:  5
Wed Sep 20 13:08:51 PDT 2017 ON: 20.00 +20.0 19.71 - 5.1 32.8 0D 13 471A 0924 Alarm State:  5
Wed Sep 20 13:07:49 PDT 2017 ON: 19.99 +20.0 19.61 - 2.9 33.8 0A 14 4810 091A Alarm State:  5
Wed Sep 20 13:06:48 PDT 2017 ON: 20.00 +20.0 19.66 - 3.9 33.7 05 14 472D 0921 Alarm State:  5
Wed Sep 20 13:05:46 PDT 2017 ON: 19.98 +20.0 19.67 - 4.6 33.0 05 14 471C 0931 Alarm State:  5
Wed Sep 20 13:04:45 PDT 2017 ON: 20.03 +20.0 19.66 - 3.7 33.2 00 14 481B 091C Alarm State:  5
Wed Sep 20 13:03:43 PDT 2017 ON: 19.99 +20.0 19.65 - 3.8 33.6 05 14 4824 0A08 Alarm State:  5
Wed Sep 20 13:02:42 PDT 2017 ON: 20.02 +20.0 19.70 - 4.7 33.2 0D 13 4830 0915 Alarm State:  5
Wed Sep 20 13:01:41 PDT 2017 ON: 20.02 +20.0 19.68 - 4.1 33.7 0D 14 4813 0923 Alarm State:  5
Wed Sep 20 13:00:39 PDT 2017 ON: 20.01 +20.0 19.70 - 5.0 33.1 0D 13 4716 090D Alarm State:  5
Wed Sep 20 12:59:38 PDT 2017 ON: 20.02 +20.0 19.67 - 5.1 32.4 02 14 4709 0915 Alarm State:  5
Wed Sep 20 12:58:36 PDT 2017 ON: 19.99 +20.0 19.64 - 3.7 33.8 05 14 4715 092C Alarm State:  5
Wed Sep 20 12:57:35 PDT 2017 ON: 20.00 +20.0 19.70 - 4.5 33.2 0D 13 470E 0918 Alarm State:  5
Wed Sep 20 12:56:33 PDT 2017 ON: 20.05 +20.0 19.69 - 4.9 32.6 0D 14 4712 091F Alarm State:  5
Wed Sep 20 12:55:32 PDT 2017 ON: 20.00 +20.0 19.65 - 3.5 33.8 05 14 4713 0919 Alarm State:  5
Wed Sep 20 12:54:30 PDT 2017 ON: 20.00 +20.0 19.68 - 4.7 33.1 05 14 4701 091E Alarm State:  5
Wed Sep 20 12:53:29 PDT 2017 ON: 20.03 +20.0 19.67 - 4.1 33.1 00 14 4716 0906 Alarm State:  5
Wed Sep 20 12:52:27 PDT 2017 ON: 19.98 +20.0 19.67 - 4.4 33.1 05 14 4710 0928 Alarm State:  5
Wed Sep 20 12:51:26 PDT 2017 ON: 20.01 +20.0 19.68 - 4.5 33.1 0D 14 4800 0911 Alarm State:  5
Wed Sep 20 12:50:24 PDT 2017 ON: 20.00 +20.0 19.60 - 3.0 33.7 05 14 4814 0926 Alarm State:  5
Wed Sep 20 12:49:23 PDT 2017 ON: 19.99 +20.0 19.67 - 4.6 32.9 02 14 472C 0A05 Alarm State:  5
Wed Sep 20 12:48:21 PDT 2017 ON: 20.02 +20.0 19.67 - 3.9 33.3 00 14 4825 0921 Alarm State:  5
Wed Sep 20 12:47:20 PDT 2017 ON: 20.04 +20.0 19.68 - 5.1 32.5 00 14 4727 090A Alarm State:  5
Wed Sep 20 12:46:18 PDT 2017 ON: 19.98 +20.0 19.62 - 3.9 33.7 05 14 4800 091A Alarm State:  5
Wed Sep 20 12:45:17 PDT 2017 ON: 20.02 +20.0 19.73 - 5.4 32.7 0D 12 4730 0927 Alarm State:  5
Wed Sep 20 12:44:15 PDT 2017 ON: 20.01 +20.0 19.62 - 3.3 33.4 00 14 480A 091D Alarm State:  5
Wed Sep 20 12:43:14 PDT 2017 ON: 19.99 +20.0 19.63 - 3.5 33.8 02 14 4729 091E Alarm State:  5
Wed Sep 20 12:42:12 PDT 2017 ON: 19.99 +20.0 19.68 - 4.5 33.1 00 14 4722 091A Alarm State:  5
Wed Sep 20 12:41:11 PDT 2017 ON: 20.03 +20.0 19.67 - 4.0 33.2 00 14 4815 0910 Alarm State:  5
Wed Sep 20 12:40:09 PDT 2017 ON: 20.01 +20.0 19.68 - 4.5 33.1 02 14 4729 0924 Alarm State:  5
Wed Sep 20 12:39:08 PDT 2017 ON: 20.02 +20.0 19.65 - 3.6 33.3 00 14 4721 0900 Alarm State:  5
Wed Sep 20 12:38:06 PDT 2017 ON: 20.00 +20.0 19.66 - 3.9 33.8 0C 14 470A 092B Alarm State:  5
Wed Sep 20 12:37:05 PDT 2017 ON: 19.98 +20.0 19.69 - 5.1 32.8 0D 14 470A 0A26 Alarm State:  5
Wed Sep 20 12:36:03 PDT 2017 ON: 19.97 +20.0 19.62 - 2.6 34.0 07 14 4812 0923 Alarm State:  5
Wed Sep 20 12:35:02 PDT 2017 ON: 20.00 +20.0 19.67 - 4.6 33.2 05 14 4800 0922 Alarm State:  5
Wed Sep 20 12:34:00 PDT 2017 ON: 20.02 +20.0 19.63 - 4.2 33.0 00 14 4819 0904 Alarm State:  5
Wed Sep 20 12:32:59 PDT 2017 ON: 19.99 +20.0 19.65 - 3.9 33.7 05 14 4805 0A01 Alarm State:  5
Wed Sep 20 12:31:57 PDT 2017 ON: 20.02 +20.0 19.69 - 4.7 33.0 0D 14 4804 091B Alarm State:  5
Wed Sep 20 12:30:56 PDT 2017 ON: 20.01 +20.0 19.69 - 4.3 33.4 0D 14 480E 0908 Alarm State:  5
Wed Sep 20 12:29:54 PDT 2017 ON: 20.01 +20.0 19.71 - 4.8 33.2 0D 13 4718 091A Alarm State:  5
Wed Sep 20 12:28:53 PDT 2017 ON: 20.02 +20.0 19.66 - 4.7 32.6 00 14 470E 0927 Alarm State:  5
Wed Sep 20 12:27:51 PDT 2017 ON: 19.96 +20.0 19.66 - 3.9 33.3 07 14 4719 0A03 Alarm State:  5
Wed Sep 20 12:26:50 PDT 2017 ON: 20.04 +20.0 19.70 - 4.6 32.9 0A 13 4731 0927 Alarm State:  5
Wed Sep 20 12:25:48 PDT 2017 ON: 20.04 +20.0 19.68 - 4.1 33.1 00 14 4726 0927 Alarm State:  5
Wed Sep 20 12:24:47 PDT 2017 ON: 19.99 +20.0 19.62 - 3.4 33.8 05 14 4728 091E Alarm State:  5
Wed Sep 20 12:23:45 PDT 2017 ON: 20.01 +20.0 19.70 - 5.0 32.9 0D 13 4711 0922 Alarm State:  5
Wed Sep 20 12:22:44 PDT 2017 ON: 19.98 +20.0 19.59 - 2.6 33.8 01 14 480C 090C Alarm State:  5
Wed Sep 20 12:21:42 PDT 2017 ON: 20.00 +20.0 19.67 - 4.2 33.6 00 14 4718 0916 Alarm State:  5
Wed Sep 20 12:20:41 PDT 2017 ON: 20.01 +20.0 19.69 - 4.9 32.9 00 14 4621 0A02 Alarm State:  5
Wed Sep 20 12:19:39 PDT 2017 ON: 20.01 +20.0 19.63 - 3.0 33.5 00 14 4729 0919 Alarm State:  5
Wed Sep 20 12:18:38 PDT 2017 ON: 20.01 +20.0 19.64 - 4.2 33.0 0A 14 471B 0A16 Alarm State:  5
Wed Sep 20 12:17:36 PDT 2017 ON: 20.02 +20.0 19.65 - 4.0 33.0 00 14 480F 090C Alarm State:  5
Wed Sep 20 12:16:35 PDT 2017 ON: 20.00 +20.0 19.62 - 3.3 33.8 05 14 4801 0913 Alarm State:  5
Wed Sep 20 12:15:33 PDT 2017 ON: 19.99 +20.0 19.69 - 4.7 33.0 0D 14 4723 0A19 Alarm State:  5
Wed Sep 20 12:14:32 PDT 2017 ON: 20.02 +20.0 19.62 - 3.3 33.5 00 14 4828 0900 Alarm State:  5
Wed Sep 20 12:13:30 PDT 2017 ON: 20.02 +20.0 19.64 - 4.0 33.3 00 14 4811 090C Alarm State:  5
Wed Sep 20 12:12:29 PDT 2017 ON: 20.01 +20.0 19.66 - 3.6 33.4 02 14 4732 0917 Alarm State:  5
Wed Sep 20 12:11:27 PDT 2017 ON: 20.02 +20.0 19.67 - 4.3 33.1 00 14 4701 0902 Alarm State:  5
Wed Sep 20 12:10:26 PDT 2017 ON: 19.97 +20.0 19.66 - 4.0 33.5 07 14 462A 0920 Alarm State:  5
Wed Sep 20 12:09:25 PDT 2017 ON: 20.01 +20.0 19.72 - 5.2 32.3 0A 12 470E 0923 Alarm State:  5
Wed Sep 20 12:08:23 PDT 2017 ON: 19.98 +20.0 19.61 - 3.0 34.0 05 14 472A 0924 Alarm State:  5
Wed Sep 20 12:07:22 PDT 2017 ON: 19.99 +20.0 19.67 - 4.0 33.8 00 14 472B 0916 Alarm State:  5
Wed Sep 20 12:06:20 PDT 2017 ON: 20.00 +20.0 19.67 - 5.0 32.9 0C 14 471B 0A1D Alarm State:  5
Wed Sep 20 12:05:19 PDT 2017 ON: 19.98 +20.0 19.58 - 2.5 34.0 07 14 4825 091C Alarm State:  5
Wed Sep 20 12:04:17 PDT 2017 ON: 20.00 +20.0 19.65 - 3.4 33.8 05 14 482F 0911 Alarm State:  5
Wed Sep 20 12:03:16 PDT 2017 ON: 20.01 +20.0 19.66 - 4.4 33.4 07 14 4808 0923 Alarm State:  5
Wed Sep 20 12:02:14 PDT 2017 ON: 20.02 +20.0 19.71 - 5.0 32.7 08 13 4725 0901 Alarm State:  5
Wed Sep 20 12:01:13 PDT 2017 ON: 19.99 +20.0 19.61 - 3.0 33.7 00 14 4728 0922 Alarm State:  5
Wed Sep 20 12:00:11 PDT 2017 ON: 20.00 +20.0 19.66 - 4.4 33.0 07 14 4710 092F Alarm State:  5
Wed Sep 20 11:59:10 PDT 2017 ON: 20.01 +20.0 19.65 - 3.5 33.3 00 14 480A 0916 Alarm State:  5
Wed Sep 20 11:58:08 PDT 2017 ON: 19.98 +20.0 19.64 - 3.7 33.7 00 14 4730 0910 Alarm State:  5
Wed Sep 20 11:57:07 PDT 2017 ON: 20.05 +20.0 19.71 - 4.9 33.1 0A 13 4732 0903 Alarm State:  5
Wed Sep 20 11:56:05 PDT 2017 ON: 20.03 +20.0 19.65 - 4.0 33.0 00 14 4719 0911 Alarm State:  5
Wed Sep 20 11:55:04 PDT 2017 ON: 19.99 +20.0 19.64 - 3.6 33.8 07 14 4705 091A Alarm State:  5
Wed Sep 20 11:54:02 PDT 2017 ON: 20.01 +20.0 19.70 - 4.7 33.1 0D 13 4623 091E Alarm State:  5
Wed Sep 20 11:53:01 PDT 2017 ON: 20.01 +20.0 19.61 - 3.3 33.4 00 14 4722 090A Alarm State:  5
Wed Sep 20 11:51:59 PDT 2017 ON: 19.99 +20.0 19.65 - 3.8 33.7 0C 14 4721 0925 Alarm State:  5
Wed Sep 20 11:50:58 PDT 2017 ON: 20.00 +20.0 19.67 - 4.4 33.1 00 14 4808 092B Alarm State:  5
Wed Sep 20 11:49:56 PDT 2017 ON: 20.02 +20.0 19.66 - 3.8 33.4 00 14 4829 0907 Alarm State:  5
Wed Sep 20 11:48:55 PDT 2017 ON: 20.03 +20.0 19.72 - 5.4 32.4 0D 12 4724 091C Alarm State:  5
Wed Sep 20 11:47:53 PDT 2017 ON: 19.98 +20.0 19.61 - 3.0 34.0 02 14 480A 091C Alarm State:  5
Wed Sep 20 11:46:52 PDT 2017 ON: 20.00 +20.0 19.68 - 4.3 33.1 0A 14 4810 092A Alarm State:  5
Wed Sep 20 11:45:50 PDT 2017 ON: 20.03 +20.0 19.67 - 4.2 33.1 08 14 4900 0907 Alarm State:  5
Wed Sep 20 11:44:49 PDT 2017 ON: 20.00 +20.0 19.62 - 3.1 33.6 00 14 481B 0916 Alarm State:  5
Wed Sep 20 11:43:47 PDT 2017 ON: 20.00 +20.0 19.67 - 4.3 33.1 07 14 4723 0928 Alarm State:  5
Wed Sep 20 11:42:46 PDT 2017 ON: 20.03 +20.0 19.68 - 4.2 33.0 05 14 480A 0905 Alarm State:  5
Wed Sep 20 11:41:44 PDT 2017 ON: 19.99 +20.0 19.63 - 3.0 33.8 07 14 472A 0907 Alarm State:  5
Wed Sep 20 11:40:43 PDT 2017 ON: 20.01 +20.0 19.69 - 4.5 33.2 0D 14 4704 0914 Alarm State:  5
Wed Sep 20 11:39:41 PDT 2017 ON: 20.04 +20.0 19.67 - 3.9 33.2 00 14 4719 0908 Alarm State:  5
Wed Sep 20 11:38:40 PDT 2017 ON: 19.98 +20.0 19.66 - 4.2 33.3 00 14 4707 0A05 Alarm State:  5
Wed Sep 20 11:37:38 PDT 2017 ON: 20.04 +20.0 19.70 - 5.0 32.7 0A 13 471E 0907 Alarm State:  5
Wed Sep 20 11:36:37 PDT 2017 ON: 19.98 +20.0 19.62 - 2.7 33.9 05 14 480B 0907 Alarm State:  5
Wed Sep 20 11:35:35 PDT 2017 ON: 20.00 +20.0 19.68 - 4.7 33.0 0C 14 471C 0915 Alarm State:  5
Wed Sep 20 11:34:34 PDT 2017 ON: 20.02 +20.0 19.64 - 3.5 33.4 00 14 4801 0900 Alarm State:  5
Wed Sep 20 11:33:32 PDT 2017 ON: 20.01 +20.0 19.65 - 3.9 33.2 00 14 4705 0914 Alarm State:  5
Wed Sep 20 11:32:31 PDT 2017 ON: 20.00 +20.0 19.64 - 4.1 33.4 00 14 4620 091B Alarm State:  5
Wed Sep 20 11:31:29 PDT 2017 ON: 20.02 +20.0 19.70 - 4.9 32.6 05 13 4706 0914 Alarm State:  5
Wed Sep 20 11:30:28 PDT 2017 ON: 20.00 +20.0 19.61 - 3.0 33.7 02 14 4718 091C Alarm State:  5
Wed Sep 20 11:29:26 PDT 2017 ON: 19.99 +20.0 19.65 - 4.1 33.3 05 14 471F 0A0C Alarm State:  5
Wed Sep 20 11:28:25 PDT 2017 ON: 20.02 +20.0 19.65 - 3.6 33.2 00 14 481E 0900 Alarm State:  5
Wed Sep 20 11:27:23 PDT 2017 ON: 20.00 +20.0 19.64 - 3.4 33.9 07 14 4813 092C Alarm State:  5
Wed Sep 20 11:26:22 PDT 2017 ON: 20.01 +20.0 19.69 - 5.1 33.0 0D 14 472C 0906 Alarm State:  5
Wed Sep 20 11:25:20 PDT 2017 ON: 20.00 +20.0 19.61 - 2.7 33.7 00 14 4818 090D Alarm State:  5
Wed Sep 20 11:24:19 PDT 2017 ON: 20.00 +20.0 19.65 - 3.9 33.7 00 14 4800 091C Alarm State:  5
Wed Sep 20 11:23:17 PDT 2017 ON: 20.00 +20.0 19.71 - 5.2 32.7 0D 13 4720 091E Alarm State:  5
Wed Sep 20 11:22:16 PDT 2017 ON: 20.01 +20.0 19.62 - 2.8 33.7 00 14 4811 0918 Alarm State:  5
Wed Sep 20 11:21:14 PDT 2017 ON: 20.00 +20.0 19.66 - 4.1 33.3 00 14 4721 0926 Alarm State:  5
Wed Sep 20 11:20:13 PDT 2017 ON: 20.03 +20.0 19.68 - 4.2 33.0 08 14 4802 0909 Alarm State:  5
Wed Sep 20 11:19:11 PDT 2017 ON: 20.01 +20.0 19.62 - 3.0 33.7 05 14 4726 090D Alarm State:  5
Wed Sep 20 11:18:10 PDT 2017 ON: 19.99 +20.0 19.64 - 3.7 33.8 05 14 470E 091A Alarm State:  5
Wed Sep 20 11:17:08 PDT 2017 ON: 20.02 +20.0 19.71 - 5.4 32.7 0D 13 4622 0924 Alarm State:  5
Wed Sep 20 11:16:07 PDT 2017 ON: 19.99 +20.0 19.59 - 2.5 33.9 01 14 471B 0921 Alarm State:  5
Wed Sep 20 11:15:05 PDT 2017 ON: 19.99 +20.0 19.67 - 4.2 33.5 05 14 470C 0921 Alarm State:  5
Wed Sep 20 11:14:04 PDT 2017 ON: 20.04 +20.0 19.73 - 5.2 32.7 0D 12 4706 0914 Alarm State:  5
Wed Sep 20 11:13:02 PDT 2017 ON: 20.01 +20.0 19.63 - 3.3 33.4 00 14 471B 0921 Alarm State:  5
Wed Sep 20 11:12:01 PDT 2017 ON: 20.00 +20.0 19.65 - 3.7 33.8 0C 14 4711 0922 Alarm State:  5
Wed Sep 20 11:11:00 PDT 2017 ON: 20.02 +20.0 19.69 - 4.3 33.3 0D 14 4712 0916 Alarm State:  5
Wed Sep 20 11:09:58 PDT 2017 ON: 20.03 +20.0 19.69 - 4.6 32.7 08 14 4722 0905 Alarm State:  5
Wed Sep 20 11:08:57 PDT 2017 ON: 20.00 +20.0 19.63 - 3.2 33.8 07 14 471B 0905 Alarm State:  5
Wed Sep 20 11:07:55 PDT 2017 ON: 20.01 +20.0 19.67 - 4.6 33.0 07 14 4708 0A09 Alarm State:  5
Wed Sep 20 11:06:54 PDT 2017 ON: 19.99 +20.0 19.58 - 2.4 33.8 00 14 4811 0905 Alarm State:  5
Wed Sep 20 11:05:52 PDT 2017 ON: 20.00 +20.0 19.67 - 3.8 33.8 05 14 4721 0913 Alarm State:  5
Wed Sep 20 11:04:51 PDT 2017 ON: 20.00 +20.0 19.71 - 4.6 33.0 08 13 4630 0928 Alarm State:  5
Wed Sep 20 11:03:49 PDT 2017 ON: 20.01 +20.0 19.66 - 4.0 33.1 00 14 471C 090B Alarm State:  5
Wed Sep 20 11:02:48 PDT 2017 ON: 19.98 +20.0 19.63 - 3.6 33.6 07 14 4726 092D Alarm State:  5
Wed Sep 20 11:01:46 PDT 2017 ON: 20.02 +20.0 19.68 - 4.8 32.9 05 14 472F 0907 Alarm State:  5
Wed Sep 20 11:00:45 PDT 2017 ON: 20.05 +20.0 19.68 - 4.5 32.8 00 14 4713 0914 Alarm State:  5
Wed Sep 20 10:59:43 PDT 2017 ON: 19.98 +20.0 19.63 - 3.9 33.5 05 14 4718 092C Alarm State:  5
Wed Sep 20 10:58:42 PDT 2017 ON: 20.03 +20.0 19.71 - 5.1 32.3 0D 13 472A 0A01 Alarm State:  5
Wed Sep 20 10:57:40 PDT 2017 ON: 19.99 +20.0 19.61 - 3.3 33.8 07 14 4816 0928 Alarm State:  5
Wed Sep 20 10:56:39 PDT 2017 ON: 20.01 +20.0 19.70 - 4.7 33.2 0D 13 481A 0911 Alarm State:  5
Wed Sep 20 10:55:37 PDT 2017 ON: 20.02 +20.0 19.68 - 4.9 32.8 05 14 4726 0923 Alarm State:  5
Wed Sep 20 10:54:36 PDT 2017 ON: 19.99 +20.0 19.62 - 3.0 33.7 05 14 472E 091A Alarm State:  5
Wed Sep 20 10:53:34 PDT 2017 ON: 19.99 +20.0 19.67 - 4.1 33.6 05 14 4719 0922 Alarm State:  5
Wed Sep 20 10:52:33 PDT 2017 ON: 20.03 +20.0 19.73 - 5.1 32.9 0D 12 4713 0913 Alarm State:  5
Wed Sep 20 10:51:31 PDT 2017 ON: 20.00 +20.0 19.63 - 2.9 33.6 00 14 4730 0922 Alarm State:  5
Wed Sep 20 10:50:30 PDT 2017 ON: 20.02 +20.0 19.68 - 4.2 33.4 00 14 4708 090C Alarm State:  5
Wed Sep 20 10:49:28 PDT 2017 ON: 20.01 +20.0 19.72 - 5.3 32.4 03 12 4711 0923 Alarm State:  5
Wed Sep 20 10:48:27 PDT 2017 ON: 19.98 +20.0 19.60 - 2.9 33.9 04 14 4731 0931 Alarm State:  5
Wed Sep 20 10:47:25 PDT 2017 ON: 20.01 +20.0 19.69 - 4.6 33.1 0D 14 472A 0A21 Alarm State:  5
Wed Sep 20 10:46:24 PDT 2017 ON: 19.99 +20.0 19.59 - 2.4 33.7 00 14 4831 0923 Alarm State:  5
Wed Sep 20 10:45:22 PDT 2017 ON: 19.99 +20.0 19.65 - 3.5 33.9 0A 14 481C 0906 Alarm State:  5
Wed Sep 20 10:44:21 PDT 2017 ON: 20.00 +20.0 19.65 - 3.9 33.7 00 14 4806 0911 Alarm State:  5
Wed Sep 20 10:43:19 PDT 2017 ON: 19.98 +20.0 19.66 - 4.4 33.1 07 14 4720 091D Alarm State:  5
Wed Sep 20 10:42:18 PDT 2017 ON: 20.03 +20.0 19.66 - 3.8 33.2 00 14 4813 090F Alarm State:  5
Wed Sep 20 10:41:16 PDT 2017 ON: 20.00 +20.0 19.64 - 2.9 34.0 05 14 480E 0905 Alarm State:  5
Wed Sep 20 10:40:15 PDT 2017 ON: 20.00 +20.0 19.68 - 4.2 33.6 00 14 4723 0910 Alarm State:  5
Wed Sep 20 10:39:13 PDT 2017 ON: 20.04 +20.0 19.71 - 5.6 32.2 08 13 4708 091A Alarm State:  5
Wed Sep 20 10:38:12 PDT 2017 ON: 19.97 +20.0 19.62 - 3.1 34.0 02 14 4726 0916 Alarm State:  5
Wed Sep 20 10:37:10 PDT 2017 ON: 19.99 +20.0 19.68 - 4.5 33.2 05 14 4723 0A08 Alarm State:  5
Wed Sep 20 10:36:09 PDT 2017 ON: 20.00 +20.0 19.62 - 3.0 33.6 00 14 481C 0901 Alarm State:  5
Wed Sep 20 10:35:07 PDT 2017 ON: 20.01 +20.0 19.68 - 3.9 33.3 00 14 4720 0915 Alarm State:  5
Wed Sep 20 10:34:06 PDT 2017 ON: 20.01 +20.0 19.64 - 3.2 33.8 00 14 471C 0910 Alarm State:  5
Wed Sep 20 10:33:04 PDT 2017 ON: 20.00 +20.0 19.65 - 4.1 33.6 07 14 470F 091E Alarm State:  5
Wed Sep 20 10:32:03 PDT 2017 ON: 20.00 +20.0 19.70 - 4.6 33.0 0A 13 470D 090D Alarm State:  5
Wed Sep 20 10:31:01 PDT 2017 ON: 20.02 +20.0 19.65 - 3.3 33.4 00 14 4726 091A Alarm State:  5
Wed Sep 20 10:30:00 PDT 2017 ON: 19.97 +20.0 19.64 - 4.1 33.3 05 14 4716 0A11 Alarm State:  5
Wed Sep 20 10:28:58 PDT 2017 ON: 20.01 +20.0 19.64 - 3.4 33.5 00 14 4810 0926 Alarm State:  5
Wed Sep 20 10:27:57 PDT 2017 ON: 20.00 +20.0 19.65 - 3.8 33.8 0A 14 4729 092B Alarm State:  5
Wed Sep 20 10:26:55 PDT 2017 ON: 20.00 +20.0 19.68 - 4.5 33.0 02 14 4730 0925 Alarm State:  5
Wed Sep 20 10:25:54 PDT 2017 ON: 19.98 +20.0 19.60 - 2.6 33.8 02 14 4830 0923 Alarm State:  5
Wed Sep 20 10:24:52 PDT 2017 ON: 20.01 +20.0 19.67 - 4.0 33.6 07 14 4812 0903 Alarm State:  5
Wed Sep 20 10:23:51 PDT 2017 ON: 20.04 +20.0 19.71 - 5.4 32.2 08 13 4803 090B Alarm State:  5
Wed Sep 20 10:22:50 PDT 2017 ON: 19.98 +20.0 19.60 - 2.9 33.9 00 14 481D 090F Alarm State:  5
Wed Sep 20 10:21:48 PDT 2017 ON: 20.01 +20.0 19.68 - 4.3 33.4 0D 14 4808 0913 Alarm State:  5
Wed Sep 20 10:20:47 PDT 2017 ON: 20.00 +20.0 19.68 - 4.2 33.3 0D 14 4804 0910 Alarm State:  5
Wed Sep 20 10:19:45 PDT 2017 ON: 20.02 +20.0 19.66 - 4.2 33.0 00 14 4809 0912 Alarm State:  5
Wed Sep 20 10:18:44 PDT 2017 ON: 20.01 +20.0 19.62 - 3.2 33.6 00 14 472A 091F Alarm State:  5
Wed Sep 20 10:17:42 PDT 2017 ON: 19.99 +20.0 19.66 - 3.8 33.7 00 14 470F 092B Alarm State:  5
Wed Sep 20 10:16:41 PDT 2017 ON: 20.00 +20.0 19.68 - 4.6 33.1 0A 14 4703 0926 Alarm State:  5
Wed Sep 20 10:15:39 PDT 2017 ON: 20.03 +20.0 19.66 - 4.4 32.8 00 14 4720 0A0B Alarm State:  5
Wed Sep 20 10:14:38 PDT 2017 ON: 19.97 +20.0 19.62 - 3.5 33.6 07 14 4801 0A05 Alarm State:  5
Wed Sep 20 10:13:36 PDT 2017 ON: 20.03 +20.0 19.70 - 4.7 33.0 0D 13 4818 0901 Alarm State:  5
Wed Sep 20 10:12:35 PDT 2017 ON: 20.00 +20.0 19.63 - 3.7 33.2 00 14 480E 090A Alarm State:  5
Wed Sep 20 10:11:33 PDT 2017 ON: 19.98 +20.0 19.63 - 3.4 33.9 02 14 4803 092D Alarm State:  5
Wed Sep 20 10:10:32 PDT 2017 ON: 20.02 +20.0 19.68 - 4.2 33.4 00 14 4732 0928 Alarm State:  5
Wed Sep 20 10:09:30 PDT 2017 ON: 20.03 +20.0 19.67 - 4.6 32.9 02 14 480A 091A Alarm State:  5
Wed Sep 20 10:08:29 PDT 2017 ON: 20.00 +20.0 19.66 - 3.7 33.8 05 14 4729 091B Alarm State:  5
Wed Sep 20 10:07:27 PDT 2017 ON: 20.02 +20.0 19.70 - 4.5 33.1 0D 13 471E 0919 Alarm State:  5
Wed Sep 20 10:06:26 PDT 2017 ON: 20.02 +20.0 19.64 - 3.8 33.1 00 14 4805 0917 Alarm State:  5
Wed Sep 20 10:05:24 PDT 2017 ON: 19.99 +20.0 19.66 - 4.1 33.1 00 14 472D 0A0B Alarm State:  5
Wed Sep 20 10:04:23 PDT 2017 ON: 20.02 +20.0 19.68 - 4.1 33.1 03 14 4818 0906 Alarm State:  5
Wed Sep 20 10:03:21 PDT 2017 ON: 19.99 +20.0 19.65 - 4.0 33.2 07 14 4805 0929 Alarm State:  5
Wed Sep 20 10:02:20 PDT 2017 ON: 20.05 +20.0 19.69 - 4.5 32.9 08 14 4815 090A Alarm State:  5
Wed Sep 20 10:01:18 PDT 2017 ON: 20.01 +20.0 19.62 - 3.6 33.4 00 14 4721 091C Alarm State:  5
Wed Sep 20 10:00:17 PDT 2017 ON: 19.97 +20.0 19.62 - 4.0 33.3 02 14 471F 0A09 Alarm State:  5
Wed Sep 20 09:59:15 PDT 2017 ON: 20.02 +20.0 19.69 - 4.3 32.7 0D 14 4815 091A Alarm State:  5
Wed Sep 20 09:58:14 PDT 2017 ON: 19.98 +20.0 19.64 - 2.9 34.0 05 14 482B 091E Alarm State:  5
Wed Sep 20 09:57:12 PDT 2017 ON: 20.00 +20.0 19.67 - 3.7 33.7 05 14 4812 0922 Alarm State:  5
Wed Sep 20 09:56:11 PDT 2017 ON: 19.99 +20.0 19.66 - 3.9 33.7 0C 14 4802 0925 Alarm State:  5
Wed Sep 20 09:55:09 PDT 2017 ON: 20.01 +20.0 19.70 - 4.6 33.1 0A 13 4730 0919 Alarm State:  5
Wed Sep 20 09:54:08 PDT 2017 ON: 20.02 +20.0 19.63 - 3.1 33.6 05 14 4821 0925 Alarm State:  5
Wed Sep 20 09:53:06 PDT 2017 ON: 20.03 +20.0 19.66 - 4.3 32.9 00 14 472D 0910 Alarm State:  5
Wed Sep 20 09:52:05 PDT 2017 ON: 19.98 +20.0 19.63 - 3.7 33.8 05 14 472F 092B Alarm State:  5
Wed Sep 20 09:51:03 PDT 2017 ON: 20.01 +20.0 19.70 - 5.3 32.6 0D 14 472E 0A1F Alarm State:  5
Wed Sep 20 09:50:02 PDT 2017 ON: 19.98 +20.0 19.59 - 2.6 34.0 00 14 482D 092F Alarm State:  5
Wed Sep 20 09:49:00 PDT 2017 ON: 19.99 +20.0 19.64 - 3.6 33.7 05 14 4812 0904 Alarm State:  5
Wed Sep 20 09:47:59 PDT 2017 ON: 20.01 +20.0 19.66 - 4.4 33.1 00 14 4721 0913 Alarm State:  5
Wed Sep 20 09:46:57 PDT 2017 ON: 20.02 +20.0 19.65 - 3.8 33.2 00 14 4809 091A Alarm State:  5
Wed Sep 20 09:45:56 PDT 2017 ON: 20.00 +20.0 19.65 - 3.5 33.9 0A 14 472A 091F Alarm State:  5
Wed Sep 20 09:44:54 PDT 2017 ON: 20.01 +20.0 19.71 - 4.8 33.0 0D 13 4717 0925 Alarm State:  5
Wed Sep 20 09:43:53 PDT 2017 ON: 19.99 +20.0 19.62 - 2.6 33.7 00 14 4812 091A Alarm State:  5
Wed Sep 20 09:42:51 PDT 2017 ON: 19.99 +20.0 19.67 - 4.1 33.6 05 14 4724 0926 Alarm State:  5
Wed Sep 20 09:41:50 PDT 2017 ON: 20.01 +20.0 19.68 - 5.1 32.8 07 14 4724 0925 Alarm State:  5
Wed Sep 20 09:40:48 PDT 2017 ON: 20.00 +20.0 19.60 - 2.6 33.9 02 14 4826 090B Alarm State:  5
Wed Sep 20 09:39:47 PDT 2017 ON: 19.99 +20.0 19.65 - 4.1 33.5 07 14 4814 090C Alarm State:  5
Wed Sep 20 09:38:45 PDT 2017 ON: 20.01 +20.0 19.68 - 4.6 33.3 0D 14 4805 0906 Alarm State:  5
Wed Sep 20 09:37:44 PDT 2017 ON: 20.03 +20.0 19.72 - 5.5 32.3 08 12 471E 0913 Alarm State:  5
Wed Sep 20 09:36:42 PDT 2017 ON: 19.98 +20.0 19.62 - 3.1 34.0 02 14 4806 090C Alarm State:  5
Wed Sep 20 09:35:41 PDT 2017 ON: 20.00 +20.0 19.67 - 4.4 33.2 00 14 4805 0927 Alarm State:  5
Wed Sep 20 09:34:39 PDT 2017 ON: 20.03 +20.0 19.62 - 3.3 33.5 00 14 4815 0914 Alarm State:  5
Wed Sep 20 09:33:38 PDT 2017 ON: 20.02 +20.0 19.65 - 4.0 33.2 02 14 470F 0928 Alarm State:  5
Wed Sep 20 09:32:36 PDT 2017 ON: 19.98 +20.0 19.65 - 3.9 33.5 07 14 4701 0923 Alarm State:  5
Wed Sep 20 09:31:35 PDT 2017 ON: 20.02 +20.0 19.70 - 4.8 32.6 0D 13 471A 0918 Alarm State:  5
Wed Sep 20 09:30:33 PDT 2017 ON: 19.99 +20.0 19.63 - 3.0 34.0 00 14 4732 0925 Alarm State:  5
Wed Sep 20 09:29:32 PDT 2017 ON: 20.00 +20.0 19.65 - 3.9 33.8 00 14 472D 0921 Alarm State:  5
Wed Sep 20 09:28:30 PDT 2017 ON: 20.02 +20.0 19.68 - 4.6 33.2 07 14 4715 0903 Alarm State:  5
Wed Sep 20 09:27:29 PDT 2017 ON: 20.04 +20.0 19.66 - 4.2 33.1 00 14 4714 0922 Alarm State:  5
Wed Sep 20 09:26:27 PDT 2017 ON: 19.96 +20.0 19.63 - 4.0 33.2 07 14 4710 0A15 Alarm State:  5
Wed Sep 20 09:25:26 PDT 2017 ON: 20.01 +20.0 19.65 - 3.6 33.3 00 14 4808 0926 Alarm State:  5
Wed Sep 20 09:24:25 PDT 2017 ON: 20.01 +20.0 19.65 - 3.7 33.8 02 14 471D 090E Alarm State:  5
Wed Sep 20 09:23:23 PDT 2017 ON: 20.03 +20.0 19.71 - 5.1 32.9 0D 13 462D 0916 Alarm State:  5
Wed Sep 20 09:22:22 PDT 2017 ON: 20.02 +20.0 19.66 - 4.1 33.0 00 14 470E 0A09 Alarm State:  5
Wed Sep 20 09:21:20 PDT 2017 ON: 19.97 +20.0 19.63 - 3.5 33.6 07 14 4727 0A02 Alarm State:  5
Wed Sep 20 09:20:19 PDT 2017 ON: 20.02 +20.0 19.68 - 4.5 32.9 03 14 4808 090B Alarm State:  5
Wed Sep 20 09:19:17 PDT 2017 ON: 20.00 +20.0 19.62 - 3.0 33.9 05 14 4817 0928 Alarm State:  5
Wed Sep 20 09:18:16 PDT 2017 ON: 20.02 +20.0 19.68 - 4.5 33.1 07 14 472A 090A Alarm State:  5
Wed Sep 20 09:17:14 PDT 2017 ON: 20.04 +20.0 19.68 - 4.3 33.1 03 14 4810 0917 Alarm State:  5
Wed Sep 20 09:16:13 PDT 2017 ON: 20.01 +20.0 19.67 - 4.1 33.2 05 14 472D 0920 Alarm State:  5
Wed Sep 20 09:15:11 PDT 2017 ON: 20.01 +20.0 19.62 - 3.4 33.5 02 14 4720 0903 Alarm State:  5
Wed Sep 20 09:14:10 PDT 2017 ON: 20.00 +20.0 19.63 - 3.4 33.8 05 14 470A 0A08 Alarm State:  5
Wed Sep 20 09:13:08 PDT 2017 ON: 19.97 +20.0 19.66 - 4.6 33.1 05 14 4707 0A25 Alarm State:  5
Wed Sep 20 09:12:07 PDT 2017 ON: 19.99 +20.0 19.58 - 2.0 34.0 04 14 4812 0919 Alarm State:  5
Wed Sep 20 09:11:05 PDT 2017 ON: 20.01 +20.0 19.68 - 4.4 33.1 05 14 471E 0921 Alarm State:  5
Wed Sep 20 09:10:04 PDT 2017 ON: 20.01 +20.0 19.65 - 3.9 33.2 00 14 4716 0924 Alarm State:  5
Wed Sep 20 09:09:02 PDT 2017 ON: 20.02 +20.0 19.64 - 4.0 33.2 00 14 4622 090D Alarm State:  5
Wed Sep 20 09:08:01 PDT 2017 ON: 19.99 +20.0 19.65 - 4.1 33.4 07 14 4620 0928 Alarm State:  5
Wed Sep 20 09:06:59 PDT 2017 ON: 20.03 +20.0 19.71 - 4.8 32.6 0D 13 4706 091D Alarm State:  5
Wed Sep 20 09:05:58 PDT 2017 ON: 19.97 +20.0 19.61 - 3.6 33.7 00 14 471C 0928 Alarm State:  5
Wed Sep 20 09:04:56 PDT 2017 ON: 20.02 +20.0 19.71 - 4.7 33.1 05 13 472D 0921 Alarm State:  5
Wed Sep 20 09:03:55 PDT 2017 ON: 20.01 +20.0 19.71 - 5.3 32.6 0D 13 4709 0A0D Alarm State:  5
Wed Sep 20 09:02:43 PDT 2017 ON: 19.99 +20.0 19.58 - 2.7 34.0 04 14 4805 0922 Alarm State:  5
Wed Sep 20 09:01:42 PDT 2017 ON: 20.02 +20.0 19.69 - 4.5 33.0 0D 14 472D 091E Alarm State:  5
Wed Sep 20 09:00:40 PDT 2017 ON: 20.01 +20.0 19.62 - 3.2 33.4 00 14 481C 0918 Alarm State:  5
Wed Sep 20 08:59:39 PDT 2017 ON: 19.99 +20.0 19.64 - 3.7 33.7 02 14 472C 0903 Alarm State:  5
Wed Sep 20 08:58:37 PDT 2017 ON: 20.01 +20.0 19.69 - 4.7 33.0 0D 14 4712 090C Alarm State:  5
Wed Sep 20 08:57:36 PDT 2017 ON: 20.02 +20.0 19.64 - 3.6 33.3 00 14 4800 0915 Alarm State:  5
Wed Sep 20 08:56:34 PDT 2017 ON: 19.99 +20.0 19.64 - 3.7 33.8 02 14 4721 091A Alarm State:  5
Wed Sep 20 08:55:33 PDT 2017 ON: 20.01 +20.0 19.68 - 4.5 33.3 00 14 4710 0916 Alarm State:  5
Wed Sep 20 08:54:31 PDT 2017 ON: 20.04 +20.0 19.72 - 5.4 32.2 05 12 4702 091F Alarm State:  5
Wed Sep 20 08:53:30 PDT 2017 ON: 19.98 +20.0 19.62 - 3.3 33.9 0A 14 470D 0A05 Alarm State:  5
Wed Sep 20 08:52:29 PDT 2017 ON: 20.00 +20.0 19.69 - 4.8 33.0 05 14 4630 0924 Alarm State:  5
Wed Sep 20 08:51:27 PDT 2017 ON: 20.01 +20.0 19.66 - 4.3 33.0 00 14 4718 090C Alarm State:  5
Wed Sep 20 08:50:26 PDT 2017 ON: 19.99 +20.0 19.61 - 3.0 33.9 00 14 471E 0929 Alarm State:  5
Wed Sep 20 08:49:24 PDT 2017 ON: 20.00 +20.0 19.65 - 4.3 33.4 05 14 4715 0929 Alarm State:  5
Wed Sep 20 08:48:23 PDT 2017 ON: 20.03 +20.0 19.70 - 5.1 32.9 0D 13 471B 0916 Alarm State:  5
Wed Sep 20 08:47:21 PDT 2017 ON: 20.00 +20.0 19.60 - 2.5 33.9 07 14 4811 0913 Alarm State:  5
Wed Sep 20 08:46:20 PDT 2017 ON: 20.00 +20.0 19.65 - 3.8 33.7 05 14 4726 0920 Alarm State:  5
Wed Sep 20 08:45:18 PDT 2017 ON: 19.98 +20.0 19.67 - 4.2 33.2 07 14 471B 092D Alarm State:  5
Wed Sep 20 08:44:17 PDT 2017 ON: 20.03 +20.0 19.69 - 4.4 33.2 0D 14 4731 0902 Alarm State:  5
Wed Sep 20 08:43:15 PDT 2017 ON: 20.03 +20.0 19.69 - 4.8 33.0 0D 14 470E 0914 Alarm State:  5
Wed Sep 20 08:42:14 PDT 2017 ON: 19.98 +20.0 19.62 - 2.9 33.8 02 14 4714 0903 Alarm State:  5
Wed Sep 20 08:41:12 PDT 2017 ON: 19.99 +20.0 19.69 - 4.4 33.2 00 14 462E 0930 Alarm State:  5
Wed Sep 20 08:40:11 PDT 2017 ON: 20.02 +20.0 19.70 - 4.8 32.9 0D 13 470F 0914 Alarm State:  5
Wed Sep 20 08:39:09 PDT 2017 ON: 20.02 +20.0 19.65 - 4.1 33.1 00 14 4714 090C Alarm State:  5
Wed Sep 20 08:38:07 PDT 2017 ON: 19.99 +20.0 19.62 - 3.8 33.5 02 14 470E 0928 Alarm State:  5
Wed Sep 20 08:37:06 PDT 2017 ON: 20.01 +20.0 19.70 - 5.3 32.5 0D 13 4721 0925 Alarm State:  5
Wed Sep 20 08:36:05 PDT 2017 ON: 19.98 +20.0 19.62 - 3.1 34.0 0A 14 4812 091E Alarm State:  5
Wed Sep 20 08:35:03 PDT 2017 ON: 20.02 +20.0 19.68 - 4.4 33.6 0D 14 4807 090C Alarm State:  5
Wed Sep 20 08:34:02 PDT 2017 ON: 19.99 +20.0 19.69 - 5.0 32.9 0D 14 4714 0921 Alarm State:  5
Wed Sep 20 08:33:00 PDT 2017 ON: 19.98 +20.0 19.58 - 2.5 33.8 01 14 4818 0902 Alarm State:  5
Wed Sep 20 08:31:59 PDT 2017 ON: 20.02 +20.0 19.67 - 3.9 33.7 05 14 4731 0909 Alarm State:  5
Wed Sep 20 08:30:57 PDT 2017 ON: 20.03 +20.0 19.70 - 5.3 32.6 0D 14 471E 0A07 Alarm State:  5
Wed Sep 20 08:29:56 PDT 2017 ON: 19.98 +20.0 19.62 - 2.6 34.0 07 14 4817 0925 Alarm State:  5
Wed Sep 20 08:28:54 PDT 2017 ON: 20.00 +20.0 19.66 - 3.6 33.8 0C 14 4808 0927 Alarm State:  5
Wed Sep 20 08:27:53 PDT 2017 ON: 20.01 +20.0 19.68 - 4.4 33.6 05 14 4715 0A0F Alarm State:  5
Wed Sep 20 08:26:51 PDT 2017 ON: 19.99 +20.0 19.71 - 5.4 32.6 0D 14 461D 0B23 Alarm State:  5
Wed Sep 20 08:25:50 PDT 2017 ON: 19.97 +20.0 19.59 - 2.5 34.1 04 14 4726 0A1D Alarm State:  5
Wed Sep 20 08:24:48 PDT 2017 ON: 20.01 +20.0 19.68 - 5.1 32.6 02 14 472D 0A2A Alarm State:  5
Wed Sep 20 08:23:47 PDT 2017 ON: 19.96 +20.0 19.58 - 2.5 34.1 00 14 4830 0930 Alarm State:  5
Wed Sep 20 08:22:45 PDT 2017 ON: 19.99 +20.0 19.67 - 4.4 33.2 05 14 4825 0928 Alarm State:  5
Wed Sep 20 08:21:44 PDT 2017 ON: 20.03 +20.0 19.66 - 3.7 33.4 00 14 490C 0907 Alarm State:  5
Wed Sep 20 08:20:42 PDT 2017 ON: 20.04 +20.0 19.66 - 4.6 32.7 00 14 4810 091B Alarm State:  5
Wed Sep 20 08:19:41 PDT 2017 ON: 20.00 +20.0 19.61 - 3.0 33.8 07 14 4731 091C Alarm State:  5
Wed Sep 20 08:18:39 PDT 2017 ON: 20.00 +20.0 19.67 - 4.2 33.3 00 14 470A 092A Alarm State:  5
Wed Sep 20 08:17:38 PDT 2017 ON: 20.04 +20.0 19.71 - 4.8 32.8 0A 13 471E 090F Alarm State:  5
Wed Sep 20 08:16:36 PDT 2017 ON: 20.00 +20.0 19.58 - 2.6 33.8 01 14 4800 091D Alarm State:  5
Wed Sep 20 08:15:35 PDT 2017 ON: 19.99 +20.0 19.68 - 4.0 33.6 05 14 471B 092A Alarm State:  5
Wed Sep 20 08:14:33 PDT 2017 ON: 20.00 +20.0 19.71 - 5.0 32.9 0D 13 471A 091C Alarm State:  5
Wed Sep 20 08:13:32 PDT 2017 ON: 20.01 +20.0 19.60 - 2.7 33.7 00 14 480D 0900 Alarm State:  5
Wed Sep 20 08:12:30 PDT 2017 ON: 20.01 +20.0 19.69 - 4.2 33.2 0D 14 471D 090E Alarm State:  5
Wed Sep 20 08:11:29 PDT 2017 ON: 20.02 +20.0 19.71 - 4.6 32.9 0A 13 472B 0920 Alarm State:  5
Wed Sep 20 08:10:27 PDT 2017 ON: 20.01 +20.0 19.62 - 3.1 33.6 02 14 4720 0928 Alarm State:  5
Wed Sep 20 08:09:26 PDT 2017 ON: 19.99 +20.0 19.66 - 4.1 33.4 00 14 4708 092D Alarm State:  5
Wed Sep 20 08:08:24 PDT 2017 ON: 20.02 +20.0 19.69 - 4.5 32.9 05 14 4721 0901 Alarm State:  5
Wed Sep 20 08:07:23 PDT 2017 ON: 20.02 +20.0 19.67 - 3.7 33.3 00 14 471B 090A Alarm State:  5
Wed Sep 20 08:06:21 PDT 2017 ON: 19.99 +20.0 19.64 - 3.8 33.5 05 14 471E 091D Alarm State:  5
Wed Sep 20 08:05:20 PDT 2017 ON: 20.02 +20.0 19.70 - 4.8 33.0 08 13 472E 0925 Alarm State:  5
Wed Sep 20 08:04:18 PDT 2017 ON: 20.00 +20.0 19.62 - 2.9 33.8 05 14 4802 0917 Alarm State:  5
Wed Sep 20 08:03:17 PDT 2017 ON: 20.00 +20.0 19.68 - 4.3 33.4 00 14 4715 0928 Alarm State:  5
Wed Sep 20 08:02:15 PDT 2017 ON: 20.02 +20.0 19.72 - 5.2 32.8 0D 12 4714 091C Alarm State:  5
Wed Sep 20 08:01:14 PDT 2017 ON: 20.00 +20.0 19.60 - 2.7 33.8 02 14 480B 0912 Alarm State:  5
Wed Sep 20 08:00:12 PDT 2017 ON: 20.00 +20.0 19.68 - 4.4 33.5 00 14 4719 0924 Alarm State:  5
Wed Sep 20 07:59:11 PDT 2017 ON: 20.03 +20.0 19.72 - 5.3 32.9 0D 13 4628 0A0C Alarm State:  5
Wed Sep 20 07:58:09 PDT 2017 ON: 20.00 +20.0 19.61 - 2.8 33.8 02 14 4718 0A09 Alarm State:  5
Wed Sep 20 07:57:08 PDT 2017 ON: 19.98 +20.0 19.63 - 4.8 33.0 05 14 4708 0B00 Alarm State:  5
Wed Sep 20 07:56:06 PDT 2017 ON: 19.99 +20.0 19.57 - 2.7 33.7 07 14 4812 092B Alarm State:  5
Wed Sep 20 07:55:05 PDT 2017 ON: 20.00 +20.0 19.63 - 4.1 33.6 02 14 4729 090D Alarm State:  5
Wed Sep 20 07:54:03 PDT 2017 ON: 19.99 +20.0 19.65 - 4.9 33.0 05 14 4716 0919 Alarm State:  5
Wed Sep 20 07:53:02 PDT 2017 ON: 20.02 +20.0 19.65 - 4.3 33.0 00 14 4807 0911 Alarm State:  5
Wed Sep 20 07:52:00 PDT 2017 ON: 19.98 +20.0 19.61 - 3.5 33.7 05 14 4806 092A Alarm State:  5
Wed Sep 20 07:50:59 PDT 2017 ON: 20.01 +20.0 19.66 - 4.2 33.6 05 14 4814 091F Alarm State:  5
Wed Sep 20 07:49:57 PDT 2017 ON: 20.01 +20.0 19.67 - 4.6 33.5 0A 14 4805 0919 Alarm State:  5
Wed Sep 20 07:48:56 PDT 2017 ON: 19.99 +20.0 19.67 - 4.9 32.9 05 14 471A 0926 Alarm State:  5
Wed Sep 20 07:47:54 PDT 2017 ON: 20.01 +20.0 19.63 - 3.3 33.5 00 14 4816 091B Alarm State:  5
Wed Sep 20 07:46:53 PDT 2017 ON: 20.00 +20.0 19.65 - 3.8 33.6 00 14 471F 0903 Alarm State:  5
Wed Sep 20 07:45:51 PDT 2017 ON: 19.99 +20.0 19.70 - 4.8 32.9 0D 14 4706 0A0F Alarm State:  5
Wed Sep 20 07:44:50 PDT 2017 ON: 20.03 +20.0 19.67 - 4.1 33.2 00 14 472A 0908 Alarm State:  5
Wed Sep 20 07:43:48 PDT 2017 ON: 19.98 +20.0 19.63 - 4.1 33.8 05 14 4723 0910 Alarm State:  5
Wed Sep 20 07:42:47 PDT 2017 ON: 20.03 +20.0 19.67 - 4.8 33.5 05 14 4709 0911 Alarm State:  5
Wed Sep 20 07:41:45 PDT 2017 ON: 20.00 +20.0 19.69 - 5.3 32.9 02 14 4617 0923 Alarm State:  5
Wed Sep 20 07:40:44 PDT 2017 ON: 20.01 +20.0 19.61 - 3.1 33.6 00 14 4716 0913 Alarm State:  5
Wed Sep 20 07:39:42 PDT 2017 ON: 20.00 +20.0 19.65 - 4.6 33.2 07 14 470D 0A0F Alarm State:  5
Wed Sep 20 07:38:41 PDT 2017 ON: 20.04 +20.0 19.69 - 5.1 32.7 05 14 4728 090B Alarm State:  5
Wed Sep 20 07:37:39 PDT 2017 ON: 19.98 +20.0 19.63 - 3.4 34.0 0A 14 472E 091B Alarm State:  5
Wed Sep 20 07:36:38 PDT 2017 ON: 20.00 +20.0 19.68 - 5.2 33.0 07 14 4711 091D Alarm State:  5
Wed Sep 20 07:35:36 PDT 2017 ON: 20.01 +20.0 19.68 - 5.0 32.8 00 14 4725 0912 Alarm State:  5
Wed Sep 20 07:34:35 PDT 2017 ON: 19.98 +20.0 19.63 - 3.8 33.9 05 14 480B 0916 Alarm State:  5
Wed Sep 20 07:33:33 PDT 2017 ON: 20.02 +20.0 19.70 - 5.2 33.1 0D 13 4732 0909 Alarm State:  5
Wed Sep 20 07:32:32 PDT 2017 ON: 20.03 +20.0 19.71 - 5.8 32.1 05 13 4711 091B Alarm State:  5
Wed Sep 20 07:31:30 PDT 2017 ON: 19.98 +20.0 19.61 - 3.8 33.8 02 14 471D 0926 Alarm State:  5
Wed Sep 20 07:30:29 PDT 2017 ON: 20.02 +20.0 19.70 - 5.3 32.9 0D 13 4712 0914 Alarm State:  5
Wed Sep 20 07:29:27 PDT 2017 ON: 20.02 +20.0 19.68 - 4.8 32.7 00 14 472C 0924 Alarm State:  5
Wed Sep 20 07:28:26 PDT 2017 ON: 19.98 +20.0 19.59 - 3.3 33.8 00 14 4802 090C Alarm State:  5
Wed Sep 20 07:27:24 PDT 2017 ON: 20.00 +20.0 19.67 - 4.6 33.3 07 14 4721 0913 Alarm State:  5
Wed Sep 20 07:26:23 PDT 2017 ON: 20.03 +20.0 19.73 - 5.7 32.5 08 12 472C 0901 Alarm State:  5
Wed Sep 20 07:25:21 PDT 2017 ON: 19.99 +20.0 19.62 - 3.3 33.9 05 14 4801 091F Alarm State:  5
Wed Sep 20 07:24:20 PDT 2017 ON: 20.00 +20.0 19.68 - 4.8 33.1 07 14 4713 0900 Alarm State:  5
Wed Sep 20 07:23:18 PDT 2017 ON: 20.03 +20.0 19.66 - 4.3 33.0 00 14 471F 0922 Alarm State:  5
Wed Sep 20 07:22:17 PDT 2017 ON: 20.01 +20.0 19.66 - 4.4 33.4 07 14 470E 092D Alarm State:  5
Wed Sep 20 07:21:15 PDT 2017 ON: 20.03 +20.0 19.73 - 5.9 32.4 08 12 470C 0918 Alarm State:  5
Wed Sep 20 07:20:14 PDT 2017 ON: 19.99 +20.0 19.64 - 3.6 33.9 02 14 4723 0922 Alarm State:  5
Wed Sep 20 07:19:12 PDT 2017 ON: 20.01 +20.0 19.67 - 4.9 33.2 00 14 4713 091B Alarm State:  5
Wed Sep 20 07:18:11 PDT 2017 ON: 20.02 +20.0 19.73 - 5.8 32.5 0D 12 4702 0921 Alarm State:  5
Wed Sep 20 07:17:09 PDT 2017 ON: 19.99 +20.0 19.63 - 3.7 33.9 05 14 471E 092C Alarm State:  5
Wed Sep 20 07:16:08 PDT 2017 ON: 20.02 +20.0 19.68 - 4.9 33.0 00 14 470F 0926 Alarm State:  5
Wed Sep 20 07:15:06 PDT 2017 ON: 20.03 +20.0 19.65 - 4.6 32.8 00 14 4719 0921 Alarm State:  5
Wed Sep 20 07:14:05 PDT 2017 ON: 20.00 +20.0 19.64 - 4.3 33.5 05 14 470E 0923 Alarm State:  5
Wed Sep 20 07:13:03 PDT 2017 ON: 20.00 +20.0 19.70 - 5.2 32.9 08 13 4706 091C Alarm State:  5
Wed Sep 20 07:12:02 PDT 2017 ON: 20.01 +20.0 19.67 - 4.6 32.8 00 14 4713 0A0C Alarm State:  5
Wed Sep 20 07:11:00 PDT 2017 ON: 19.98 +20.0 19.61 - 4.2 32.9 02 14 471F 0A17 Alarm State:  5
Wed Sep 20 07:09:59 PDT 2017 ON: 20.04 +20.0 19.68 - 4.4 32.8 03 14 480F 090D Alarm State:  5
Wed Sep 20 07:08:57 PDT 2017 ON: 20.00 +20.0 19.63 - 3.6 33.5 00 14 4805 0912 Alarm State:  5
Wed Sep 20 07:07:56 PDT 2017 ON: 20.00 +20.0 19.66 - 4.5 33.0 07 14 4717 091E Alarm State:  5
Wed Sep 20 07:06:54 PDT 2017 ON: 20.04 +20.0 19.68 - 5.0 32.5 00 14 471D 0A07 Alarm State:  5
Wed Sep 20 07:05:53 PDT 2017 ON: 19.98 +20.0 19.66 - 4.3 33.1 07 14 4720 0A18 Alarm State:  5
Wed Sep 20 07:04:52 PDT 2017 ON: 20.03 +20.0 19.70 - 4.8 33.0 08 13 4805 0913 Alarm State:  5
Wed Sep 20 07:03:50 PDT 2017 ON: 20.00 +20.0 19.61 - 3.2 33.8 07 14 4727 091B Alarm State:  5
Wed Sep 20 07:02:49 PDT 2017 ON: 19.99 +20.0 19.65 - 4.7 33.1 00 14 470D 0928 Alarm State:  5
Wed Sep 20 07:01:47 PDT 2017 ON: 20.02 +20.0 19.67 - 4.5 33.0 00 14 472A 091F Alarm State:  5
Wed Sep 20 07:00:46 PDT 2017 ON: 20.00 +20.0 19.64 - 4.5 33.2 07 14 472A 0A12 Alarm State:  5
Wed Sep 20 06:59:44 PDT 2017 ON: 20.04 +20.0 19.70 - 5.5 32.5 08 13 4806 0912 Alarm State:  5
Wed Sep 20 06:58:43 PDT 2017 ON: 19.99 +20.0 19.59 - 3.2 33.8 04 14 4815 092A Alarm State:  5
Wed Sep 20 06:57:41 PDT 2017 ON: 20.01 +20.0 19.65 - 3.9 33.7 05 14 472E 0906 Alarm State:  5
Wed Sep 20 06:56:40 PDT 2017 ON: 20.01 +20.0 19.69 - 5.0 33.0 07 14 4632 091A Alarm State:  5
Wed Sep 20 06:55:38 PDT 2017 ON: 20.01 +20.0 19.64 - 4.0 33.2 00 14 4727 0920 Alarm State:  5
Wed Sep 20 06:54:37 PDT 2017 ON: 19.98 +20.0 19.63 - 3.7 33.8 07 14 4722 0914 Alarm State:  5
Wed Sep 20 06:53:35 PDT 2017 ON: 20.02 +20.0 19.68 - 4.5 33.6 0A 14 4714 090F Alarm State:  5
Wed Sep 20 06:52:34 PDT 2017 ON: 20.01 +20.0 19.66 - 4.4 33.6 0A 14 4701 0917 Alarm State:  5
Wed Sep 20 06:51:32 PDT 2017 ON: 20.01 +20.0 19.70 - 5.6 32.7 0D 13 4612 0924 Alarm State:  5
Wed Sep 20 06:50:31 PDT 2017 ON: 19.99 +20.0 19.60 - 2.9 33.7 04 14 4710 091C Alarm State:  5
Wed Sep 20 06:49:29 PDT 2017 ON: 20.00 +20.0 19.65 - 4.3 33.7 02 14 4627 0923 Alarm State:  5
Wed Sep 20 06:48:28 PDT 2017 ON: 20.00 +20.0 19.69 - 5.4 32.9 00 14 460A 0A06 Alarm State:  5
Wed Sep 20 06:47:26 PDT 2017 ON: 20.00 +20.0 19.62 - 3.0 33.7 05 14 470D 0920 Alarm State:  5
Wed Sep 20 06:46:25 PDT 2017 ON: 19.99 +20.0 19.67 - 4.7 33.2 07 14 4627 092A Alarm State:  5
Wed Sep 20 06:45:23 PDT 2017 ON: 20.01 +20.0 19.70 - 5.0 33.1 0D 13 470A 0909 Alarm State:  5
Wed Sep 20 06:44:22 PDT 2017 ON: 20.02 +20.0 19.72 - 5.7 32.5 0A 12 4626 090F Alarm State:  5
Wed Sep 20 06:43:20 PDT 2017 ON: 20.00 +20.0 19.63 - 3.3 33.4 02 14 4713 0919 Alarm State:  5
Wed Sep 20 06:42:19 PDT 2017 ON: 19.99 +20.0 19.64 - 4.3 33.4 00 14 471C 0A05 Alarm State:  5
Wed Sep 20 06:41:17 PDT 2017 ON: 20.02 +20.0 19.68 - 4.9 33.2 02 14 4730 0912 Alarm State:  5
Wed Sep 20 06:40:16 PDT 2017 ON: 20.02 +20.0 19.70 - 5.4 32.8 0D 13 470D 0920 Alarm State:  5
Wed Sep 20 06:39:14 PDT 2017 ON: 19.99 +20.0 19.59 - 3.1 33.5 01 14 4812 091D Alarm State:  5
Wed Sep 20 06:38:13 PDT 2017 ON: 19.99 +20.0 19.64 - 4.2 33.6 07 14 4803 0913 Alarm State:  5
Wed Sep 20 06:37:11 PDT 2017 ON: 20.02 +20.0 19.68 - 4.9 33.2 00 14 4732 0927 Alarm State:  5
Wed Sep 20 06:36:10 PDT 2017 ON: 20.03 +20.0 19.73 - 5.9 32.2 08 12 471B 090C Alarm State:  5
Wed Sep 20 06:35:08 PDT 2017 ON: 19.99 +20.0 19.62 - 3.5 33.9 02 14 4731 0918 Alarm State:  5
Wed Sep 20 06:34:07 PDT 2017 ON: 20.03 +20.0 19.68 - 4.9 33.3 07 14 4720 0912 Alarm State:  5
Wed Sep 20 06:33:05 PDT 2017 ON: 20.01 +20.0 19.73 - 5.7 32.6 08 12 4702 0917 Alarm State:  5
Wed Sep 20 06:32:04 PDT 2017 ON: 19.99 +20.0 19.59 - 3.0 33.8 07 14 471F 091B Alarm State:  5
Wed Sep 20 06:31:02 PDT 2017 ON: 20.00 +20.0 19.67 - 4.7 33.2 05 14 470D 0926 Alarm State:  5
Wed Sep 20 06:30:01 PDT 2017 ON: 20.01 +20.0 19.66 - 4.2 33.1 00 14 472C 091F Alarm State:  5
Wed Sep 20 06:28:59 PDT 2017 ON: 19.99 +20.0 19.63 - 3.6 33.7 00 14 471E 0922 Alarm State:  5
Wed Sep 20 06:27:58 PDT 2017 ON: 19.99 +20.0 19.65 - 4.7 32.9 02 14 471B 0A1A Alarm State:  5
Wed Sep 20 06:26:56 PDT 2017 ON: 20.01 +20.0 19.63 - 3.3 33.5 00 14 4820 091E Alarm State:  5
Wed Sep 20 06:25:55 PDT 2017 ON: 20.01 +20.0 19.63 - 3.9 33.3 00 14 4803 0903 Alarm State:  5
Wed Sep 20 06:24:53 PDT 2017 ON: 20.00 +20.0 19.64 - 4.4 33.4 05 14 4724 0925 Alarm State:  5
Wed Sep 20 06:23:52 PDT 2017 ON: 20.02 +20.0 19.73 - 5.4 32.7 0D 12 4800 0901 Alarm State:  5
Wed Sep 20 06:22:50 PDT 2017 ON: 20.01 +20.0 19.66 - 3.9 33.2 02 14 4729 0906 Alarm State:  5
Wed Sep 20 06:21:49 PDT 2017 ON: 19.99 +20.0 19.65 - 4.3 33.5 05 14 4728 091D Alarm State:  5
Wed Sep 20 06:20:47 PDT 2017 ON: 20.00 +20.0 19.67 - 4.8 33.3 00 14 4805 091D Alarm State:  5
Wed Sep 20 06:19:46 PDT 2017 ON: 19.99 +20.0 19.69 - 4.8 32.8 0D 14 4814 090F Alarm State:  5
Wed Sep 20 06:18:45 PDT 2017 ON: 20.02 +20.0 19.68 - 4.7 33.2 08 14 482A 0919 Alarm State:  5
Wed Sep 20 06:17:43 PDT 2017 ON: 20.00 +20.0 19.68 - 4.5 33.6 0D 14 4803 0900 Alarm State:  5
Wed Sep 20 06:16:42 PDT 2017 ON: 20.00 +20.0 19.69 - 5.4 32.8 0D 14 470F 0914 Alarm State:  5
Wed Sep 20 06:15:40 PDT 2017 ON: 20.02 +20.0 19.63 - 3.4 33.5 00 14 4810 0906 Alarm State:  5
Wed Sep 20 06:14:39 PDT 2017 ON: 20.01 +20.0 19.66 - 4.5 32.9 00 14 4720 0916 Alarm State:  5
Wed Sep 20 06:13:37 PDT 2017 ON: 19.98 +20.0 19.62 - 4.0 33.7 02 14 4801 0918 Alarm State:  5
Wed Sep 20 06:12:36 PDT 2017 ON: 20.01 +20.0 19.69 - 5.0 33.2 0A 14 472D 0925 Alarm State:  5
Wed Sep 20 06:11:34 PDT 2017 ON: 20.00 +20.0 19.70 - 5.4 32.8 0D 13 4719 090F Alarm State:  5
Wed Sep 20 06:10:33 PDT 2017 ON: 20.01 +20.0 19.63 - 3.4 33.4 00 14 4807 0928 Alarm State:  5
Wed Sep 20 06:09:31 PDT 2017 ON: 19.99 +20.0 19.63 - 4.4 33.4 07 14 4728 0925 Alarm State:  5
Wed Sep 20 06:08:30 PDT 2017 ON: 20.01 +20.0 19.68 - 4.5 33.6 0D 14 4802 0905 Alarm State:  5
Wed Sep 20 06:07:28 PDT 2017 ON: 20.00 +20.0 19.67 - 5.3 32.8 05 14 4715 0A16 Alarm State:  5
Wed Sep 20 06:06:27 PDT 2017 ON: 20.00 +20.0 19.61 - 3.0 33.5 00 14 481D 091D Alarm State:  5
Wed Sep 20 06:05:25 PDT 2017 ON: 20.00 +20.0 19.66 - 4.1 33.7 05 14 4809 091A Alarm State:  5
Wed Sep 20 06:04:24 PDT 2017 ON: 20.02 +20.0 19.67 - 4.3 33.6 00 14 480E 090A Alarm State:  5
Wed Sep 20 06:03:22 PDT 2017 ON: 20.00 +20.0 19.66 - 3.7 33.7 07 14 4727 0919 Alarm State:  5
Wed Sep 20 06:02:21 PDT 2017 ON: 20.01 +20.0 19.66 - 4.4 33.6 0C 14 470E 0925 Alarm State:  5
Wed Sep 20 06:01:19 PDT 2017 ON: 20.00 +20.0 19.70 - 5.0 33.0 0D 13 470A 091A Alarm State:  5
Wed Sep 20 06:00:18 PDT 2017 ON: 20.00 +20.0 19.60 - 3.0 33.5 00 14 4800 0913 Alarm State:  5
Wed Sep 20 05:59:16 PDT 2017 ON: 20.02 +20.0 19.65 - 4.2 33.7 07 14 4707 0928 Alarm State:  5
Wed Sep 20 05:58:15 PDT 2017 ON: 20.00 +20.0 19.70 - 5.8 32.5 0D 14 4623 0B0B Alarm State:  5
Wed Sep 20 05:57:13 PDT 2017 ON: 19.96 +20.0 19.56 - 3.0 34.0 09 14 472C 0A09 Alarm State:  5
Wed Sep 20 05:56:12 PDT 2017 ON: 20.01 +20.0 19.71 - 5.5 32.7 0D 13 472B 091F Alarm State:  5
Wed Sep 20 05:55:10 PDT 2017 ON: 20.00 +20.0 19.60 - 2.8 33.7 00 14 482C 0903 Alarm State:  5
Wed Sep 20 05:54:09 PDT 2017 ON: 19.98 +20.0 19.64 - 4.2 33.5 00 14 4829 0A09 Alarm State:  5
Wed Sep 20 05:53:07 PDT 2017 ON: 20.02 +20.0 19.70 - 4.6 33.4 0D 13 4900 091A Alarm State:  5
Wed Sep 20 05:52:06 PDT 2017 ON: 20.02 +20.0 19.68 - 4.6 33.1 0A 14 4828 0924 Alarm State:  5
Wed Sep 20 05:51:04 PDT 2017 ON: 20.00 +20.0 19.68 - 4.7 33.0 0A 14 480E 090A Alarm State:  5
Wed Sep 20 05:50:03 PDT 2017 ON: 20.03 +20.0 19.65 - 3.7 33.3 00 14 481D 0900 Alarm State:  5
Wed Sep 20 05:49:01 PDT 2017 ON: 20.03 +20.0 19.62 - 3.6 33.5 00 14 472A 0911 Alarm State:  5
Wed Sep 20 05:48:00 PDT 2017 ON: 19.99 +20.0 19.63 - 3.7 33.7 05 14 4713 0919 Alarm State:  5
Wed Sep 20 05:46:58 PDT 2017 ON: 19.99 +20.0 19.68 - 4.5 33.2 00 14 471B 090E Alarm State:  5
Wed Sep 20 05:45:57 PDT 2017 ON: 20.02 +20.0 19.70 - 5.0 32.9 0D 13 472E 0913 Alarm State:  5
Wed Sep 20 05:44:55 PDT 2017 ON: 20.02 +20.0 19.69 - 5.4 32.3 0D 14 4718 091E Alarm State:  5
Wed Sep 20 05:43:54 PDT 2017 ON: 19.96 +20.0 19.61 - 3.4 33.9 02 14 4804 091E Alarm State:  5
Wed Sep 20 05:42:52 PDT 2017 ON: 20.02 +20.0 19.69 - 4.3 33.6 0D 14 4800 0905 Alarm State:  5
Wed Sep 20 05:41:51 PDT 2017 ON: 20.01 +20.0 19.69 - 4.9 33.0 0D 14 4700 0919 Alarm State:  5
Wed Sep 20 05:40:49 PDT 2017 ON: 20.02 +20.0 19.67 - 4.1 33.1 00 14 4710 0904 Alarm State:  5
Wed Sep 20 05:39:48 PDT 2017 ON: 19.99 +20.0 19.66 - 4.4 33.2 05 14 470D 092C Alarm State:  5
Wed Sep 20 05:38:46 PDT 2017 ON: 20.03 +20.0 19.71 - 5.3 32.6 0D 13 4719 0907 Alarm State:  5
Wed Sep 20 05:37:45 PDT 2017 ON: 20.00 +20.0 19.64 - 4.0 33.1 00 14 4716 0A05 Alarm State:  5
Wed Sep 20 05:36:43 PDT 2017 ON: 19.98 +20.0 19.64 - 4.2 33.0 07 14 4720 0A17 Alarm State:  5
Wed Sep 20 05:35:42 PDT 2017 ON: 20.03 +20.0 19.68 - 4.4 33.2 0A 14 480C 0911 Alarm State:  5
Wed Sep 20 05:34:40 PDT 2017 ON: 19.99 +20.0 19.63 - 3.4 33.6 00 14 4721 091E Alarm State:  5
Wed Sep 20 05:33:39 PDT 2017 ON: 19.99 +20.0 19.65 - 4.5 33.3 07 14 4706 0928 Alarm State:  5
Wed Sep 20 05:32:37 PDT 2017 ON: 20.02 +20.0 19.71 - 5.8 32.1 0A 13 470C 0919 Alarm State:  5
Wed Sep 20 05:31:36 PDT 2017 ON: 19.98 +20.0 19.62 - 3.5 33.9 0A 14 472D 0915 Alarm State:  5
Wed Sep 20 05:30:34 PDT 2017 ON: 20.00 +20.0 19.68 - 4.7 33.3 07 14 472F 0904 Alarm State:  5
Wed Sep 20 05:29:33 PDT 2017 ON: 20.03 +20.0 19.71 - 5.4 32.4 0A 13 4728 090A Alarm State:  5
Wed Sep 20 05:28:31 PDT 2017 ON: 19.98 +20.0 19.61 - 3.1 33.9 07 14 4809 0912 Alarm State:  5
Wed Sep 20 05:27:30 PDT 2017 ON: 20.00 +20.0 19.68 - 4.7 33.4 00 14 4725 0918 Alarm State:  5
Wed Sep 20 05:26:28 PDT 2017 ON: 20.02 +20.0 19.71 - 5.0 33.1 0D 13 471B 091B Alarm State:  5
Wed Sep 20 05:25:27 PDT 2017 ON: 20.01 +20.0 19.67 - 4.6 33.0 00 14 471E 0915 Alarm State:  5
Wed Sep 20 05:24:25 PDT 2017 ON: 20.03 +20.0 19.66 - 4.8 32.7 02 14 4722 090E Alarm State:  5
Wed Sep 20 05:23:24 PDT 2017 ON: 19.99 +20.0 19.63 - 3.6 33.9 0A 14 4804 0913 Alarm State:  5
Wed Sep 20 05:22:22 PDT 2017 ON: 20.00 +20.0 19.66 - 4.2 33.6 00 14 4823 091C Alarm State:  5
Wed Sep 20 05:21:21 PDT 2017 ON: 20.00 +20.0 19.67 - 4.4 33.5 05 14 4831 090D Alarm State:  5
Wed Sep 20 05:20:19 PDT 2017 ON: 20.02 +20.0 19.69 - 4.4 33.6 0D 14 481E 0915 Alarm State:  5
Wed Sep 20 05:19:18 PDT 2017 ON: 20.01 +20.0 19.66 - 4.6 33.3 05 14 4715 0901 Alarm State:  5
Wed Sep 20 05:18:16 PDT 2017 ON: 20.02 +20.0 19.71 - 5.8 32.4 0D 13 4621 0915 Alarm State:  5
Wed Sep 20 05:17:15 PDT 2017 ON: 20.00 +20.0 19.60 - 3.0 33.8 01 14 4708 0911 Alarm State:  5
Wed Sep 20 05:16:13 PDT 2017 ON: 20.01 +20.0 19.68 - 4.5 33.1 00 14 462E 0A09 Alarm State:  5
Wed Sep 20 05:15:12 PDT 2017 ON: 20.01 +20.0 19.65 - 3.6 33.3 00 14 471F 0A00 Alarm State:  5
Wed Sep 20 05:14:10 PDT 2017 ON: 19.98 +20.0 19.64 - 4.4 33.0 05 14 471A 0A17 Alarm State:  5
Wed Sep 20 05:13:09 PDT 2017 ON: 20.03 +20.0 19.68 - 4.4 33.1 05 14 4807 0902 Alarm State:  5
Wed Sep 20 05:12:07 PDT 2017 ON: 20.00 +20.0 19.65 - 4.3 33.1 00 14 4715 0912 Alarm State:  5
Wed Sep 20 05:10:56 PDT 2017 ON: 20.03 +20.0 19.65 - 3.8 33.3 00 14 4705 0923 Alarm State:  5
Wed Sep 20 05:09:55 PDT 2017 ON: 19.99 +20.0 19.64 - 4.5 33.0 07 14 4631 0A15 Alarm State:  5
Wed Sep 20 05:08:53 PDT 2017 ON: 20.02 +20.0 19.70 - 4.5 32.8 0D 14 472A 0A00 Alarm State:  5
Wed Sep 20 05:07:52 PDT 2017 ON: 19.99 +20.0 19.62 - 3.6 33.9 02 14 4804 0A05 Alarm State:  5
Wed Sep 20 05:06:50 PDT 2017 ON: 20.00 +20.0 19.68 - 4.6 33.5 05 14 472B 0926 Alarm State:  5
Wed Sep 20 05:05:49 PDT 2017 ON: 20.02 +20.0 19.71 - 5.6 32.7 0D 13 4625 0911 Alarm State:  5
Wed Sep 20 05:04:47 PDT 2017 ON: 20.01 +20.0 19.61 - 3.2 33.7 05 14 4712 0921 Alarm State:  5
Wed Sep 20 05:03:46 PDT 2017 ON: 19.99 +20.0 19.66 - 4.4 33.5 05 14 462E 092D Alarm State:  5
Wed Sep 20 05:02:44 PDT 2017 ON: 19.99 +20.0 19.70 - 5.3 32.7 0D 14 4713 0A12 Alarm State:  5
Wed Sep 20 05:01:43 PDT 2017 ON: 19.98 +20.0 19.59 - 2.5 34.0 09 14 481D 0909 Alarm State:  5
Wed Sep 20 05:00:41 PDT 2017 ON: 20.00 +20.0 19.63 - 4.1 33.7 05 14 4807 0908 Alarm State:  5
Wed Sep 20 04:59:40 PDT 2017 ON: 20.00 +20.0 19.70 - 5.1 32.9 0D 13 471F 0918 Alarm State:  5
Wed Sep 20 04:58:38 PDT 2017 ON: 20.01 +20.0 19.61 - 3.2 33.6 00 14 4812 0910 Alarm State:  5
Wed Sep 20 04:57:37 PDT 2017 ON: 19.98 +20.0 19.65 - 4.1 33.7 05 14 472C 091C Alarm State:  5
Wed Sep 20 04:56:35 PDT 2017 ON: 20.01 +20.0 19.70 - 5.3 32.8 0D 13 4724 0913 Alarm State:  5
Wed Sep 20 04:55:34 PDT 2017 ON: 20.00 +20.0 19.63 - 2.9 33.8 05 14 481A 0906 Alarm State:  5
Wed Sep 20 04:54:32 PDT 2017 ON: 20.00 +20.0 19.67 - 4.5 33.0 02 14 4800 0919 Alarm State:  5
Wed Sep 20 04:53:31 PDT 2017 ON: 20.01 +20.0 19.66 - 4.0 33.5 00 14 4819 0926 Alarm State:  5
Wed Sep 20 04:52:29 PDT 2017 ON: 20.02 +20.0 19.69 - 4.5 33.5 0D 14 4718 0912 Alarm State:  5
Wed Sep 20 04:51:28 PDT 2017 ON: 20.02 +20.0 19.72 - 5.4 32.7 0D 12 4632 091E Alarm State:  5
Wed Sep 20 04:50:26 PDT 2017 ON: 20.00 +20.0 19.61 - 3.1 33.7 02 14 4725 0912 Alarm State:  5
Wed Sep 20 04:49:25 PDT 2017 ON: 19.98 +20.0 19.67 - 4.4 33.0 00 14 4722 0A0A Alarm State:  5
Wed Sep 20 04:48:23 PDT 2017 ON: 20.00 +20.0 19.67 - 3.9 33.3 00 14 4823 0916 Alarm State:  5
Wed Sep 20 04:47:22 PDT 2017 ON: 20.01 +20.0 19.61 - 3.1 33.6 02 14 4820 091E Alarm State:  5
Wed Sep 20 04:46:20 PDT 2017 ON: 20.01 +20.0 19.64 - 3.6 33.7 07 14 472F 0908 Alarm State:  5
Wed Sep 20 04:45:19 PDT 2017 ON: 19.99 +20.0 19.64 - 4.1 33.7 05 14 4714 0916 Alarm State:  5
Wed Sep 20 04:44:17 PDT 2017 ON: 20.00 +20.0 19.69 - 5.6 32.5 0D 14 4700 0A1D Alarm State:  5
Wed Sep 20 04:43:16 PDT 2017 ON: 19.98 +20.0 19.58 - 2.7 34.1 0C 14 4808 091A Alarm State:  5
Wed Sep 20 04:42:14 PDT 2017 ON: 19.99 +20.0 19.66 - 4.2 33.5 05 14 4810 090B Alarm State:  5
Wed Sep 20 04:41:13 PDT 2017 ON: 20.02 +20.0 19.70 - 5.0 33.2 0A 13 4807 090D Alarm State:  5
Wed Sep 20 04:40:11 PDT 2017 ON: 20.00 +20.0 19.69 - 4.6 33.3 0A 14 4712 0922 Alarm State:  5
Wed Sep 20 04:39:10 PDT 2017 ON: 20.02 +20.0 19.71 - 5.5 32.5 08 13 4715 0920 Alarm State:  5
Wed Sep 20 04:38:08 PDT 2017 ON: 19.97 +20.0 19.60 - 3.0 33.9 04 14 4730 0915 Alarm State:  5
Wed Sep 20 04:37:07 PDT 2017 ON: 20.01 +20.0 19.68 - 4.6 33.1 05 14 472E 0A08 Alarm State:  5
Wed Sep 20 04:36:05 PDT 2017 ON: 20.03 +20.0 19.65 - 3.7 33.2 00 14 4822 0905 Alarm State:  5
Wed Sep 20 04:35:04 PDT 2017 ON: 19.99 +20.0 19.64 - 4.0 33.6 00 14 481C 092E Alarm State:  5
Wed Sep 20 04:34:02 PDT 2017 ON: 20.02 +20.0 19.69 - 5.0 33.0 0D 14 481B 091A Alarm State:  5
Wed Sep 20 04:32:51 PDT 2017 ON: 20.02 +20.0 19.67 - 4.5 32.8 00 14 4819 0921 Alarm State:  5
Wed Sep 20 04:31:50 PDT 2017 ON: 20.00 +20.0 19.63 - 3.4 33.8 0C 14 4800 0902 Alarm State:  5
Wed Sep 20 04:30:48 PDT 2017 ON: 20.00 +20.0 19.68 - 4.9 33.0 07 14 4709 0913 Alarm State:  5
Wed Sep 20 04:29:47 PDT 2017 ON: 20.01 +20.0 19.69 - 4.6 32.9 05 14 4720 091C Alarm State:  5
Wed Sep 20 04:28:45 PDT 2017 ON: 20.00 +20.0 19.65 - 3.4 33.9 05 14 4724 0911 Alarm State:  5
Wed Sep 20 04:27:44 PDT 2017 ON: 20.01 +20.0 19.68 - 4.5 33.5 07 14 4632 0919 Alarm State:  5
Wed Sep 20 04:26:42 PDT 2017 ON: 20.03 +20.0 19.72 - 5.8 32.1 0A 13 461E 0A24 Alarm State:  5
Wed Sep 20 04:25:41 PDT 2017 ON: 19.97 +20.0 19.63 - 3.7 33.9 0A 14 470C 0A1C Alarm State:  5
Wed Sep 20 04:24:39 PDT 2017 ON: 20.02 +20.0 19.71 - 5.4 32.8 0D 13 4714 0A26 Alarm State:  5
Wed Sep 20 04:23:38 PDT 2017 ON: 19.98 +20.0 19.58 - 2.6 34.0 04 14 4816 0A01 Alarm State:  5
Wed Sep 20 04:22:36 PDT 2017 ON: 20.01 +20.0 19.67 - 4.5 33.5 00 14 4800 0901 Alarm State:  5
Wed Sep 20 04:21:35 PDT 2017 ON: 20.03 +20.0 19.74 - 5.8 32.5 0D 11 4708 0911 Alarm State:  5
Wed Sep 20 04:20:33 PDT 2017 ON: 19.98 +20.0 19.62 - 3.2 33.8 00 14 4718 091D Alarm State:  5
Wed Sep 20 04:19:32 PDT 2017 ON: 19.98 +20.0 19.67 - 4.8 33.0 05 14 470D 0A19 Alarm State:  5
Wed Sep 20 04:18:30 PDT 2017 ON: 19.99 +20.0 19.58 - 2.5 33.8 04 14 4818 091B Alarm State:  5
Wed Sep 20 04:17:29 PDT 2017 ON: 20.02 +20.0 19.67 - 4.6 33.3 00 14 4724 0929 Alarm State:  5
Wed Sep 20 04:16:27 PDT 2017 ON: 20.03 +20.0 19.70 - 5.3 32.3 05 13 4724 091A Alarm State:  5
Wed Sep 20 04:15:26 PDT 2017 ON: 19.98 +20.0 19.63 - 3.6 33.9 02 14 480A 091B Alarm State:  5
Wed Sep 20 04:14:24 PDT 2017 ON: 20.02 +20.0 19.68 - 5.0 32.9 0A 14 4804 0906 Alarm State:  5
Wed Sep 20 04:13:23 PDT 2017 ON: 20.01 +20.0 19.64 - 4.1 33.2 00 14 4817 0919 Alarm State:  5
Wed Sep 20 04:12:21 PDT 2017 ON: 20.01 +20.0 19.63 - 3.4 33.4 00 14 4801 0924 Alarm State:  5
Wed Sep 20 04:11:20 PDT 2017 ON: 19.99 +20.0 19.64 - 3.9 33.7 0A 14 4723 092A Alarm State:  5
Wed Sep 20 04:10:18 PDT 2017 ON: 20.00 +20.0 19.67 - 4.8 33.1 05 14 470D 0904 Alarm State:  5
Wed Sep 20 04:09:17 PDT 2017 ON: 20.01 +20.0 19.62 - 3.9 33.4 00 14 4730 0911 Alarm State:  5
Wed Sep 20 04:08:15 PDT 2017 ON: 20.02 +20.0 19.67 - 5.3 32.5 00 14 4704 0926 Alarm State:  5
Wed Sep 20 04:07:14 PDT 2017 ON: 19.98 +20.0 19.60 - 2.9 33.9 05 14 4804 090C Alarm State:  5
Wed Sep 20 04:06:12 PDT 2017 ON: 19.99 +20.0 19.64 - 4.4 33.1 02 14 4810 091A Alarm State:  5
Wed Sep 20 04:05:11 PDT 2017 ON: 20.03 +20.0 19.66 - 3.7 33.5 00 14 4831 090D Alarm State:  5
Wed Sep 20 04:04:09 PDT 2017 ON: 20.01 +20.0 19.68 - 4.9 32.9 00 14 472A 0922 Alarm State:  5
Wed Sep 20 04:03:08 PDT 2017 ON: 20.02 +20.0 19.63 - 4.4 32.9 00 14 4715 0905 Alarm State:  5
Wed Sep 20 04:02:06 PDT 2017 ON: 19.98 +20.0 19.63 - 4.1 33.6 00 14 4713 0927 Alarm State:  5
Wed Sep 20 04:01:05 PDT 2017 ON: 20.02 +20.0 19.70 - 5.4 32.6 0A 13 4714 090D Alarm State:  5
Wed Sep 20 04:00:03 PDT 2017 ON: 19.98 +20.0 19.61 - 2.9 33.9 07 14 472C 0917 Alarm State:  5
Wed Sep 20 03:59:02 PDT 2017 ON: 20.00 +20.0 19.68 - 4.6 33.2 05 14 471D 0A0F Alarm State:  5
Wed Sep 20 03:58:00 PDT 2017 ON: 20.03 +20.0 19.65 - 3.7 33.3 00 14 4813 0909 Alarm State:  5
Wed Sep 20 03:56:59 PDT 2017 ON: 19.99 +20.0 19.67 - 4.4 33.1 05 14 472A 0914 Alarm State:  5
Wed Sep 20 03:55:57 PDT 2017 ON: 20.02 +20.0 19.69 - 5.2 32.4 08 14 4731 0925 Alarm State:  5
Wed Sep 20 03:54:56 PDT 2017 ON: 19.97 +20.0 19.62 - 4.0 33.6 00 14 480E 0928 Alarm State:  5
Wed Sep 20 03:53:54 PDT 2017 ON: 20.00 +20.0 19.68 - 4.4 33.4 0A 14 4821 090A Alarm State:  5
Wed Sep 20 03:52:53 PDT 2017 ON: 20.03 +20.0 19.72 - 5.3 32.8 0D 12 4730 0919 Alarm State:  5
Wed Sep 20 03:51:51 PDT 2017 ON: 20.01 +20.0 19.61 - 3.3 33.5 02 14 4802 0913 Alarm State:  5
Wed Sep 20 03:50:50 PDT 2017 ON: 19.98 +20.0 19.65 - 4.4 33.2 00 14 4729 0A10 Alarm State:  5
Wed Sep 20 03:49:48 PDT 2017 ON: 20.03 +20.0 19.69 - 5.1 32.5 05 14 4809 0910 Alarm State:  5
Wed Sep 20 03:48:47 PDT 2017 ON: 19.99 +20.0 19.63 - 3.4 33.9 02 14 4809 0928 Alarm State:  5
Wed Sep 20 03:47:45 PDT 2017 ON: 20.00 +20.0 19.67 - 4.8 33.3 05 14 4725 0901 Alarm State:  5
Wed Sep 20 03:46:44 PDT 2017 ON: 20.01 +20.0 19.69 - 4.6 33.3 0D 14 471F 0912 Alarm State:  5
Wed Sep 20 03:45:42 PDT 2017 ON: 20.03 +20.0 19.72 - 5.6 32.6 0D 12 470E 0918 Alarm State:  5
Wed Sep 20 03:44:41 PDT 2017 ON: 19.99 +20.0 19.64 - 3.4 33.8 02 14 471C 092B Alarm State:  5
Wed Sep 20 03:43:39 PDT 2017 ON: 19.99 +20.0 19.69 - 5.2 32.8 0D 14 470F 0A23 Alarm State:  5
Wed Sep 20 03:42:38 PDT 2017 ON: 19.97 +20.0 19.57 - 2.5 33.9 01 14 481A 091D Alarm State:  5
Wed Sep 20 03:41:36 PDT 2017 ON: 20.00 +20.0 19.66 - 4.2 33.6 05 14 4817 0915 Alarm State:  5
Wed Sep 20 03:40:35 PDT 2017 ON: 20.01 +20.0 19.67 - 4.4 33.6 05 14 4805 091C Alarm State:  5
Wed Sep 20 03:39:33 PDT 2017 ON: 20.01 +20.0 19.64 - 4.4 33.1 00 14 4806 0924 Alarm State:  5
Wed Sep 20 03:38:32 PDT 2017 ON: 20.01 +20.0 19.63 - 3.7 33.3 00 14 481A 0913 Alarm State:  5
Wed Sep 20 03:37:31 PDT 2017 ON: 20.00 +20.0 19.62 - 3.5 33.7 07 14 4801 091D Alarm State:  5
Wed Sep 20 03:36:29 PDT 2017 ON: 19.99 +20.0 19.66 - 4.5 33.3 05 14 4722 0926 Alarm State:  5
Wed Sep 20 03:35:18 PDT 2017 ON: 20.01 +20.0 19.69 - 5.2 32.7 0A 14 472B 090C Alarm State:  5
Wed Sep 20 03:34:16 PDT 2017 ON: 20.00 +20.0 19.62 - 3.1 33.7 05 14 480A 091A Alarm State:  5
Wed Sep 20 03:33:15 PDT 2017 ON: 20.01 +20.0 19.68 - 4.4 33.1 07 14 4730 091A Alarm State:  5
Wed Sep 20 03:32:13 PDT 2017 ON: 20.02 +20.0 19.69 - 4.5 33.1 08 14 480D 0924 Alarm State:  5
Wed Sep 20 03:31:12 PDT 2017 ON: 20.01 +20.0 19.62 - 3.5 33.4 02 14 4800 0905 Alarm State:  5
Wed Sep 20 03:30:10 PDT 2017 ON: 19.99 +20.0 19.68 - 4.5 33.2 00 14 4713 0916 Alarm State:  5
Wed Sep 20 03:29:09 PDT 2017 ON: 20.02 +20.0 19.72 - 5.3 32.5 0A 12 4722 091F Alarm State:  5
Wed Sep 20 03:28:07 PDT 2017 ON: 19.98 +20.0 19.63 - 3.3 33.9 02 14 471D 0917 Alarm State:  5
Wed Sep 20 03:27:06 PDT 2017 ON: 20.01 +20.0 19.68 - 4.7 33.0 00 14 4632 091C Alarm State:  5
Wed Sep 20 03:26:04 PDT 2017 ON: 20.04 +20.0 19.65 - 3.9 33.2 00 14 4716 090A Alarm State:  5
Wed Sep 20 03:25:03 PDT 2017 ON: 20.00 +20.0 19.67 - 4.1 33.7 05 14 461F 0917 Alarm State:  5
Wed Sep 20 03:24:01 PDT 2017 ON: 19.99 +20.0 19.70 - 5.1 33.0 0D 13 460A 091D Alarm State:  5
Wed Sep 20 03:23:00 PDT 2017 ON: 20.02 +20.0 19.63 - 3.1 33.5 0A 14 4711 0905 Alarm State:  5
Wed Sep 20 03:21:58 PDT 2017 ON: 20.00 +20.0 19.66 - 4.1 33.5 05 14 4714 0924 Alarm State:  5
Wed Sep 20 03:20:57 PDT 2017 ON: 20.00 +20.0 19.71 - 5.0 32.6 08 13 4803 0914 Alarm State:  5
Wed Sep 20 03:19:55 PDT 2017 ON: 20.00 +20.0 19.59 - 3.0 33.7 00 14 482A 091B Alarm State:  5
Wed Sep 20 03:18:54 PDT 2017 ON: 19.99 +20.0 19.63 - 3.4 33.8 07 14 4824 091E Alarm State:  5
Wed Sep 20 03:17:52 PDT 2017 ON: 20.00 +20.0 19.66 - 4.4 33.3 07 14 480D 092A Alarm State:  5
Wed Sep 20 03:16:51 PDT 2017 ON: 20.03 +20.0 19.70 - 5.2 32.8 0D 13 480B 091F Alarm State:  5
Wed Sep 20 03:15:49 PDT 2017 ON: 20.00 +20.0 19.62 - 2.7 33.9 00 14 4816 0917 Alarm State:  5
Wed Sep 20 03:14:48 PDT 2017 ON: 20.00 +20.0 19.67 - 4.0 33.7 05 14 4727 0928 Alarm State:  5
Wed Sep 20 03:13:46 PDT 2017 ON: 20.01 +20.0 19.69 - 4.9 33.0 05 14 4631 090F Alarm State:  5
Wed Sep 20 03:12:45 PDT 2017 ON: 20.00 +20.0 19.61 - 3.1 33.5 00 14 4728 0905 Alarm State:  5
Wed Sep 20 03:11:43 PDT 2017 ON: 19.99 +20.0 19.63 - 3.8 33.8 00 14 470D 0913 Alarm State:  5
Wed Sep 20 03:10:42 PDT 2017 ON: 20.00 +20.0 19.68 - 5.1 32.8 00 14 4630 0A18 Alarm State:  5
Wed Sep 20 03:09:40 PDT 2017 ON: 19.98 +20.0 19.57 - 2.5 33.9 09 14 4805 0917 Alarm State:  5
Wed Sep 20 03:08:39 PDT 2017 ON: 19.98 +20.0 19.68 - 4.9 32.9 00 14 4722 0A1A Alarm State:  5
Wed Sep 20 03:07:37 PDT 2017 ON: 19.99 +20.0 19.59 - 2.6 33.8 00 14 4828 091F Alarm State:  5
Wed Sep 20 03:06:36 PDT 2017 ON: 20.03 +20.0 19.67 - 4.5 33.1 02 14 4731 0907 Alarm State:  5
Wed Sep 20 03:05:34 PDT 2017 ON: 20.00 +20.0 19.64 - 3.7 33.8 05 14 4730 092B Alarm State:  5
Wed Sep 20 03:04:33 PDT 2017 ON: 20.01 +20.0 19.71 - 5.5 32.6 0D 13 4724 0918 Alarm State:  5
Wed Sep 20 03:03:31 PDT 2017 ON: 19.99 +20.0 19.59 - 2.8 34.0 04 14 4814 091C Alarm State:  5
Wed Sep 20 03:02:30 PDT 2017 ON: 20.02 +20.0 19.69 - 4.4 33.5 0D 14 4727 0927 Alarm State:  5
Wed Sep 20 03:01:28 PDT 2017 ON: 20.02 +20.0 19.70 - 4.3 33.7 0D 13 4712 090C Alarm State:  5
Wed Sep 20 03:00:27 PDT 2017 ON: 19.99 +20.0 19.68 - 5.1 33.0 05 14 4617 0921 Alarm State:  5
Wed Sep 20 02:59:26 PDT 2017 ON: 20.00 +20.0 19.58 - 2.9 33.6 00 14 4717 0904 Alarm State:  5
Wed Sep 20 02:58:24 PDT 2017 ON: 20.01 +20.0 19.67 - 4.4 33.3 07 14 4701 090D Alarm State:  5
Wed Sep 20 02:57:23 PDT 2017 ON: 20.04 +20.0 19.70 - 5.1 32.6 0D 13 4716 0912 Alarm State:  5
Wed Sep 20 02:56:21 PDT 2017 ON: 19.98 +20.0 19.61 - 3.3 33.9 05 14 4718 0909 Alarm State:  5
Wed Sep 20 02:55:20 PDT 2017 ON: 20.00 +20.0 19.68 - 4.6 33.5 05 14 462E 0911 Alarm State:  5
Wed Sep 20 02:54:18 PDT 2017 ON: 20.00 +20.0 19.70 - 5.3 32.7 0D 13 4610 0924 Alarm State:  5
Wed Sep 20 02:53:17 PDT 2017 ON: 19.98 +20.0 19.60 - 2.8 33.8 09 14 4712 091B Alarm State:  5
Wed Sep 20 02:52:15 PDT 2017 ON: 19.99 +20.0 19.68 - 4.8 33.0 00 14 462F 091A Alarm State:  5
Wed Sep 20 02:51:14 PDT 2017 ON: 20.02 +20.0 19.69 - 4.7 32.7 08 14 471F 0919 Alarm State:  5
Wed Sep 20 02:50:12 PDT 2017 ON: 19.98 +20.0 19.63 - 3.7 33.8 05 14 4802 0928 Alarm State:  5
Wed Sep 20 02:49:11 PDT 2017 ON: 20.01 +20.0 19.69 - 4.8 32.9 0D 14 472C 0918 Alarm State:  5
Wed Sep 20 02:48:09 PDT 2017 ON: 20.02 +20.0 19.64 - 3.7 33.4 00 14 4731 0912 Alarm State:  5
Wed Sep 20 02:47:08 PDT 2017 ON: 20.03 +20.0 19.68 - 4.7 32.7 00 14 462C 0927 Alarm State:  5
Wed Sep 20 02:46:06 PDT 2017 ON: 19.99 +20.0 19.63 - 3.8 33.8 05 14 4702 0A0B Alarm State:  5
Wed Sep 20 02:45:05 PDT 2017 ON: 20.00 +20.0 19.69 - 4.8 33.0 0A 14 4706 0920 Alarm State:  5
Wed Sep 20 02:44:03 PDT 2017 ON: 20.01 +20.0 19.66 - 4.5 32.8 00 14 471B 0923 Alarm State:  5
Wed Sep 20 02:43:02 PDT 2017 ON: 19.99 +20.0 19.64 - 3.8 33.7 07 14 4727 0A02 Alarm State:  5
Wed Sep 20 02:42:00 PDT 2017 ON: 20.03 +20.0 19.69 - 5.3 32.5 03 14 472E 0912 Alarm State:  5
Wed Sep 20 02:40:59 PDT 2017 ON: 19.97 +20.0 19.60 - 2.9 34.0 00 14 4815 091A Alarm State:  5
Wed Sep 20 02:39:57 PDT 2017 ON: 20.01 +20.0 19.69 - 4.5 33.5 0D 14 4729 091E Alarm State:  5
Wed Sep 20 02:38:46 PDT 2017 ON: 20.01 +20.0 19.62 - 3.3 33.5 00 14 472D 091F Alarm State:  5
Wed Sep 20 02:37:44 PDT 2017 ON: 20.00 +20.0 19.65 - 4.1 33.7 05 14 472E 091B Alarm State:  5
Wed Sep 20 02:36:43 PDT 2017 ON: 20.01 +20.0 19.67 - 4.5 33.5 00 14 4732 0904 Alarm State:  5
Wed Sep 20 02:35:41 PDT 2017 ON: 20.02 +20.0 19.72 - 5.8 32.6 0D 12 4707 0916 Alarm State:  5
Wed Sep 20 02:34:40 PDT 2017 ON: 19.99 +20.0 19.60 - 3.0 33.8 01 14 471F 091C Alarm State:  5
Wed Sep 20 02:33:38 PDT 2017 ON: 20.00 +20.0 19.68 - 4.7 33.1 0A 14 4708 0926 Alarm State:  5
Wed Sep 20 02:32:37 PDT 2017 ON: 20.02 +20.0 19.61 - 3.8 33.2 00 14 472A 0906 Alarm State:  5
Wed Sep 20 02:31:35 PDT 2017 ON: 20.01 +20.0 19.65 - 3.5 33.8 05 14 471B 0904 Alarm State:  5
Wed Sep 20 02:30:34 PDT 2017 ON: 19.99 +20.0 19.65 - 4.5 33.4 07 14 4705 0A0F Alarm State:  5
Wed Sep 20 02:29:32 PDT 2017 ON: 20.00 +20.0 19.72 - 5.5 32.7 0D 13 470C 0A22 Alarm State:  5
Wed Sep 20 02:28:31 PDT 2017 ON: 19.99 +20.0 19.59 - 2.8 34.0 09 14 4811 092E Alarm State:  5
Wed Sep 20 02:27:29 PDT 2017 ON: 20.03 +20.0 19.67 - 4.7 33.3 05 14 472B 0924 Alarm State:  5
Wed Sep 20 02:26:28 PDT 2017 ON: 20.04 +20.0 19.69 - 5.1 32.5 05 14 470F 090A Alarm State:  5
Wed Sep 20 02:25:26 PDT 2017 ON: 19.98 +20.0 19.64 - 3.9 33.8 05 14 4704 092C Alarm State:  5
Wed Sep 20 02:24:25 PDT 2017 ON: 20.01 +20.0 19.70 - 5.4 32.7 0D 13 4706 0922 Alarm State:  5
Wed Sep 20 02:23:23 PDT 2017 ON: 20.00 +20.0 19.58 - 3.0 33.8 01 14 4806 090E Alarm State:  5
Wed Sep 20 02:22:22 PDT 2017 ON: 19.99 +20.0 19.66 - 4.4 33.0 00 14 4727 0911 Alarm State:  5
Wed Sep 20 02:21:21 PDT 2017 ON: 20.02 +20.0 19.67 - 4.2 33.3 00 14 480B 0918 Alarm State:  5
Wed Sep 20 02:20:19 PDT 2017 ON: 20.00 +20.0 19.65 - 3.7 33.7 05 14 4718 0925 Alarm State:  5
Wed Sep 20 02:19:18 PDT 2017 ON: 20.01 +20.0 19.69 - 5.2 32.9 05 14 4620 0A10 Alarm State:  5
Wed Sep 20 02:18:16 PDT 2017 ON: 19.99 +20.0 19.60 - 2.8 33.8 01 14 4721 0926 Alarm State:  5
Wed Sep 20 02:17:15 PDT 2017 ON: 19.99 +20.0 19.68 - 4.5 33.4 00 14 470C 0909 Alarm State:  5
Wed Sep 20 02:16:13 PDT 2017 ON: 20.01 +20.0 19.73 - 5.9 32.4 0D 12 4703 0A03 Alarm State:  5
Wed Sep 20 02:15:12 PDT 2017 ON: 19.97 +20.0 19.59 - 3.2 33.9 09 14 472D 091D Alarm State:  5
Wed Sep 20 02:14:10 PDT 2017 ON: 20.00 +20.0 19.68 - 4.6 33.2 02 14 4726 0909 Alarm State:  5
Wed Sep 20 02:13:09 PDT 2017 ON: 20.03 +20.0 19.69 - 5.2 32.6 03 14 4718 0910 Alarm State:  5
Wed Sep 20 02:12:07 PDT 2017 ON: 20.01 +20.0 19.65 - 3.3 33.7 0A 14 4706 0911 Alarm State:  5
Wed Sep 20 02:11:06 PDT 2017 ON: 20.00 +20.0 19.67 - 4.7 33.1 05 14 461A 0A19 Alarm State:  5
Wed Sep 20 02:10:04 PDT 2017 ON: 20.01 +20.0 19.61 - 3.2 33.4 00 14 4719 0A02 Alarm State:  5
Wed Sep 20 02:09:03 PDT 2017 ON: 19.97 +20.0 19.67 - 4.5 33.0 05 14 470E 0A26 Alarm State:  5
Wed Sep 20 02:08:01 PDT 2017 ON: 20.02 +20.0 19.62 - 3.0 33.5 00 14 4811 0903 Alarm State:  5
Wed Sep 20 02:07:00 PDT 2017 ON: 20.02 +20.0 19.68 - 4.3 33.6 07 14 4717 0913 Alarm State:  5
Wed Sep 20 02:05:58 PDT 2017 ON: 20.01 +20.0 19.72 - 5.7 32.6 0D 13 4630 0A20 Alarm State:  5
Wed Sep 20 02:04:57 PDT 2017 ON: 19.97 +20.0 19.59 - 2.9 33.9 01 14 472C 092D Alarm State:  5
Wed Sep 20 02:03:55 PDT 2017 ON: 20.01 +20.0 19.68 - 4.6 33.4 00 14 4724 0922 Alarm State:  5
Wed Sep 20 02:02:53 PDT 2017 ON: 20.01 +20.0 19.70 - 5.6 32.6 0D 13 4711 0920 Alarm State:  5
Wed Sep 20 02:01:52 PDT 2017 ON: 19.98 +20.0 19.60 - 2.8 33.9 05 14 4810 090C Alarm State:  5
Wed Sep 20 02:00:51 PDT 2017 ON: 20.01 +20.0 19.68 - 4.1 33.7 0A 14 472A 090C Alarm State:  5
Wed Sep 20 01:59:49 PDT 2017 ON: 19.99 +20.0 19.68 - 4.8 33.1 00 14 4700 091F Alarm State:  5
Wed Sep 20 01:58:48 PDT 2017 ON: 20.01 +20.0 19.69 - 5.0 32.6 05 14 4717 0926 Alarm State:  5
Wed Sep 20 01:57:46 PDT 2017 ON: 19.98 +20.0 19.61 - 3.2 33.8 00 14 4728 090C Alarm State:  5
Wed Sep 20 01:56:45 PDT 2017 ON: 20.00 +20.0 19.65 - 4.5 33.3 07 14 471A 0911 Alarm State:  5
Wed Sep 20 01:55:43 PDT 2017 ON: 20.03 +20.0 19.68 - 4.7 33.1 00 14 472D 091E Alarm State:  5
Wed Sep 20 01:54:42 PDT 2017 ON: 20.00 +20.0 19.68 - 4.8 33.1 05 14 4703 090A Alarm State:  5
Wed Sep 20 01:53:40 PDT 2017 ON: 20.02 +20.0 19.64 - 3.4 33.4 00 14 4722 090D Alarm State:  5
Wed Sep 20 01:52:39 PDT 2017 ON: 20.00 +20.0 19.66 - 4.1 33.7 05 14 4700 091A Alarm State:  5
Wed Sep 20 01:51:37 PDT 2017 ON: 19.99 +20.0 19.67 - 4.6 33.2 00 14 4701 091C Alarm State:  5
Wed Sep 20 01:50:36 PDT 2017 ON: 20.01 +20.0 19.69 - 5.0 32.7 0A 14 4713 0901 Alarm State:  5
Wed Sep 20 01:49:34 PDT 2017 ON: 19.99 +20.0 19.63 - 3.2 33.6 02 14 4726 0916 Alarm State:  5
Wed Sep 20 01:48:33 PDT 2017 ON: 20.01 +20.0 19.64 - 3.5 33.8 00 14 472C 091D Alarm State:  5
Wed Sep 20 01:47:31 PDT 2017 ON: 20.01 +20.0 19.68 - 5.0 32.8 05 14 4709 0A04 Alarm State:  5
Wed Sep 20 01:46:30 PDT 2017 ON: 19.99 +20.0 19.64 - 3.2 33.5 00 14 4806 091A Alarm State:  5
Wed Sep 20 01:45:28 PDT 2017 ON: 19.99 +20.0 19.62 - 3.4 33.7 00 14 4722 0924 Alarm State:  5
Wed Sep 20 01:44:27 PDT 2017 ON: 20.01 +20.0 19.64 - 4.2 33.7 02 14 4706 0908 Alarm State:  5
Wed Sep 20 01:43:25 PDT 2017 ON: 20.02 +20.0 19.72 - 5.1 32.9 0D 12 4626 090E Alarm State:  5
Wed Sep 20 01:42:24 PDT 2017 ON: 20.00 +20.0 19.65 - 3.7 33.2 02 14 471F 090E Alarm State:  5
Wed Sep 20 01:41:22 PDT 2017 ON: 19.98 +20.0 19.64 - 3.7 33.8 05 14 4726 0904 Alarm State:  5
Wed Sep 20 01:40:21 PDT 2017 ON: 20.01 +20.0 19.70 - 5.2 32.9 0D 13 471A 092A Alarm State:  5
Wed Sep 20 01:39:19 PDT 2017 ON: 20.01 +20.0 19.61 - 2.6 33.9 02 14 481A 0913 Alarm State:  5
Wed Sep 20 01:38:18 PDT 2017 ON: 20.00 +20.0 19.67 - 4.6 33.3 07 14 471D 0922 Alarm State:  5
Wed Sep 20 01:37:16 PDT 2017 ON: 20.03 +20.0 19.70 - 5.7 32.1 0A 13 4704 0905 Alarm State:  5
Wed Sep 20 01:36:15 PDT 2017 ON: 19.99 +20.0 19.63 - 3.7 33.9 0A 14 4712 0913 Alarm State:  5
Wed Sep 20 01:35:13 PDT 2017 ON: 20.02 +20.0 19.69 - 4.9 32.9 0D 14 4711 0924 Alarm State:  5
Wed Sep 20 01:34:12 PDT 2017 ON: 19.99 +20.0 19.62 - 3.0 33.5 05 14 480E 0910 Alarm State:  5
Wed Sep 20 01:33:10 PDT 2017 ON: 19.99 +20.0 19.65 - 4.3 33.3 00 14 472A 0910 Alarm State:  5
Wed Sep 20 01:32:09 PDT 2017 ON: 20.04 +20.0 19.72 - 5.2 32.7 0A 12 4801 0920 Alarm State:  5
Wed Sep 20 01:31:07 PDT 2017 ON: 20.02 +20.0 19.61 - 3.8 33.3 02 14 471B 0909 Alarm State:  5
Wed Sep 20 01:30:06 PDT 2017 ON: 19.99 +20.0 19.66 - 4.4 33.3 07 14 4630 0914 Alarm State:  5
Wed Sep 20 01:29:04 PDT 2017 ON: 20.03 +20.0 19.69 - 5.3 32.3 05 14 4714 091B Alarm State:  5
Wed Sep 20 01:28:03 PDT 2017 ON: 19.98 +20.0 19.62 - 3.5 33.9 05 14 472E 092A Alarm State:  5
Wed Sep 20 01:27:01 PDT 2017 ON: 20.01 +20.0 19.70 - 5.2 32.8 0D 13 4723 0920 Alarm State:  5
Wed Sep 20 01:26:00 PDT 2017 ON: 19.99 +20.0 19.61 - 2.9 33.7 05 14 481C 0910 Alarm State:  5
Wed Sep 20 01:24:58 PDT 2017 ON: 19.99 +20.0 19.67 - 4.3 33.5 05 14 4813 0914 Alarm State:  5
Wed Sep 20 01:23:57 PDT 2017 ON: 20.03 +20.0 19.71 - 4.9 33.4 0D 13 4811 0928 Alarm State:  5
Wed Sep 20 01:22:55 PDT 2017 ON: 19.99 +20.0 19.65 - 4.0 33.7 00 14 471D 0913 Alarm State:  5
Wed Sep 20 01:21:54 PDT 2017 ON: 20.00 +20.0 19.66 - 4.6 33.3 07 14 470F 0918 Alarm State:  5
Wed Sep 20 01:20:52 PDT 2017 ON: 20.00 +20.0 19.69 - 5.0 32.9 0D 14 4722 0A04 Alarm State:  5
Wed Sep 20 01:19:51 PDT 2017 ON: 19.99 +20.0 19.61 - 3.0 33.6 00 14 481D 0924 Alarm State:  5
Wed Sep 20 01:18:49 PDT 2017 ON: 20.00 +20.0 19.65 - 3.7 33.6 00 14 4731 0907 Alarm State:  5
Wed Sep 20 01:17:48 PDT 2017 ON: 19.99 +20.0 19.67 - 4.5 33.0 02 14 471F 0A0E Alarm State:  5
Wed Sep 20 01:16:46 PDT 2017 ON: 20.03 +20.0 19.66 - 4.4 33.0 00 14 4813 0923 Alarm State:  5
Wed Sep 20 01:15:45 PDT 2017 ON: 19.98 +20.0 19.64 - 3.9 33.8 05 14 4809 091E Alarm State:  5
Wed Sep 20 01:14:43 PDT 2017 ON: 20.00 +20.0 19.71 - 5.0 33.3 0D 13 4727 0916 Alarm State:  5
Wed Sep 20 01:13:42 PDT 2017 ON: 20.01 +20.0 19.67 - 5.1 32.9 05 14 470D 0927 Alarm State:  5
Wed Sep 20 01:12:40 PDT 2017 ON: 20.00 +20.0 19.58 - 2.6 33.8 00 14 4811 0909 Alarm State:  5
Wed Sep 20 01:11:39 PDT 2017 ON: 20.00 +20.0 19.67 - 4.5 33.3 00 14 471A 091C Alarm State:  5
Wed Sep 20 01:10:37 PDT 2017 ON: 20.03 +20.0 19.73 - 5.8 32.3 0D 12 470D 0914 Alarm State:  5
Wed Sep 20 01:09:36 PDT 2017 ON: 19.98 +20.0 19.63 - 3.4 33.8 05 14 4715 092A Alarm State:  5
Wed Sep 20 01:08:34 PDT 2017 ON: 20.00 +20.0 19.68 - 4.7 32.9 00 14 4706 0A05 Alarm State:  5
Wed Sep 20 01:07:23 PDT 2017 ON: 20.02 +20.0 19.70 - 5.0 32.8 0D 13 471A 0912 Alarm State:  5
Wed Sep 20 01:06:21 PDT 2017 ON: 20.02 +20.0 19.64 - 3.1 33.6 02 14 4731 0900 Alarm State:  5
Wed Sep 20 01:05:20 PDT 2017 ON: 19.99 +20.0 19.66 - 3.9 33.7 0A 14 4713 090D Alarm State:  5
Wed Sep 20 01:04:18 PDT 2017 ON: 19.98 +20.0 19.67 - 4.9 33.0 00 14 4700 0A0F Alarm State:  5
Wed Sep 20 01:03:17 PDT 2017 ON: 20.01 +20.0 19.66 - 3.8 33.3 02 14 4805 0917 Alarm State:  5
Wed Sep 20 01:02:15 PDT 2017 ON: 20.01 +20.0 19.62 - 3.1 33.5 02 14 4822 0914 Alarm State:  5
Wed Sep 20 01:01:04 PDT 2017 ON: 20.01 +20.0 19.64 - 3.8 33.6 00 14 4813 091E Alarm State:  5
Wed Sep 20 01:00:03 PDT 2017 ON: 20.00 +20.0 19.62 - 3.3 33.7 07 14 480D 091F Alarm State:  5
Wed Sep 20 00:59:01 PDT 2017 ON: 19.99 +20.0 19.65 - 4.6 33.1 07 14 472F 0923 Alarm State:  5
Wed Sep 20 00:58:00 PDT 2017 ON: 20.01 +20.0 19.67 - 4.2 33.2 00 14 482C 090B Alarm State:  5
Wed Sep 20 00:56:58 PDT 2017 ON: 20.02 +20.0 19.68 - 4.8 33.0 0D 14 4811 0917 Alarm State:  5
Wed Sep 20 00:55:57 PDT 2017 ON: 20.02 +20.0 19.68 - 4.9 32.8 00 14 4724 0928 Alarm State:  5
Wed Sep 20 00:54:55 PDT 2017 ON: 20.02 +20.0 19.66 - 4.1 33.3 02 14 471F 0907 Alarm State:  5
Wed Sep 20 00:53:54 PDT 2017 ON: 19.99 +20.0 19.60 - 3.2 33.6 01 14 4721 0921 Alarm State:  5
Wed Sep 20 00:52:52 PDT 2017 ON: 20.00 +20.0 19.65 - 4.4 33.4 07 14 470C 0929 Alarm State:  5
Wed Sep 20 00:51:51 PDT 2017 ON: 20.04 +20.0 19.73 - 5.6 32.6 0D 12 470E 0918 Alarm State:  5
Wed Sep 20 00:50:49 PDT 2017 ON: 20.01 +20.0 19.59 - 3.2 33.8 07 14 4727 0924 Alarm State:  5
Wed Sep 20 00:49:48 PDT 2017 ON: 19.99 +20.0 19.64 - 4.6 33.1 05 14 4719 0929 Alarm State:  5
Wed Sep 20 00:48:46 PDT 2017 ON: 20.01 +20.0 19.67 - 4.2 33.1 00 14 4732 0928 Alarm State:  5
Wed Sep 20 00:47:45 PDT 2017 ON: 20.01 +20.0 19.66 - 4.1 33.7 02 14 4728 0927 Alarm State:  5
Wed Sep 20 00:46:43 PDT 2017 ON: 20.02 +20.0 19.70 - 4.9 33.2 0D 13 471D 0921 Alarm State:  5
Wed Sep 20 00:45:42 PDT 2017 ON: 20.02 +20.0 19.71 - 5.2 32.9 0D 13 4711 0901 Alarm State:  5
Wed Sep 20 00:44:40 PDT 2017 ON: 20.01 +20.0 19.63 - 4.1 33.1 00 14 4726 091A Alarm State:  5
Wed Sep 20 00:43:39 PDT 2017 ON: 19.99 +20.0 19.62 - 3.9 33.8 02 14 471E 0911 Alarm State:  5
Wed Sep 20 00:42:37 PDT 2017 ON: 20.00 +20.0 19.67 - 5.1 33.0 07 14 4715 0A07 Alarm State:  5
Wed Sep 20 00:41:36 PDT 2017 ON: 20.01 +20.0 19.63 - 3.5 33.5 00 14 4814 0923 Alarm State:  5
Wed Sep 20 00:40:34 PDT 2017 ON: 20.02 +20.0 19.68 - 5.3 32.4 00 14 4722 090E Alarm State:  5
Wed Sep 20 00:39:33 PDT 2017 ON: 20.00 +20.0 19.63 - 4.0 33.7 07 14 4726 0927 Alarm State:  5
Wed Sep 20 00:38:31 PDT 2017 ON: 20.02 +20.0 19.69 - 5.2 32.8 0A 14 471B 0915 Alarm State:  5
Wed Sep 20 00:37:30 PDT 2017 ON: 20.00 +20.0 19.68 - 4.6 33.1 00 14 472F 0902 Alarm State:  5
Wed Sep 20 00:36:28 PDT 2017 ON: 19.98 +20.0 19.64 - 3.7 33.9 0A 14 4815 0913 Alarm State:  5
Wed Sep 20 00:35:27 PDT 2017 ON: 20.03 +20.0 19.66 - 4.1 33.6 05 14 480B 0902 Alarm State:  5
Wed Sep 20 00:34:25 PDT 2017 ON: 20.00 +20.0 19.66 - 4.3 33.5 05 14 4727 090A Alarm State:  5
Wed Sep 20 00:33:24 PDT 2017 ON: 20.01 +20.0 19.69 - 5.1 32.8 08 14 4729 0928 Alarm State:  5
Wed Sep 20 00:32:22 PDT 2017 ON: 20.02 +20.0 19.68 - 4.9 32.6 00 14 470C 0A0F Alarm State:  5
Wed Sep 20 00:31:21 PDT 2017 ON: 19.99 +20.0 19.65 - 4.3 33.3 05 14 471C 0A15 Alarm State:  5
Wed Sep 20 00:30:19 PDT 2017 ON: 20.02 +20.0 19.71 - 5.2 32.9 0D 13 472D 0913 Alarm State:  5
Wed Sep 20 00:29:18 PDT 2017 ON: 20.00 +20.0 19.63 - 3.3 33.5 00 14 480C 0902 Alarm State:  5
Wed Sep 20 00:28:16 PDT 2017 ON: 19.98 +20.0 19.69 - 4.7 32.9 0A 14 472A 092B Alarm State:  5
Wed Sep 20 00:27:15 PDT 2017 ON: 20.03 +20.0 19.63 - 3.3 33.4 00 14 4900 0918 Alarm State:  5
Wed Sep 20 00:26:13 PDT 2017 ON: 20.01 +20.0 19.65 - 3.6 33.8 0A 14 4820 0922 Alarm State:  5
Wed Sep 20 00:25:12 PDT 2017 ON: 20.01 +20.0 19.67 - 4.6 33.5 05 14 4728 0903 Alarm State:  5
Wed Sep 20 00:24:10 PDT 2017 ON: 20.01 +20.0 19.67 - 4.5 33.5 0C 14 470E 090E Alarm State:  5
Wed Sep 20 00:23:09 PDT 2017 ON: 20.01 +20.0 19.70 - 5.6 32.7 0D 13 462C 0914 Alarm State:  5
Wed Sep 20 00:22:07 PDT 2017 ON: 20.00 +20.0 19.59 - 3.1 33.6 04 14 471F 0921 Alarm State:  5
Wed Sep 20 00:21:06 PDT 2017 ON: 19.99 +20.0 19.65 - 4.6 32.9 02 14 4708 0927 Alarm State:  5
Wed Sep 20 00:20:04 PDT 2017 ON: 20.04 +20.0 19.67 - 4.4 33.0 00 14 4726 0919 Alarm State:  5
Wed Sep 20 00:19:03 PDT 2017 ON: 20.01 +20.0 19.68 - 4.2 33.6 00 14 4709 091F Alarm State:  5
Wed Sep 20 00:18:01 PDT 2017 ON: 20.00 +20.0 19.70 - 5.1 33.0 0D 13 4626 0926 Alarm State:  5
Wed Sep 20 00:17:00 PDT 2017 ON: 20.01 +20.0 19.60 - 3.5 33.3 00 14 471E 090C Alarm State:  5
Wed Sep 20 00:15:58 PDT 2017 ON: 20.00 +20.0 19.65 - 4.5 33.4 05 14 462B 091B Alarm State:  5
Wed Sep 20 00:14:57 PDT 2017 ON: 20.04 +20.0 19.75 - 5.9 32.4 0D 11 462A 0909 Alarm State:  5
Wed Sep 20 00:13:55 PDT 2017 ON: 19.99 +20.0 19.60 - 3.2 33.7 07 14 470B 090F Alarm State:  5
Wed Sep 20 00:12:54 PDT 2017 ON: 20.00 +20.0 19.67 - 4.8 33.1 00 14 4629 0913 Alarm State:  5
Wed Sep 20 00:11:53 PDT 2017 ON: 20.01 +20.0 19.70 - 5.4 32.5 0D 13 470C 091F Alarm State:  5
Wed Sep 20 00:10:51 PDT 2017 ON: 19.99 +20.0 19.61 - 3.0 33.8 07 14 4806 090C Alarm State:  5
Wed Sep 20 00:09:50 PDT 2017 ON: 20.02 +20.0 19.63 - 3.5 33.6 00 14 4804 0911 Alarm State:  5
Wed Sep 20 00:08:48 PDT 2017 ON: 20.00 +20.0 19.67 - 4.6 33.2 07 14 4712 091D Alarm State:  5
Wed Sep 20 00:07:47 PDT 2017 ON: 20.01 +20.0 19.71 - 5.3 32.8 0D 13 4720 0923 Alarm State:  5
Wed Sep 20 00:06:45 PDT 2017 ON: 19.99 +20.0 19.59 - 3.0 33.7 04 14 4810 0924 Alarm State:  5
Wed Sep 20 00:05:44 PDT 2017 ON: 20.00 +20.0 19.64 - 4.6 33.3 07 14 4729 0A04 Alarm State:  5
Wed Sep 20 00:04:42 PDT 2017 ON: 20.02 +20.0 19.68 - 4.5 33.3 0D 14 480B 0916 Alarm State:  5
Wed Sep 20 00:03:41 PDT 2017 ON: 20.02 +20.0 19.71 - 5.2 32.9 0D 13 472A 0921 Alarm State:  5
Wed Sep 20 00:02:39 PDT 2017 ON: 20.02 +20.0 19.63 - 4.4 33.0 00 14 470D 0906 Alarm State:  5
Wed Sep 20 00:01:38 PDT 2017 ON: 19.99 +20.0 19.63 - 4.4 33.3 00 14 470B 0926 Alarm State:  5
Wed Sep 20 00:00:36 PDT 2017 ON: 20.03 +20.0 19.69 - 4.9 33.2 0A 14 4714 0902 Alarm State:  5
Tue Sep 19 23:59:35 PDT 2017 ON: 20.02 +20.0 19.68 - 4.8 32.8 00 14 470C 0A05 Alarm State:  5
Tue Sep 19 23:58:33 PDT 2017 ON: 19.97 +20.0 19.63 - 4.2 33.4 05 14 471B 0A06 Alarm State:  5
Tue Sep 19 23:57:32 PDT 2017 ON: 20.02 +20.0 19.70 - 5.4 32.6 0D 14 4731 0A07 Alarm State:  5
Tue Sep 19 23:56:30 PDT 2017 ON: 19.99 +20.0 19.63 - 3.2 33.9 0A 14 482F 0916 Alarm State:  5
Tue Sep 19 23:55:29 PDT 2017 ON: 20.00 +20.0 19.67 - 4.6 33.5 05 14 481F 0909 Alarm State:  5
Tue Sep 19 23:54:27 PDT 2017 ON: 20.00 +20.0 19.67 - 4.7 33.4 07 14 4723 091D Alarm State:  5
Tue Sep 19 23:53:26 PDT 2017 ON: 20.03 +20.0 19.70 - 5.8 32.6 0D 13 4701 0905 Alarm State:  5
Tue Sep 19 23:52:24 PDT 2017 ON: 20.01 +20.0 19.62 - 3.5 33.5 05 14 470E 0914 Alarm State:  5
Tue Sep 19 23:51:23 PDT 2017 ON: 19.99 +20.0 19.66 - 4.8 33.0 00 14 4627 091D Alarm State:  5
Tue Sep 19 23:50:21 PDT 2017 ON: 20.01 +20.0 19.65 - 3.7 33.2 00 14 4719 0918 Alarm State:  5
Tue Sep 19 23:49:20 PDT 2017 ON: 20.00 +20.0 19.66 - 4.5 33.6 05 14 4628 0927 Alarm State:  5
Tue Sep 19 23:48:18 PDT 2017 ON: 20.01 +20.0 19.70 - 5.5 32.7 0D 13 4615 0921 Alarm State:  5
Tue Sep 19 23:47:17 PDT 2017 ON: 20.00 +20.0 19.63 - 4.1 33.1 00 14 4712 090F Alarm State:  5
Tue Sep 19 23:46:15 PDT 2017 ON: 19.98 +20.0 19.60 - 3.7 33.9 07 14 4721 0922 Alarm State:  5
Tue Sep 19 23:45:14 PDT 2017 ON: 20.02 +20.0 19.67 - 4.7 33.6 05 14 4715 0915 Alarm State:  5
Tue Sep 19 23:44:12 PDT 2017 ON: 20.02 +20.0 19.70 - 5.1 33.0 0D 13 462F 0923 Alarm State:  5
Tue Sep 19 23:43:11 PDT 2017 ON: 20.02 +20.0 19.63 - 4.1 33.2 00 14 472F 0912 Alarm State:  5
Tue Sep 19 23:42:09 PDT 2017 ON: 19.98 +20.0 19.65 - 4.6 33.3 05 14 472B 092D Alarm State:  5
Tue Sep 19 23:41:08 PDT 2017 ON: 20.01 +20.0 19.71 - 5.3 32.9 0D 13 480B 0928 Alarm State:  5
Tue Sep 19 23:40:06 PDT 2017 ON: 20.02 +20.0 19.67 - 4.6 33.3 02 14 480D 0923 Alarm State:  5
Tue Sep 19 23:39:05 PDT 2017 ON: 20.02 +20.0 19.70 - 5.6 32.7 0D 13 4721 090A Alarm State:  5
Tue Sep 19 23:38:03 PDT 2017 ON: 20.00 +20.0 19.62 - 3.4 33.7 02 14 4723 0911 Alarm State:  5
Tue Sep 19 23:37:02 PDT 2017 ON: 19.99 +20.0 19.68 - 5.2 33.0 05 14 4702 0A1D Alarm State:  5
Tue Sep 19 23:36:00 PDT 2017 ON: 19.99 +20.0 19.64 - 3.6 33.5 02 14 4809 0921 Alarm State:  5
Tue Sep 19 23:34:59 PDT 2017 ON: 20.00 +20.0 19.64 - 4.1 33.7 0C 14 4800 0919 Alarm State:  5
Tue Sep 19 23:33:57 PDT 2017 ON: 20.01 +20.0 19.66 - 4.8 33.0 07 14 481E 0A08 Alarm State:  5
Tue Sep 19 23:32:56 PDT 2017 ON: 20.04 +20.0 19.69 - 5.2 32.6 05 14 4902 090C Alarm State:  5
Tue Sep 19 23:31:54 PDT 2017 ON: 20.00 +20.0 19.63 - 4.0 33.7 05 14 4827 0913 Alarm State:  5
Tue Sep 19 23:30:53 PDT 2017 ON: 20.01 +20.0 19.66 - 4.7 33.4 05 14 4731 091D Alarm State:  5
Tue Sep 19 23:29:51 PDT 2017 ON: 20.01 +20.0 19.65 - 4.4 33.6 00 14 470F 0903 Alarm State:  5
Tue Sep 19 23:28:50 PDT 2017 ON: 19.99 +20.0 19.67 - 5.0 32.9 00 14 4706 0A03 Alarm State:  5
Tue Sep 19 23:27:48 PDT 2017 ON: 20.01 +20.0 19.64 - 3.9 33.1 00 14 4803 0902 Alarm State:  5
Tue Sep 19 23:26:47 PDT 2017 ON: 19.99 +20.0 19.66 - 4.4 33.4 0C 14 472B 0A00 Alarm State:  5
Tue Sep 19 23:25:46 PDT 2017 ON: 20.01 +20.0 19.69 - 4.9 33.4 0D 14 4729 0917 Alarm State:  5
Tue Sep 19 23:24:44 PDT 2017 ON: 20.02 +20.0 19.69 - 5.7 32.6 05 14 462B 0902 Alarm State:  5
Tue Sep 19 23:23:43 PDT 2017 ON: 19.99 +20.0 19.61 - 3.3 33.5 00 14 4718 090E Alarm State:  5
Tue Sep 19 23:22:41 PDT 2017 ON: 19.97 +20.0 19.66 - 4.7 33.1 05 14 4632 0A0E Alarm State:  5
Tue Sep 19 23:21:40 PDT 2017 ON: 20.03 +20.0 19.67 - 4.6 32.8 00 14 4727 0903 Alarm State:  5
Tue Sep 19 23:20:38 PDT 2017 ON: 19.99 +20.0 19.64 - 3.8 33.8 02 14 4730 091A Alarm State:  5
Tue Sep 19 23:19:37 PDT 2017 ON: 20.00 +20.0 19.68 - 4.8 33.2 07 14 4726 090F Alarm State:  5
Tue Sep 19 23:18:35 PDT 2017 ON: 20.02 +20.0 19.67 - 5.0 32.8 00 14 4806 0912 Alarm State:  5
Tue Sep 19 23:17:34 PDT 2017 ON: 20.01 +20.0 19.63 - 3.7 33.5 07 14 480C 090D Alarm State:  5
Tue Sep 19 23:16:32 PDT 2017 ON: 19.98 +20.0 19.62 - 4.0 33.7 05 14 4821 092F Alarm State:  5
Tue Sep 19 23:15:31 PDT 2017 ON: 20.02 +20.0 19.68 - 4.8 33.6 0D 14 4815 0920 Alarm State:  5
Tue Sep 19 23:14:29 PDT 2017 ON: 20.00 +20.0 19.65 - 3.9 33.7 00 14 471D 090B Alarm State:  5
Tue Sep 19 23:13:28 PDT 2017 ON: 20.01 +20.0 19.64 - 4.3 33.7 0A 14 4628 0920 Alarm State:  5
Tue Sep 19 23:12:26 PDT 2017 ON: 19.99 +20.0 19.66 - 4.8 33.1 00 14 4613 0A24 Alarm State:  5
Tue Sep 19 23:11:25 PDT 2017 ON: 20.03 +20.0 19.68 - 4.7 32.9 00 14 470A 0A0E Alarm State:  5
Tue Sep 19 23:10:23 PDT 2017 ON: 19.99 +20.0 19.64 - 4.4 33.1 02 14 4725 0A09 Alarm State:  5
Tue Sep 19 23:09:22 PDT 2017 ON: 20.02 +20.0 19.68 - 3.8 33.4 08 14 481C 0919 Alarm State:  5
Tue Sep 19 23:08:20 PDT 2017 ON: 20.01 +20.0 19.67 - 5.1 33.0 00 14 4716 0904 Alarm State:  5
Tue Sep 19 23:07:19 PDT 2017 ON: 20.04 +20.0 19.69 - 5.6 32.4 00 14 4627 0917 Alarm State:  5
Tue Sep 19 23:06:17 PDT 2017 ON: 20.00 +20.0 19.63 - 3.4 33.7 07 14 4711 0923 Alarm State:  5
Tue Sep 19 23:05:16 PDT 2017 ON: 19.98 +20.0 19.65 - 4.5 33.1 00 14 4719 0A16 Alarm State:  5
Tue Sep 19 23:04:14 PDT 2017 ON: 20.02 +20.0 19.65 - 3.8 33.3 00 14 480D 090C Alarm State:  5
Tue Sep 19 23:03:13 PDT 2017 ON: 19.99 +20.0 19.65 - 4.1 33.5 05 14 4725 091A Alarm State:  5
Tue Sep 19 23:02:11 PDT 2017 ON: 20.00 +20.0 19.61 - 3.5 33.5 02 14 471F 0919 Alarm State:  5
Tue Sep 19 23:01:10 PDT 2017 ON: 19.99 +20.0 19.65 - 5.2 32.7 05 14 4700 0A25 Alarm State:  5
Tue Sep 19 23:00:08 PDT 2017 ON: 20.01 +20.0 19.62 - 3.3 33.4 02 14 4807 0923 Alarm State:  5
Tue Sep 19 22:59:07 PDT 2017 ON: 20.01 +20.0 19.63 - 3.9 33.3 00 14 4727 0900 Alarm State:  5
Tue Sep 19 22:58:05 PDT 2017 ON: 19.99 +20.0 19.66 - 4.8 32.8 00 14 471B 0928 Alarm State:  5
Tue Sep 19 22:57:04 PDT 2017 ON: 20.03 +20.0 19.70 - 4.7 33.0 00 13 4805 091B Alarm State:  5
Tue Sep 19 22:56:02 PDT 2017 ON: 20.01 +20.0 19.68 - 5.1 32.7 02 14 4706 0905 Alarm State:  5
Tue Sep 19 22:55:01 PDT 2017 ON: 20.01 +20.0 19.66 - 4.6 33.0 02 14 4721 0912 Alarm State:  5
Tue Sep 19 22:53:59 PDT 2017 ON: 20.00 +20.0 19.60 - 3.5 33.7 07 14 471D 0911 Alarm State:  5
Tue Sep 19 22:52:58 PDT 2017 ON: 20.01 +20.0 19.68 - 5.2 32.9 00 14 4625 0921 Alarm State:  5
Tue Sep 19 22:51:56 PDT 2017 ON: 20.02 +20.0 19.68 - 5.3 32.6 00 14 470C 090E Alarm State:  5
Tue Sep 19 22:50:55 PDT 2017 ON: 19.98 +20.0 19.63 - 3.9 33.9 02 14 4719 0921 Alarm State:  5
Tue Sep 19 22:49:53 PDT 2017 ON: 20.01 +20.0 19.68 - 5.0 33.4 05 14 470F 0920 Alarm State:  5
Tue Sep 19 22:48:52 PDT 2017 ON: 20.02 +20.0 19.72 - 5.9 32.7 0D 12 4702 091E Alarm State:  5
Tue Sep 19 22:47:50 PDT 2017 ON: 19.98 +20.0 19.58 - 3.1 33.8 04 14 4732 0906 Alarm State:  5
Tue Sep 19 22:46:49 PDT 2017 ON: 20.00 +20.0 19.67 - 4.9 33.0 00 14 471B 092D Alarm State:  5
Tue Sep 19 22:45:47 PDT 2017 ON: 20.01 +20.0 19.70 - 5.2 32.8 0A 13 4731 0904 Alarm State:  5
Tue Sep 19 22:44:46 PDT 2017 ON: 20.00 +20.0 19.69 - 4.9 33.3 0A 14 4718 090E Alarm State:  5
Tue Sep 19 22:43:44 PDT 2017 ON: 20.02 +20.0 19.71 - 5.6 32.8 0D 13 4702 090F Alarm State:  5
Tue Sep 19 22:42:43 PDT 2017 ON: 20.00 +20.0 19.59 - 3.1 33.7 04 14 471D 0910 Alarm State:  5
Tue Sep 19 22:41:41 PDT 2017 ON: 20.00 +20.0 19.67 - 4.9 33.2 02 14 4630 091F Alarm State:  5
Tue Sep 19 22:40:40 PDT 2017 ON: 20.02 +20.0 19.72 - 6.0 32.2 08 12 4704 090B Alarm State:  5
Tue Sep 19 22:39:38 PDT 2017 ON: 19.98 +20.0 19.64 - 4.0 33.8 0A 14 4718 0915 Alarm State:  5
Tue Sep 19 22:38:37 PDT 2017 ON: 20.00 +20.0 19.66 - 5.2 32.8 07 14 4719 092A Alarm State:  5
Tue Sep 19 22:37:35 PDT 2017 ON: 20.02 +20.0 19.62 - 3.1 33.5 00 14 481A 0908 Alarm State:  5
Tue Sep 19 22:36:34 PDT 2017 ON: 20.03 +20.0 19.65 - 4.0 33.5 0A 14 4720 091A Alarm State:  5
Tue Sep 19 22:35:32 PDT 2017 ON: 19.99 +20.0 19.67 - 5.2 32.8 02 14 4625 0906 Alarm State:  5
Tue Sep 19 22:34:31 PDT 2017 ON: 20.02 +20.0 19.68 - 5.3 32.4 00 14 4701 091B Alarm State:  5
Tue Sep 19 22:33:29 PDT 2017 ON: 19.99 +20.0 19.65 - 4.4 33.2 07 14 4632 0A06 Alarm State:  5
Tue Sep 19 22:32:28 PDT 2017 ON: 20.04 +20.0 19.71 - 5.7 32.4 0A 13 470C 090E Alarm State:  5
Tue Sep 19 22:31:26 PDT 2017 ON: 20.01 +20.0 19.62 - 4.0 33.1 00 14 4706 0913 Alarm State:  5
Tue Sep 19 22:30:25 PDT 2017 ON: 19.99 +20.0 19.66 - 4.5 33.3 00 14 462C 090D Alarm State:  5
Tue Sep 19 22:29:23 PDT 2017 ON: 20.02 +20.0 19.72 - 5.9 32.4 0D 12 4703 091F Alarm State:  5
Tue Sep 19 22:28:22 PDT 2017 ON: 19.99 +20.0 19.61 - 3.5 33.7 05 14 4724 0923 Alarm State:  5
Tue Sep 19 22:27:20 PDT 2017 ON: 20.00 +20.0 19.67 - 5.0 32.9 07 14 4710 0A24 Alarm State:  5
Tue Sep 19 22:26:19 PDT 2017 ON: 20.01 +20.0 19.59 - 2.9 33.6 01 14 481A 0925 Alarm State:  5
Tue Sep 19 22:25:17 PDT 2017 ON: 20.00 +20.0 19.68 - 4.6 33.5 07 14 4717 0911 Alarm State:  5
Tue Sep 19 22:24:16 PDT 2017 ON: 20.02 +20.0 19.71 - 6.0 32.4 0D 13 4627 0923 Alarm State:  5
Tue Sep 19 22:23:14 PDT 2017 ON: 19.98 +20.0 19.61 - 3.6 33.9 02 14 471C 0911 Alarm State:  5
Tue Sep 19 22:22:13 PDT 2017 ON: 20.01 +20.0 19.68 - 5.0 33.4 07 14 4707 0907 Alarm State:  5
Tue Sep 19 22:21:11 PDT 2017 ON: 20.04 +20.0 19.75 - 6.2 32.3 0D 11 461E 0916 Alarm State:  5
Tue Sep 19 22:20:10 PDT 2017 ON: 19.99 +20.0 19.62 - 3.7 33.9 0A 14 4706 091A Alarm State:  5
Tue Sep 19 22:19:08 PDT 2017 ON: 19.98 +20.0 19.68 - 5.4 32.7 00 14 4708 0A07 Alarm State:  5
Tue Sep 19 22:18:07 PDT 2017 ON: 19.98 +20.0 19.59 - 3.1 33.7 00 14 4812 0906 Alarm State:  5
Tue Sep 19 22:17:05 PDT 2017 ON: 19.99 +20.0 19.64 - 4.2 33.7 05 14 4820 091A Alarm State:  5
Tue Sep 19 22:16:04 PDT 2017 ON: 20.01 +20.0 19.69 - 4.7 33.4 0A 14 4825 0906 Alarm State:  5
Tue Sep 19 22:14:53 PDT 2017 ON: 20.01 +20.0 19.69 - 5.7 32.7 0A 14 472A 0925 Alarm State:  5
Tue Sep 19 22:13:51 PDT 2017 ON: 20.00 +20.0 19.61 - 3.5 33.6 02 14 4802 091B Alarm State:  5
Tue Sep 19 22:12:49 PDT 2017 ON: 20.01 +20.0 19.65 - 4.3 33.4 02 14 471B 0903 Alarm State:  5
Tue Sep 19 22:11:48 PDT 2017 ON: 19.99 +20.0 19.63 - 3.6 33.8 0A 14 471E 0903 Alarm State:  5
Tue Sep 19 22:10:46 PDT 2017 ON: 20.00 +20.0 19.69 - 5.4 33.0 05 14 4627 0912 Alarm State:  5
Tue Sep 19 22:09:45 PDT 2017 ON: 20.01 +20.0 19.64 - 4.3 33.1 00 14 4715 0917 Alarm State:  5
Tue Sep 19 22:08:43 PDT 2017 ON: 19.98 +20.0 19.64 - 4.6 33.0 07 14 471B 092E Alarm State:  5
Tue Sep 19 22:07:42 PDT 2017 ON: 20.02 +20.0 19.70 - 5.3 32.6 0A 13 4809 0917 Alarm State:  5
Tue Sep 19 22:06:40 PDT 2017 ON: 20.01 +20.0 19.61 - 3.8 33.3 02 14 4811 090A Alarm State:  5
Tue Sep 19 22:05:39 PDT 2017 ON: 20.01 +20.0 19.62 - 3.3 33.6 02 14 4818 0902 Alarm State:  5
Tue Sep 19 22:04:37 PDT 2017 ON: 20.01 +20.0 19.65 - 4.5 33.4 07 14 471B 0913 Alarm State:  5
Tue Sep 19 22:03:36 PDT 2017 ON: 19.99 +20.0 19.71 - 5.5 32.6 0D 13 462D 0A1F Alarm State:  5
Tue Sep 19 22:02:34 PDT 2017 ON: 19.99 +20.0 19.58 - 2.7 33.7 00 14 4805 0915 Alarm State:  5
Tue Sep 19 22:01:33 PDT 2017 ON: 20.02 +20.0 19.67 - 4.9 32.8 00 14 4715 091D Alarm State:  5
Tue Sep 19 22:00:32 PDT 2017 ON: 20.00 +20.0 19.62 - 3.5 33.5 00 14 480A 0928 Alarm State:  5
Tue Sep 19 21:59:30 PDT 2017 ON: 20.00 +20.0 19.63 - 4.0 33.7 02 14 4728 0907 Alarm State:  5
Tue Sep 19 21:58:29 PDT 2017 ON: 20.00 +20.0 19.68 - 4.9 33.1 00 14 470C 0918 Alarm State:  5
Tue Sep 19 21:57:27 PDT 2017 ON: 20.02 +20.0 19.67 - 4.9 32.7 00 14 4717 0A0E Alarm State:  5
Tue Sep 19 21:56:26 PDT 2017 ON: 19.98 +20.0 19.63 - 4.5 33.2 07 14 4721 0A10 Alarm State:  5
Tue Sep 19 21:55:24 PDT 2017 ON: 20.02 +20.0 19.69 - 5.4 32.5 08 14 4807 090C Alarm State:  5
Tue Sep 19 21:54:23 PDT 2017 ON: 19.98 +20.0 19.62 - 3.1 33.9 02 14 482B 090E Alarm State:  5
Tue Sep 19 21:53:21 PDT 2017 ON: 20.00 +20.0 19.65 - 4.1 33.6 02 14 4804 091A Alarm State:  5
Tue Sep 19 21:52:10 PDT 2017 ON: 19.99 +20.0 19.65 - 4.0 33.6 07 14 470E 0909 Alarm State:  5
Tue Sep 19 21:51:08 PDT 2017 ON: 19.99 +20.0 19.66 - 4.7 33.3 0C 14 4714 092D Alarm State:  5
Tue Sep 19 21:50:07 PDT 2017 ON: 20.03 +20.0 19.66 - 4.7 33.0 00 14 4804 0916 Alarm State:  5
Tue Sep 19 21:49:05 PDT 2017 ON: 20.02 +20.0 19.63 - 3.8 33.4 00 14 471F 0921 Alarm State:  5
Tue Sep 19 21:48:04 PDT 2017 ON: 19.99 +20.0 19.67 - 5.0 33.0 00 14 462D 092F Alarm State:  5
Tue Sep 19 21:47:02 PDT 2017 ON: 20.03 +20.0 19.69 - 5.2 32.6 08 14 4712 0908 Alarm State:  5
Tue Sep 19 21:46:01 PDT 2017 ON: 19.99 +20.0 19.65 - 4.3 33.7 05 14 4707 090C Alarm State:  5
Tue Sep 19 21:44:59 PDT 2017 ON: 20.01 +20.0 19.71 - 5.7 32.7 0D 13 461E 0A0B Alarm State:  5
Tue Sep 19 21:43:58 PDT 2017 ON: 19.99 +20.0 19.60 - 3.2 33.6 00 14 4712 0A06 Alarm State:  5
Tue Sep 19 21:42:56 PDT 2017 ON: 20.00 +20.0 19.66 - 5.4 32.7 07 14 4704 0B03 Alarm State:  5
Tue Sep 19 21:41:55 PDT 2017 ON: 19.98 +20.0 19.60 - 3.0 33.9 0A 14 480E 092E Alarm State:  5
Tue Sep 19 21:40:53 PDT 2017 ON: 20.00 +20.0 19.66 - 4.5 33.3 02 14 4802 0927 Alarm State:  5
Tue Sep 19 21:39:52 PDT 2017 ON: 20.03 +20.0 19.61 - 3.8 33.3 02 14 4807 0906 Alarm State:  5
Tue Sep 19 21:38:50 PDT 2017 ON: 19.98 +20.0 19.66 - 4.4 33.6 05 14 4728 0907 Alarm State:  5
Tue Sep 19 21:37:49 PDT 2017 ON: 20.00 +20.0 19.70 - 5.5 32.8 0D 13 471D 092E Alarm State:  5
Tue Sep 19 21:36:47 PDT 2017 ON: 20.00 +20.0 19.60 - 2.9 33.7 00 14 4824 090A Alarm State:  5
Tue Sep 19 21:35:46 PDT 2017 ON: 19.99 +20.0 19.63 - 4.1 33.6 07 14 4813 0908 Alarm State:  5
Tue Sep 19 21:34:44 PDT 2017 ON: 20.01 +20.0 19.64 - 3.5 33.6 00 14 481F 090B Alarm State:  5
Tue Sep 19 21:33:43 PDT 2017 ON: 20.02 +20.0 19.64 - 3.8 33.5 00 14 4725 091D Alarm State:  5
Tue Sep 19 21:32:41 PDT 2017 ON: 20.00 +20.0 19.65 - 4.5 33.6 02 14 462A 0907 Alarm State:  5
Tue Sep 19 21:31:40 PDT 2017 ON: 20.00 +20.0 19.67 - 5.3 32.9 05 14 460F 0A11 Alarm State:  5
Tue Sep 19 21:30:38 PDT 2017 ON: 20.00 +20.0 19.67 - 4.7 32.8 00 14 470C 0A02 Alarm State:  5
Tue Sep 19 21:29:37 PDT 2017 ON: 19.97 +20.0 19.63 - 4.4 33.1 00 14 4721 092F Alarm State:  5
Tue Sep 19 21:28:35 PDT 2017 ON: 20.03 +20.0 19.70 - 5.2 32.8 0D 13 4808 091D Alarm State:  5
Tue Sep 19 21:27:34 PDT 2017 ON: 20.02 +20.0 19.61 - 3.4 33.4 00 14 4813 0919 Alarm State:  5
Tue Sep 19 21:26:32 PDT 2017 ON: 19.99 +20.0 19.66 - 4.9 33.1 00 14 4720 0928 Alarm State:  5
Tue Sep 19 21:25:31 PDT 2017 ON: 20.02 +20.0 19.72 - 5.6 32.8 0D 12 4723 091A Alarm State:  5
Tue Sep 19 21:24:29 PDT 2017 ON: 20.02 +20.0 19.61 - 3.5 33.4 00 14 4731 0911 Alarm State:  5
Tue Sep 19 21:23:28 PDT 2017 ON: 20.00 +20.0 19.67 - 4.8 33.2 05 14 4712 0A15 Alarm State:  5
Tue Sep 19 21:22:26 PDT 2017 ON: 20.03 +20.0 19.65 - 4.5 32.9 00 14 4807 090A Alarm State:  5
Tue Sep 19 21:21:25 PDT 2017 ON: 19.98 +20.0 19.65 - 4.4 33.5 00 14 4808 0929 Alarm State:  5
Tue Sep 19 21:20:23 PDT 2017 ON: 20.01 +20.0 19.68 - 5.0 33.3 0D 14 480C 0910 Alarm State:  5
Tue Sep 19 21:19:22 PDT 2017 ON: 20.03 +20.0 19.71 - 5.6 32.7 0D 13 4716 0922 Alarm State:  5
Tue Sep 19 21:18:20 PDT 2017 ON: 20.00 +20.0 19.61 - 3.3 33.5 00 14 4730 0903 Alarm State:  5
Tue Sep 19 21:17:19 PDT 2017 ON: 20.00 +20.0 19.64 - 4.2 33.7 02 14 471B 090F Alarm State:  5
Tue Sep 19 21:16:17 PDT 2017 ON: 20.01 +20.0 19.70 - 5.2 33.1 0D 13 4703 0912 Alarm State:  5
Tue Sep 19 21:15:16 PDT 2017 ON: 20.02 +20.0 19.71 - 5.8 32.2 05 13 462B 0A0E Alarm State:  5
Tue Sep 19 21:14:14 PDT 2017 ON: 19.97 +20.0 19.63 - 4.2 33.2 07 14 471C 092C Alarm State:  5
Tue Sep 19 21:13:13 PDT 2017 ON: 20.03 +20.0 19.68 - 4.5 33.1 08 14 4808 0917 Alarm State:  5
Tue Sep 19 21:12:11 PDT 2017 ON: 20.01 +20.0 19.66 - 4.4 33.2 00 14 4717 0901 Alarm State:  5
Tue Sep 19 21:11:10 PDT 2017 ON: 19.98 +20.0 19.65 - 4.6 33.2 00 14 4710 0931 Alarm State:  5
Tue Sep 19 21:10:08 PDT 2017 ON: 20.01 +20.0 19.68 - 5.1 32.9 00 14 472E 0927 Alarm State:  5
Tue Sep 19 21:09:07 PDT 2017 ON: 20.03 +20.0 19.66 - 4.8 33.0 00 14 4802 0923 Alarm State:  5
Tue Sep 19 21:08:05 PDT 2017 ON: 20.02 +20.0 19.69 - 4.9 33.3 08 14 4721 0909 Alarm State:  5
Tue Sep 19 21:07:04 PDT 2017 ON: 20.02 +20.0 19.65 - 4.1 33.3 02 14 4728 090F Alarm State:  5
Tue Sep 19 21:06:02 PDT 2017 ON: 19.98 +20.0 19.64 - 4.7 33.3 05 14 472A 0930 Alarm State:  5
Tue Sep 19 21:05:01 PDT 2017 ON: 20.02 +20.0 19.69 - 5.3 32.6 0D 14 472F 0912 Alarm State:  5
Tue Sep 19 21:03:59 PDT 2017 ON: 20.00 +20.0 19.61 - 4.0 33.8 0A 14 480E 0920 Alarm State:  5
Tue Sep 19 21:02:58 PDT 2017 ON: 20.02 +20.0 19.67 - 4.8 33.5 02 14 4730 091C Alarm State:  5
Tue Sep 19 21:01:56 PDT 2017 ON: 19.99 +20.0 19.66 - 4.8 33.5 02 14 470E 0906 Alarm State:  5
Tue Sep 19 21:00:55 PDT 2017 ON: 19.99 +20.0 19.68 - 5.1 33.0 05 14 4709 092B Alarm State:  5
Tue Sep 19 20:59:53 PDT 2017 ON: 20.02 +20.0 19.66 - 4.6 32.8 00 14 4804 091D Alarm State:  5
Tue Sep 19 20:58:52 PDT 2017 ON: 19.97 +20.0 19.64 - 4.2 33.6 05 14 4811 0931 Alarm State:  5
Tue Sep 19 20:57:50 PDT 2017 ON: 20.02 +20.0 19.68 - 4.6 33.4 0D 14 480F 0918 Alarm State:  5
Tue Sep 19 20:56:49 PDT 2017 ON: 20.01 +20.0 19.67 - 4.5 33.2 07 14 472D 0920 Alarm State:  5
Tue Sep 19 20:55:47 PDT 2017 ON: 20.03 +20.0 19.71 - 5.2 32.9 0A 13 472D 0911 Alarm State:  5
Tue Sep 19 20:54:46 PDT 2017 ON: 20.02 +20.0 19.72 - 6.3 31.9 08 12 4625 0925 Alarm State:  5
Tue Sep 19 20:53:44 PDT 2017 ON: 19.97 +20.0 19.62 - 3.8 33.8 07 14 470E 092A Alarm State:  5
Tue Sep 19 20:52:43 PDT 2017 ON: 19.98 +20.0 19.70 - 5.3 32.9 0D 14 470F 0A1C Alarm State:  5
Tue Sep 19 20:51:41 PDT 2017 ON: 19.99 +20.0 19.58 - 2.6 33.8 01 14 481A 0916 Alarm State:  5
Tue Sep 19 20:50:40 PDT 2017 ON: 20.00 +20.0 19.68 - 4.9 33.4 00 14 4728 091E Alarm State:  5
Tue Sep 19 20:49:38 PDT 2017 ON: 20.03 +20.0 19.72 - 6.1 32.4 0D 12 4712 0906 Alarm State:  5
Tue Sep 19 20:48:37 PDT 2017 ON: 19.99 +20.0 19.60 - 3.2 33.8 00 14 4804 090B Alarm State:  5
Tue Sep 19 20:47:35 PDT 2017 ON: 19.99 +20.0 19.67 - 5.0 32.9 07 14 4725 0A0C Alarm State:  5
Tue Sep 19 20:46:34 PDT 2017 ON: 20.01 +20.0 19.64 - 3.9 33.3 00 14 4821 0904 Alarm State:  5
Tue Sep 19 20:45:32 PDT 2017 ON: 20.01 +20.0 19.63 - 3.7 33.8 05 14 481B 0901 Alarm State:  5
Tue Sep 19 20:44:31 PDT 2017 ON: 20.01 +20.0 19.66 - 4.4 33.6 05 14 472D 090B Alarm State:  5
Tue Sep 19 20:43:29 PDT 2017 ON: 19.99 +20.0 19.66 - 5.0 33.0 05 14 4711 0916 Alarm State:  5
Tue Sep 19 20:42:28 PDT 2017 ON: 20.02 +20.0 19.69 - 5.2 32.5 0D 14 4720 0923 Alarm State:  5
Tue Sep 19 20:41:26 PDT 2017 ON: 19.99 +20.0 19.60 - 3.9 33.8 09 14 471E 091A Alarm State:  5
Tue Sep 19 20:40:25 PDT 2017 ON: 20.00 +20.0 19.67 - 5.1 32.9 00 14 4709 091A Alarm State:  5
Tue Sep 19 20:39:23 PDT 2017 ON: 20.04 +20.0 19.68 - 4.6 32.9 00 14 4721 0905 Alarm State:  5
Tue Sep 19 20:38:22 PDT 2017 ON: 20.01 +20.0 19.65 - 4.3 33.5 00 14 472A 091A Alarm State:  5
Tue Sep 19 20:37:20 PDT 2017 ON: 20.02 +20.0 19.71 - 5.8 32.5 0A 13 4724 0928 Alarm State:  5
Tue Sep 19 20:36:19 PDT 2017 ON: 20.00 +20.0 19.63 - 4.1 33.2 00 14 4717 090B Alarm State:  5
Tue Sep 19 20:35:17 PDT 2017 ON: 20.00 +20.0 19.65 - 4.7 33.4 07 14 4632 090C Alarm State:  5
Tue Sep 19 20:34:16 PDT 2017 ON: 20.01 +20.0 19.71 - 5.3 32.9 0D 13 470C 0921 Alarm State:  5
Tue Sep 19 20:33:14 PDT 2017 ON: 20.02 +20.0 19.65 - 4.0 33.2 00 14 4720 0904 Alarm State:  5
Tue Sep 19 20:32:13 PDT 2017 ON: 19.98 +20.0 19.64 - 4.7 33.1 00 14 4719 0930 Alarm State:  5
Tue Sep 19 20:31:11 PDT 2017 ON: 20.02 +20.0 19.70 - 5.1 32.8 08 13 472F 0905 Alarm State:  5
Tue Sep 19 20:30:10 PDT 2017 ON: 20.00 +20.0 19.60 - 3.2 33.7 02 14 4817 0918 Alarm State:  5
Tue Sep 19 20:29:08 PDT 2017 ON: 20.02 +20.0 19.64 - 4.4 33.6 05 14 472A 0927 Alarm State:  5
Tue Sep 19 20:28:07 PDT 2017 ON: 20.00 +20.0 19.66 - 5.1 32.9 05 14 4713 092F Alarm State:  5
Tue Sep 19 20:27:05 PDT 2017 ON: 20.01 +20.0 19.63 - 3.8 33.3 00 14 4818 0911 Alarm State:  5
Tue Sep 19 20:26:04 PDT 2017 ON: 19.99 +20.0 19.62 - 3.6 33.6 02 14 4807 091B Alarm State:  5
Tue Sep 19 20:25:02 PDT 2017 ON: 19.99 +20.0 19.66 - 4.7 33.3 07 14 4728 0924 Alarm State:  5
Tue Sep 19 20:23:51 PDT 2017 ON: 20.02 +20.0 19.71 - 5.4 32.8 0D 13 4731 0908 Alarm State:  5
Tue Sep 19 20:22:49 PDT 2017 ON: 20.02 +20.0 19.63 - 3.9 33.4 02 14 4811 0908 Alarm State:  5
Tue Sep 19 20:21:48 PDT 2017 ON: 20.00 +20.0 19.64 - 4.9 33.4 05 14 471E 0915 Alarm State:  5
Tue Sep 19 20:20:46 PDT 2017 ON: 20.01 +20.0 19.70 - 5.2 32.9 0D 13 4729 0922 Alarm State:  5
Tue Sep 19 20:19:45 PDT 2017 ON: 20.00 +20.0 19.59 - 2.9 33.7 00 14 482C 090E Alarm State:  5
Tue Sep 19 20:18:43 PDT 2017 ON: 20.02 +20.0 19.66 - 4.0 33.4 02 14 4802 0923 Alarm State:  5
Tue Sep 19 20:17:42 PDT 2017 ON: 20.00 +20.0 19.66 - 4.9 33.0 07 14 471A 0A00 Alarm State:  5
Tue Sep 19 20:16:40 PDT 2017 ON: 20.02 +20.0 19.66 - 4.3 33.0 00 14 480D 0928 Alarm State:  5
Tue Sep 19 20:15:39 PDT 2017 ON: 19.99 +20.0 19.64 - 4.4 33.5 00 14 480A 0920 Alarm State:  5
Tue Sep 19 20:14:37 PDT 2017 ON: 20.01 +20.0 19.68 - 5.2 33.0 00 14 4731 0917 Alarm State:  5
Tue Sep 19 20:13:36 PDT 2017 ON: 20.03 +20.0 19.68 - 5.2 32.9 00 14 4716 0927 Alarm State:  5
Tue Sep 19 20:12:34 PDT 2017 ON: 20.03 +20.0 19.69 - 5.6 32.2 00 14 462B 090F Alarm State:  5
Tue Sep 19 20:11:33 PDT 2017 ON: 19.99 +20.0 19.66 - 4.4 33.4 07 14 4701 0A01 Alarm State:  5
Tue Sep 19 20:10:31 PDT 2017 ON: 20.03 +20.0 19.72 - 5.9 32.3 0D 12 470B 0918 Alarm State:  5
Tue Sep 19 20:09:30 PDT 2017 ON: 20.01 +20.0 19.65 - 3.9 33.6 02 14 4700 091E Alarm State:  5
Tue Sep 19 20:08:28 PDT 2017 ON: 20.00 +20.0 19.69 - 5.2 32.9 05 14 461E 0A24 Alarm State:  5
Tue Sep 19 20:07:27 PDT 2017 ON: 20.00 +20.0 19.62 - 3.6 33.4 00 14 4727 0928 Alarm State:  5
Tue Sep 19 20:06:25 PDT 2017 ON: 20.00 +20.0 19.64 - 4.1 33.4 00 14 4726 0924 Alarm State:  5
Tue Sep 19 20:05:24 PDT 2017 ON: 20.03 +20.0 19.65 - 4.5 32.9 00 14 4720 0906 Alarm State:  5
Tue Sep 19 20:04:22 PDT 2017 ON: 20.00 +20.0 19.66 - 4.6 33.4 07 14 4632 0916 Alarm State:  5
Tue Sep 19 20:03:21 PDT 2017 ON: 20.04 +20.0 19.71 - 5.9 32.2 05 13 4703 0A05 Alarm State:  5
Tue Sep 19 20:02:20 PDT 2017 ON: 19.98 +20.0 19.63 - 4.2 33.8 02 14 470C 0A0A Alarm State:  5
Tue Sep 19 20:01:18 PDT 2017 ON: 20.00 +20.0 19.68 - 5.1 33.1 05 14 4712 0921 Alarm State:  5
Tue Sep 19 20:00:16 PDT 2017 ON: 20.02 +20.0 19.63 - 3.9 33.3 00 14 4804 091E Alarm State:  5
Tue Sep 19 19:59:15 PDT 2017 ON: 20.01 +20.0 19.68 - 4.7 33.4 00 14 4719 0906 Alarm State:  5
Tue Sep 19 19:58:13 PDT 2017 ON: 20.03 +20.0 19.71 - 5.7 32.8 0A 13 470E 0927 Alarm State:  5
Tue Sep 19 19:57:12 PDT 2017 ON: 20.00 +20.0 19.63 - 3.4 33.6 05 14 471A 0922 Alarm State:  5
Tue Sep 19 19:56:10 PDT 2017 ON: 19.99 +20.0 19.67 - 4.8 33.0 00 14 4701 0A05 Alarm State:  5
Tue Sep 19 19:55:09 PDT 2017 ON: 20.04 +20.0 19.68 - 5.0 32.6 00 14 4717 0912 Alarm State:  5
Tue Sep 19 19:54:07 PDT 2017 ON: 19.98 +20.0 19.62 - 3.9 33.8 0A 14 4716 0A02 Alarm State:  5
Tue Sep 19 19:53:06 PDT 2017 ON: 20.01 +20.0 19.68 - 5.2 33.1 07 14 4708 0900 Alarm State:  5
Tue Sep 19 19:52:04 PDT 2017 ON: 20.01 +20.0 19.70 - 5.9 32.5 0A 13 462A 0906 Alarm State:  5
Tue Sep 19 19:51:03 PDT 2017 ON: 20.01 +20.0 19.61 - 3.6 33.6 05 14 4723 0904 Alarm State:  5
Tue Sep 19 19:50:01 PDT 2017 ON: 20.00 +20.0 19.64 - 4.6 33.2 02 14 4720 091F Alarm State:  5
Tue Sep 19 19:49:00 PDT 2017 ON: 20.01 +20.0 19.70 - 5.6 32.4 08 13 4732 091D Alarm State:  5
Tue Sep 19 19:47:58 PDT 2017 ON: 19.98 +20.0 19.61 - 3.3 33.8 00 14 4818 0920 Alarm State:  5
Tue Sep 19 19:46:57 PDT 2017 ON: 20.03 +20.0 19.65 - 4.2 33.4 00 14 4723 0906 Alarm State:  5
Tue Sep 19 19:45:55 PDT 2017 ON: 20.01 +20.0 19.64 - 4.1 33.7 02 14 4708 0914 Alarm State:  5
Tue Sep 19 19:44:54 PDT 2017 ON: 19.99 +20.0 19.68 - 5.4 32.9 05 14 4623 091B Alarm State:  5
Tue Sep 19 19:43:52 PDT 2017 ON: 20.00 +20.0 19.61 - 3.7 33.4 02 14 4727 0908 Alarm State:  5
Tue Sep 19 19:42:51 PDT 2017 ON: 20.00 +20.0 19.66 - 4.5 33.6 05 14 4715 090B Alarm State:  5
Tue Sep 19 19:41:49 PDT 2017 ON: 20.02 +20.0 19.70 - 5.5 32.8 0D 13 470C 0907 Alarm State:  5
Tue Sep 19 19:40:48 PDT 2017 ON: 20.01 +20.0 19.63 - 3.8 33.3 00 14 4726 0911 Alarm State:  5
Tue Sep 19 19:39:46 PDT 2017 ON: 20.00 +20.0 19.60 - 3.9 33.8 01 14 4721 090B Alarm State:  5
Tue Sep 19 19:38:45 PDT 2017 ON: 20.00 +20.0 19.67 - 5.3 33.0 05 14 470B 0914 Alarm State:  5
Tue Sep 19 19:37:43 PDT 2017 ON: 20.01 +20.0 19.63 - 4.2 33.2 02 14 4809 0911 Alarm State:  5
Tue Sep 19 19:36:42 PDT 2017 ON: 19.98 +20.0 19.63 - 4.3 33.7 00 14 4809 092C Alarm State:  5
Tue Sep 19 19:35:40 PDT 2017 ON: 20.00 +20.0 19.69 - 5.3 33.0 0D 14 4802 091F Alarm State:  5
Tue Sep 19 19:34:39 PDT 2017 ON: 20.03 +20.0 19.67 - 5.3 32.6 02 14 4729 0905 Alarm State:  5
Tue Sep 19 19:33:37 PDT 2017 ON: 19.99 +20.0 19.61 - 3.6 33.8 0A 14 4732 0918 Alarm State:  5
Tue Sep 19 19:32:36 PDT 2017 ON: 20.01 +20.0 19.66 - 4.4 33.4 02 14 4710 091F Alarm State:  5
Tue Sep 19 19:31:34 PDT 2017 ON: 19.99 +20.0 19.65 - 4.5 33.6 05 14 461E 0927 Alarm State:  5
Tue Sep 19 19:30:33 PDT 2017 ON: 19.99 +20.0 19.69 - 5.3 32.8 05 14 4620 0A1A Alarm State:  5
Tue Sep 19 19:29:31 PDT 2017 ON: 20.00 +20.0 19.64 - 3.3 33.6 02 14 4724 0900 Alarm State:  5
Tue Sep 19 19:28:30 PDT 2017 ON: 20.02 +20.0 19.64 - 3.9 33.5 02 14 4629 0915 Alarm State:  5
Tue Sep 19 19:27:19 PDT 2017 ON: 20.01 +20.0 19.65 - 4.7 33.4 07 14 4604 0A23 Alarm State:  5
Tue Sep 19 19:26:17 PDT 2017 ON: 20.01 +20.0 19.73 - 6.0 32.4 0D 13 4604 0B12 Alarm State:  5
Tue Sep 19 19:25:16 PDT 2017 ON: 19.97 +20.0 19.60 - 3.5 33.8 04 14 4700 0A21 Alarm State:  5
Tue Sep 19 19:24:14 PDT 2017 ON: 20.00 +20.0 19.69 - 5.6 32.6 0D 14 470A 0B04 Alarm State:  5
Tue Sep 19 19:23:13 PDT 2017 ON: 19.97 +20.0 19.59 - 2.8 34.0 09 14 4814 092D Alarm State:  5
Tue Sep 19 19:22:11 PDT 2017 ON: 19.99 +20.0 19.67 - 4.5 33.6 00 14 4802 0920 Alarm State:  5
Tue Sep 19 19:21:10 PDT 2017 ON: 19.99 +20.0 19.66 - 5.3 32.8 00 14 470E 0A07 Alarm State:  5
Tue Sep 19 19:20:08 PDT 2017 ON: 20.01 +20.0 19.65 - 3.6 33.4 00 14 4811 0915 Alarm State:  5
Tue Sep 19 19:19:07 PDT 2017 ON: 20.02 +20.0 19.61 - 4.1 33.2 00 14 4806 0923 Alarm State:  5
Tue Sep 19 19:18:05 PDT 2017 ON: 20.00 +20.0 19.64 - 4.2 33.7 0A 14 471D 092C Alarm State:  5
Tue Sep 19 19:17:04 PDT 2017 ON: 20.01 +20.0 19.68 - 4.9 33.2 00 14 4702 0905 Alarm State:  5
Tue Sep 19 19:16:02 PDT 2017 ON: 20.05 +20.0 19.70 - 5.7 32.1 08 13 462D 090C Alarm State:  5
Tue Sep 19 19:15:01 PDT 2017 ON: 20.00 +20.0 19.64 - 4.3 33.6 07 14 4632 0924 Alarm State:  5
Tue Sep 19 19:13:59 PDT 2017 ON: 20.00 +20.0 19.69 - 5.3 32.9 0A 14 4705 090F Alarm State:  5
Tue Sep 19 19:12:58 PDT 2017 ON: 20.01 +20.0 19.61 - 3.5 33.4 00 14 4724 0910 Alarm State:  5
Tue Sep 19 19:11:56 PDT 2017 ON: 19.99 +20.0 19.64 - 4.7 33.0 02 14 471E 0A07 Alarm State:  5
Tue Sep 19 19:10:55 PDT 2017 ON: 20.05 +20.0 19.70 - 4.7 33.3 05 13 4812 0922 Alarm State:  5
Tue Sep 19 19:09:53 PDT 2017 ON: 19.99 +20.0 19.68 - 4.7 33.5 00 14 471B 0908 Alarm State:  5
Tue Sep 19 19:08:52 PDT 2017 ON: 19.99 +20.0 19.67 - 4.9 32.9 07 14 4712 092D Alarm State:  5
Tue Sep 19 19:07:50 PDT 2017 ON: 20.04 +20.0 19.69 - 5.0 32.6 08 14 4730 0927 Alarm State:  5
Tue Sep 19 19:06:49 PDT 2017 ON: 20.00 +20.0 19.63 - 3.9 33.8 0A 14 4723 0925 Alarm State:  5
Tue Sep 19 19:05:47 PDT 2017 ON: 20.00 +20.0 19.68 - 5.0 33.1 05 14 4713 0928 Alarm State:  5
Tue Sep 19 19:04:46 PDT 2017 ON: 20.02 +20.0 19.67 - 4.9 32.8 00 14 471C 0909 Alarm State:  5
Tue Sep 19 19:03:44 PDT 2017 ON: 20.01 +20.0 19.64 - 4.4 33.7 0A 14 4704 0914 Alarm State:  5
Tue Sep 19 19:02:43 PDT 2017 ON: 20.02 +20.0 19.67 - 5.4 32.9 05 14 461C 0916 Alarm State:  5
Tue Sep 19 19:01:41 PDT 2017 ON: 20.03 +20.0 19.64 - 4.3 33.1 00 14 462C 0905 Alarm State:  5
Tue Sep 19 19:00:40 PDT 2017 ON: 19.99 +20.0 19.66 - 4.6 33.4 07 14 4619 0909 Alarm State:  5
Tue Sep 19 18:59:38 PDT 2017 ON: 20.02 +20.0 19.71 - 6.1 32.3 0A 13 4619 0A00 Alarm State:  5
Tue Sep 19 18:58:37 PDT 2017 ON: 19.98 +20.0 19.60 - 3.4 33.8 04 14 470D 0929 Alarm State:  5
Tue Sep 19 18:57:35 PDT 2017 ON: 19.99 +20.0 19.67 - 4.9 33.0 07 14 470B 0A1E Alarm State:  5
Tue Sep 19 18:56:34 PDT 2017 ON: 20.02 +20.0 19.63 - 3.8 33.3 00 14 480F 0902 Alarm State:  5
Tue Sep 19 18:55:32 PDT 2017 ON: 19.98 +20.0 19.65 - 4.1 33.7 05 14 480F 091C Alarm State:  5
Tue Sep 19 18:54:31 PDT 2017 ON: 20.00 +20.0 19.68 - 5.2 32.9 0D 14 4800 0914 Alarm State:  5
Tue Sep 19 18:53:29 PDT 2017 ON: 20.01 +20.0 19.62 - 3.6 33.4 00 14 482A 090E Alarm State:  5
Tue Sep 19 18:52:28 PDT 2017 ON: 20.01 +20.0 19.68 - 4.4 33.6 0D 14 4811 0912 Alarm State:  5
Tue Sep 19 18:51:26 PDT 2017 ON: 20.01 +20.0 19.69 - 5.0 33.3 0D 14 4807 090F Alarm State:  5
Tue Sep 19 18:50:25 PDT 2017 ON: 20.02 +20.0 19.72 - 6.1 32.2 08 12 470F 0921 Alarm State:  5
Tue Sep 19 18:49:23 PDT 2017 ON: 19.99 +20.0 19.63 - 3.6 33.9 0A 14 4721 0A00 Alarm State:  5
Tue Sep 19 18:48:22 PDT 2017 ON: 20.01 +20.0 19.68 - 4.7 33.6 05 14 471A 0903 Alarm State:  5
Tue Sep 19 18:47:20 PDT 2017 ON: 19.99 +20.0 19.69 - 5.1 33.0 0A 14 4714 092F Alarm State:  5
Tue Sep 19 18:46:19 PDT 2017 ON: 20.00 +20.0 19.63 - 3.6 33.4 00 14 4808 0928 Alarm State:  5
Tue Sep 19 18:45:17 PDT 2017 ON: 20.01 +20.0 19.68 - 5.1 33.1 02 14 470B 0914 Alarm State:  5
Tue Sep 19 18:44:16 PDT 2017 ON: 20.04 +20.0 19.67 - 4.3 33.1 00 14 4718 0900 Alarm State:  5
Tue Sep 19 18:43:14 PDT 2017 ON: 20.02 +20.0 19.67 - 4.7 33.1 02 14 4707 0927 Alarm State:  5
Tue Sep 19 18:42:13 PDT 2017 ON: 20.02 +20.0 19.71 - 5.3 32.7 08 13 4717 0927 Alarm State:  5
Tue Sep 19 18:41:11 PDT 2017 ON: 19.99 +20.0 19.61 - 3.4 33.7 02 14 4730 0913 Alarm State:  5
Tue Sep 19 18:40:10 PDT 2017 ON: 20.02 +20.0 19.68 - 4.9 33.1 00 14 470C 0924 Alarm State:  5
Tue Sep 19 18:39:08 PDT 2017 ON: 20.05 +20.0 19.68 - 4.8 32.8 00 14 471B 090D Alarm State:  5
Tue Sep 19 18:38:07 PDT 2017 ON: 19.99 +20.0 19.65 - 4.4 33.6 02 14 4709 0918 Alarm State:  5
Tue Sep 19 18:37:05 PDT 2017 ON: 20.01 +20.0 19.70 - 5.3 32.8 0D 13 4615 0920 Alarm State:  5
Tue Sep 19 18:36:04 PDT 2017 ON: 20.04 +20.0 19.67 - 4.8 32.7 00 14 4617 0921 Alarm State:  5
Tue Sep 19 18:35:02 PDT 2017 ON: 20.00 +20.0 19.66 - 4.6 33.1 0C 14 4612 0A0D Alarm State:  5
Tue Sep 19 18:34:01 PDT 2017 ON: 20.02 +20.0 19.65 - 4.8 32.5 00 14 4705 0925 Alarm State:  5
Tue Sep 19 18:32:59 PDT 2017 ON: 19.99 +20.0 19.60 - 3.5 33.6 07 14 4710 090B Alarm State:  5
Tue Sep 19 18:31:58 PDT 2017 ON: 20.01 +20.0 19.65 - 4.6 33.4 05 14 4710 092B Alarm State:  5
Tue Sep 19 18:30:56 PDT 2017 ON: 20.01 +20.0 19.70 - 5.1 32.9 0D 13 4719 090F Alarm State:  5
Tue Sep 19 18:29:55 PDT 2017 ON: 20.01 +20.0 19.68 - 4.9 32.6 00 14 4731 0919 Alarm State:  5
Tue Sep 19 18:28:53 PDT 2017 ON: 19.99 +20.0 19.61 - 3.3 33.7 05 14 4807 090B Alarm State:  5
Tue Sep 19 18:27:52 PDT 2017 ON: 20.00 +20.0 19.65 - 4.1 33.8 0C 14 472A 0914 Alarm State:  5
Tue Sep 19 18:26:50 PDT 2017 ON: 20.01 +20.0 19.68 - 4.6 33.5 05 14 4719 0922 Alarm State:  5
Tue Sep 19 18:25:49 PDT 2017 ON: 20.00 +20.0 19.60 - 3.3 33.7 00 14 4727 090F Alarm State:  5
Tue Sep 19 18:24:47 PDT 2017 ON: 19.99 +20.0 19.69 - 4.9 33.1 00 14 462F 0921 Alarm State:  5
Tue Sep 19 18:23:46 PDT 2017 ON: 20.02 +20.0 19.69 - 5.4 33.0 0D 14 4708 0904 Alarm State:  5
Tue Sep 19 18:22:44 PDT 2017 ON: 20.00 +20.0 19.66 - 4.0 33.9 0A 14 4711 091F Alarm State:  5
Tue Sep 19 18:21:43 PDT 2017 ON: 20.00 +20.0 19.68 - 5.3 32.9 05 14 4705 091E Alarm State:  5
Tue Sep 19 18:20:41 PDT 2017 ON: 20.02 +20.0 19.67 - 4.5 32.8 00 14 472A 0919 Alarm State:  5
Tue Sep 19 18:19:40 PDT 2017 ON: 19.98 +20.0 19.66 - 4.4 33.7 05 14 472A 0A02 Alarm State:  5
Tue Sep 19 18:18:38 PDT 2017 ON: 20.01 +20.0 19.69 - 4.8 33.4 0D 14 4804 0912 Alarm State:  5
Tue Sep 19 18:17:37 PDT 2017 ON: 20.01 +20.0 19.70 - 5.1 33.2 0A 13 472D 091D Alarm State:  5
Tue Sep 19 18:16:36 PDT 2017 ON: 20.03 +20.0 19.68 - 5.1 32.6 00 14 472A 091D Alarm State:  5
Tue Sep 19 18:15:34 PDT 2017 ON: 19.99 +20.0 19.65 - 4.3 33.6 00 14 4728 0916 Alarm State:  5
Tue Sep 19 18:14:33 PDT 2017 ON: 20.01 +20.0 19.70 - 5.2 33.0 0D 13 4725 0900 Alarm State:  5
Tue Sep 19 18:13:31 PDT 2017 ON: 20.03 +20.0 19.68 - 4.9 32.6 00 14 4719 0A03 Alarm State:  5
Tue Sep 19 18:12:30 PDT 2017 ON: 19.98 +20.0 19.63 - 4.1 33.5 00 14 472C 0A02 Alarm State:  5
Tue Sep 19 18:11:28 PDT 2017 ON: 20.02 +20.0 19.72 - 5.2 33.2 0D 12 4801 090F Alarm State:  5
Tue Sep 19 18:10:27 PDT 2017 ON: 19.99 +20.0 19.65 - 4.1 33.7 0C 14 471D 0921 Alarm State:  5
Tue Sep 19 18:09:25 PDT 2017 ON: 20.01 +20.0 19.69 - 5.8 32.6 0D 14 4705 0A24 Alarm State:  5
Tue Sep 19 18:08:24 PDT 2017 ON: 19.97 +20.0 19.57 - 2.7 34.0 09 14 480D 091F Alarm State:  5
Tue Sep 19 18:07:22 PDT 2017 ON: 20.00 +20.0 19.68 - 4.7 33.1 0D 14 4801 0914 Alarm State:  5
Tue Sep 19 18:06:21 PDT 2017 ON: 20.02 +20.0 19.65 - 4.4 33.0 00 14 480C 0904 Alarm State:  5
Tue Sep 19 18:05:19 PDT 2017 ON: 20.01 +20.0 19.62 - 3.6 33.5 00 14 4802 0901 Alarm State:  5
Tue Sep 19 18:04:18 PDT 2017 ON: 20.00 +20.0 19.64 - 4.2 33.7 07 14 472E 0922 Alarm State:  5
Tue Sep 19 18:03:16 PDT 2017 ON: 20.00 +20.0 19.69 - 4.9 33.2 0D 14 472E 090F Alarm State:  5
Tue Sep 19 18:02:15 PDT 2017 ON: 20.01 +20.0 19.67 - 5.0 33.0 02 14 472D 090D Alarm State:  5
Tue Sep 19 18:01:13 PDT 2017 ON: 20.02 +20.0 19.71 - 5.4 32.7 0D 13 471B 091C Alarm State:  5
Tue Sep 19 18:00:12 PDT 2017 ON: 20.00 +20.0 19.60 - 2.8 33.9 07 14 480B 0920 Alarm State:  5
Tue Sep 19 17:59:10 PDT 2017 ON: 20.02 +20.0 19.66 - 4.6 33.2 00 14 470B 0905 Alarm State:  5
Tue Sep 19 17:58:09 PDT 2017 ON: 19.99 +20.0 19.64 - 4.3 33.6 00 14 462A 090A Alarm State:  5
Tue Sep 19 17:57:07 PDT 2017 ON: 20.00 +20.0 19.69 - 5.1 33.0 00 14 4623 0900 Alarm State:  5
Tue Sep 19 17:56:06 PDT 2017 ON: 20.02 +20.0 19.64 - 4.4 32.9 00 14 4627 091E Alarm State:  5
Tue Sep 19 17:55:04 PDT 2017 ON: 19.99 +20.0 19.65 - 4.2 33.7 05 14 461C 091E Alarm State:  5
Tue Sep 19 17:54:03 PDT 2017 ON: 20.01 +20.0 19.71 - 5.7 32.6 0D 13 460C 0A19 Alarm State:  5
Tue Sep 19 17:53:01 PDT 2017 ON: 20.00 +20.0 19.60 - 3.5 33.4 01 14 470A 0A0C Alarm State:  5
Tue Sep 19 17:52:00 PDT 2017 ON: 19.98 +20.0 19.64 - 4.5 32.9 00 14 471A 0A14 Alarm State:  5
Tue Sep 19 17:50:58 PDT 2017 ON: 20.03 +20.0 19.71 - 4.9 32.9 0D 13 4804 0908 Alarm State:  5
Tue Sep 19 17:49:57 PDT 2017 ON: 20.01 +20.0 19.62 - 3.5 33.7 07 14 4731 090D Alarm State:  5
Tue Sep 19 17:48:55 PDT 2017 ON: 20.00 +20.0 19.67 - 4.6 33.1 07 14 4718 0919 Alarm State:  5
Tue Sep 19 17:47:54 PDT 2017 ON: 20.02 +20.0 19.70 - 5.0 32.8 0A 13 4724 0927 Alarm State:  5
Tue Sep 19 17:46:52 PDT 2017 ON: 19.99 +20.0 19.62 - 3.4 33.8 05 14 472B 0919 Alarm State:  5
Tue Sep 19 17:45:41 PDT 2017 ON: 20.02 +20.0 19.64 - 4.0 33.4 00 14 4705 0901 Alarm State:  5
Tue Sep 19 17:44:39 PDT 2017 ON: 20.01 +20.0 19.66 - 4.7 33.0 07 14 461F 0A05 Alarm State:  5
Tue Sep 19 17:43:38 PDT 2017 ON: 20.01 +20.0 19.63 - 3.5 33.4 00 14 471C 091B Alarm State:  5
Tue Sep 19 17:42:37 PDT 2017 ON: 19.98 +20.0 19.66 - 4.3 33.6 05 14 470B 091F Alarm State:  5
Tue Sep 19 17:41:35 PDT 2017 ON: 20.03 +20.0 19.70 - 5.3 33.0 0D 13 4703 0912 Alarm State:  5
Tue Sep 19 17:40:34 PDT 2017 ON: 20.04 +20.0 19.70 - 5.3 32.4 0D 13 462B 0922 Alarm State:  5
Tue Sep 19 17:39:32 PDT 2017 ON: 19.96 +20.0 19.63 - 4.1 33.5 05 14 4710 0925 Alarm State:  5
Tue Sep 19 17:38:31 PDT 2017 ON: 20.01 +20.0 19.70 - 5.0 33.1 0A 13 471F 0926 Alarm State:  5
Tue Sep 19 17:37:29 PDT 2017 ON: 20.01 +20.0 19.64 - 3.3 33.8 00 14 471B 0927 Alarm State:  5
Tue Sep 19 17:36:28 PDT 2017 ON: 20.03 +20.0 19.65 - 4.3 33.5 07 14 461F 090C Alarm State:  5
Tue Sep 19 17:35:26 PDT 2017 ON: 19.98 +20.0 19.65 - 4.9 33.0 00 14 4605 0A13 Alarm State:  5
Tue Sep 19 17:34:25 PDT 2017 ON: 19.99 +20.0 19.61 - 3.3 33.4 00 14 470B 0924 Alarm State:  5
Tue Sep 19 17:33:23 PDT 2017 ON: 19.98 +20.0 19.63 - 4.3 33.2 07 14 470D 0A11 Alarm State:  5
Tue Sep 19 17:32:22 PDT 2017 ON: 20.02 +20.0 19.68 - 4.2 33.2 08 14 4807 0926 Alarm State:  5
Tue Sep 19 17:31:20 PDT 2017 ON: 20.01 +20.0 19.62 - 3.8 33.2 00 14 4802 0903 Alarm State:  5
Tue Sep 19 17:30:19 PDT 2017 ON: 19.99 +20.0 19.65 - 4.4 33.4 00 14 4729 0923 Alarm State:  5
Tue Sep 19 17:29:17 PDT 2017 ON: 20.03 +20.0 19.73 - 5.4 32.8 0D 12 472A 0903 Alarm State:  5
Tue Sep 19 17:28:16 PDT 2017 ON: 20.01 +20.0 19.63 - 3.8 33.3 02 14 472A 0900 Alarm State:  5
Tue Sep 19 17:27:14 PDT 2017 ON: 19.99 +20.0 19.65 - 4.2 33.6 07 14 4719 0929 Alarm State:  5
Tue Sep 19 17:26:13 PDT 2017 ON: 20.02 +20.0 19.70 - 5.3 32.6 0D 13 470D 091A Alarm State:  5
Tue Sep 19 17:25:11 PDT 2017 ON: 20.01 +20.0 19.62 - 3.5 33.4 02 14 4724 0900 Alarm State:  5
Tue Sep 19 17:24:10 PDT 2017 ON: 19.99 +20.0 19.64 - 4.2 33.7 0A 14 4722 0922 Alarm State:  5
Tue Sep 19 17:23:08 PDT 2017 ON: 20.01 +20.0 19.70 - 5.4 32.8 0D 13 471B 0916 Alarm State:  5
Tue Sep 19 17:22:07 PDT 2017 ON: 20.01 +20.0 19.67 - 4.7 32.8 02 14 472F 090F Alarm State:  5
Tue Sep 19 17:21:05 PDT 2017 ON: 20.00 +20.0 19.61 - 3.5 33.5 00 14 4730 0926 Alarm State:  5
Tue Sep 19 17:20:04 PDT 2017 ON: 20.00 +20.0 19.66 - 4.4 33.3 00 14 4722 0927 Alarm State:  5
Tue Sep 19 17:19:02 PDT 2017 ON: 20.04 +20.0 19.70 - 5.7 32.5 0D 13 471D 0915 Alarm State:  5
Tue Sep 19 17:18:01 PDT 2017 ON: 20.00 +20.0 19.64 - 3.9 33.4 02 14 4723 091C Alarm State:  5
Tue Sep 19 17:16:59 PDT 2017 ON: 19.98 +20.0 19.62 - 4.1 33.6 00 14 4728 0A06 Alarm State:  5
Tue Sep 19 17:15:58 PDT 2017 ON: 20.01 +20.0 19.67 - 4.8 33.0 07 14 4801 0913 Alarm State:  5
Tue Sep 19 17:14:56 PDT 2017 ON: 20.02 +20.0 19.65 - 4.6 32.8 00 14 4806 0907 Alarm State:  5
Tue Sep 19 17:13:55 PDT 2017 ON: 20.01 +20.0 19.64 - 3.9 33.8 05 14 472B 0908 Alarm State:  5
Tue Sep 19 17:12:53 PDT 2017 ON: 20.03 +20.0 19.70 - 5.3 32.9 0D 13 4712 090A Alarm State:  5
Tue Sep 19 17:11:52 PDT 2017 ON: 20.00 +20.0 19.63 - 3.3 33.6 02 14 4714 0903 Alarm State:  5
Tue Sep 19 17:10:50 PDT 2017 ON: 19.99 +20.0 19.67 - 4.7 33.3 00 14 4628 0911 Alarm State:  5
Tue Sep 19 17:09:49 PDT 2017 ON: 20.01 +20.0 19.71 - 5.7 32.2 0A 13 4707 091F Alarm State:  5
Tue Sep 19 17:08:47 PDT 2017 ON: 19.98 +20.0 19.61 - 3.1 33.9 05 14 4732 090A Alarm State:  5
Tue Sep 19 17:07:46 PDT 2017 ON: 20.00 +20.0 19.68 - 4.7 33.3 0C 14 4728 0A01 Alarm State:  5
Tue Sep 19 17:06:44 PDT 2017 ON: 20.03 +20.0 19.66 - 4.9 32.9 02 14 480E 0913 Alarm State:  5
Tue Sep 19 17:05:43 PDT 2017 ON: 20.01 +20.0 19.67 - 4.4 33.6 05 14 472B 0922 Alarm State:  5
Tue Sep 19 17:04:41 PDT 2017 ON: 20.02 +20.0 19.68 - 5.4 32.8 05 14 4712 0903 Alarm State:  5
Tue Sep 19 17:03:40 PDT 2017 ON: 20.00 +20.0 19.61 - 3.4 33.5 00 14 4730 0909 Alarm State:  5
Tue Sep 19 17:02:38 PDT 2017 ON: 19.99 +20.0 19.64 - 4.3 33.6 05 14 4721 090B Alarm State:  5
Tue Sep 19 17:01:37 PDT 2017 ON: 20.00 +20.0 19.70 - 5.7 32.6 0D 14 4717 0A02 Alarm State:  5
Tue Sep 19 17:00:36 PDT 2017 ON: 19.97 +20.0 19.61 - 3.1 33.9 05 14 4817 0919 Alarm State:  5
Tue Sep 19 16:59:34 PDT 2017 ON: 20.00 +20.0 19.66 - 4.6 33.5 05 14 4807 0918 Alarm State:  5
Tue Sep 19 16:58:33 PDT 2017 ON: 20.00 +20.0 19.68 - 4.9 33.0 0D 14 480A 0912 Alarm State:  5
Tue Sep 19 16:57:31 PDT 2017 ON: 20.01 +20.0 19.66 - 4.2 33.2 00 14 482C 0920 Alarm State:  5
Tue Sep 19 16:56:30 PDT 2017 ON: 20.02 +20.0 19.66 - 4.5 33.2 00 14 4811 0903 Alarm State:  5
Tue Sep 19 16:55:28 PDT 2017 ON: 20.00 +20.0 19.68 - 4.5 33.5 00 14 471B 0913 Alarm State:  5
Tue Sep 19 16:54:27 PDT 2017 ON: 20.00 +20.0 19.69 - 5.1 32.9 0A 14 4707 0916 Alarm State:  5
Tue Sep 19 16:53:15 PDT 2017  Alarm State: 5
Tue Sep 19 16:53:15 PDT 2017 Chiller did not report ON, got this reading: 
Tue Sep 19 16:52:14 PDT 2017 ON: 20.02 +20.0 19.72 - 5.9 32.3 0D 12 461F 0917 Alarm State:  5
Tue Sep 19 16:51:12 PDT 2017 ON: 19.98 +20.0 19.61 - 3.2 33.8 00 14 4709 0925 Alarm State:  5
Tue Sep 19 16:50:11 PDT 2017 ON: 20.00 +20.0 19.66 - 4.9 33.1 07 14 4701 091C Alarm State:  5
Tue Sep 19 16:49:09 PDT 2017 ON: 20.01 +20.0 19.69 - 5.0 32.6 0A 14 471C 0927 Alarm State:  5
Tue Sep 19 16:48:08 PDT 2017 ON: 20.00 +20.0 19.62 - 3.4 33.8 07 14 4809 0926 Alarm State:  5
Tue Sep 19 16:47:06 PDT 2017 ON: 20.01 +20.0 19.64 - 4.3 33.5 05 14 4804 0903 Alarm State:  5
Tue Sep 19 16:46:05 PDT 2017 ON: 20.00 +20.0 19.64 - 3.4 33.6 00 14 4818 0917 Alarm State:  5
Tue Sep 19 16:45:03 PDT 2017 ON: 20.00 +20.0 19.64 - 4.2 33.6 05 14 471E 0900 Alarm State:  5
Tue Sep 19 16:44:02 PDT 2017 ON: 20.00 +20.0 19.66 - 4.6 33.3 00 14 470E 092A Alarm State:  5
Tue Sep 19 16:43:00 PDT 2017 ON: 20.02 +20.0 19.70 - 5.5 32.5 0A 13 4721 0910 Alarm State:  5
Tue Sep 19 16:41:59 PDT 2017 ON: 19.98 +20.0 19.60 - 3.3 33.9 05 14 4808 0916 Alarm State:  5
Tue Sep 19 16:40:57 PDT 2017 ON: 20.02 +20.0 19.68 - 4.9 33.1 07 14 471A 091A Alarm State:  5
Tue Sep 19 16:39:56 PDT 2017 ON: 20.01 +20.0 19.69 - 5.6 32.5 0D 14 470A 0927 Alarm State:  5
Tue Sep 19 16:38:54 PDT 2017 ON: 20.00 +20.0 19.63 - 3.5 33.5 00 14 4721 090F Alarm State:  5
Tue Sep 19 16:37:53 PDT 2017 ON: 19.99 +20.0 19.64 - 4.5 33.1 0A 14 471B 0A08 Alarm State:  5
Tue Sep 19 16:36:51 PDT 2017 ON: 20.03 +20.0 19.66 - 4.5 33.2 05 14 480D 0906 Alarm State:  5
Tue Sep 19 16:35:50 PDT 2017 ON: 20.00 +20.0 19.70 - 4.9 33.0 0A 13 4710 091B Alarm State:  5
Tue Sep 19 16:34:48 PDT 2017 ON: 20.02 +20.0 19.69 - 5.3 32.5 05 14 4711 0919 Alarm State:  5
Tue Sep 19 16:33:47 PDT 2017 ON: 20.00 +20.0 19.62 - 3.5 33.6 07 14 4715 0908 Alarm State:  5
Tue Sep 19 16:32:45 PDT 2017 ON: 19.98 +20.0 19.65 - 4.5 33.6 0A 14 4712 090C Alarm State:  5
Tue Sep 19 16:31:44 PDT 2017 ON: 20.02 +20.0 19.69 - 5.2 32.8 0D 14 4710 0926 Alarm State:  5
Tue Sep 19 16:30:42 PDT 2017 ON: 20.00 +20.0 19.57 - 2.9 33.6 01 14 4814 0910 Alarm State:  5
Tue Sep 19 16:29:41 PDT 2017 ON: 20.00 +20.0 19.66 - 4.0 33.6 05 14 4723 091F Alarm State:  5
Tue Sep 19 16:28:39 PDT 2017 ON: 20.00 +20.0 19.67 - 4.6 33.1 02 14 4708 0927 Alarm State:  5
Tue Sep 19 16:27:38 PDT 2017 ON: 20.03 +20.0 19.69 - 5.1 32.5 08 14 4722 0A00 Alarm State:  5
Tue Sep 19 16:26:36 PDT 2017 ON: 19.96 +20.0 19.64 - 4.4 33.2 00 14 472B 0A09 Alarm State:  5
Tue Sep 19 16:25:35 PDT 2017 ON: 20.01 +20.0 19.69 - 5.1 33.1 0D 14 480F 090F Alarm State:  5
Tue Sep 19 16:24:34 PDT 2017 ON: 20.03 +20.0 19.72 - 5.7 32.3 0D 12 471E 091A Alarm State:  5
Tue Sep 19 16:23:32 PDT 2017 ON: 19.98 +20.0 19.59 - 3.2 33.8 00 14 480C 091B Alarm State:  5
Tue Sep 19 16:22:31 PDT 2017 ON: 20.00 +20.0 19.67 - 4.6 33.5 0C 14 4806 091C Alarm State:  5
Tue Sep 19 16:21:29 PDT 2017 ON: 20.01 +20.0 19.65 - 4.0 33.8 07 14 480D 0914 Alarm State:  5
Tue Sep 19 16:20:28 PDT 2017 ON: 20.01 +20.0 19.69 - 5.1 32.9 0D 14 471C 0921 Alarm State:  5
Tue Sep 19 16:19:26 PDT 2017 ON: 20.04 +20.0 19.67 - 5.1 32.6 00 14 471D 0919 Alarm State:  5
Tue Sep 19 16:18:25 PDT 2017 ON: 19.98 +20.0 19.64 - 4.2 33.5 07 14 4723 0A04 Alarm State:  5
Tue Sep 19 16:17:23 PDT 2017 ON: 20.01 +20.0 19.69 - 5.6 32.6 0A 14 4724 091A Alarm State:  5
Tue Sep 19 16:16:22 PDT 2017 ON: 19.99 +20.0 19.61 - 3.3 33.6 05 14 4805 0901 Alarm State:  5
Tue Sep 19 16:15:20 PDT 2017 ON: 19.98 +20.0 19.65 - 4.9 33.0 07 14 471D 0A0B Alarm State:  5
Tue Sep 19 16:14:19 PDT 2017 ON: 20.04 +20.0 19.67 - 4.3 33.0 00 14 4810 090C Alarm State:  5
Tue Sep 19 16:13:17 PDT 2017 ON: 19.99 +20.0 19.63 - 3.9 33.8 02 14 4807 092D Alarm State:  5
Tue Sep 19 16:12:16 PDT 2017 ON: 20.01 +20.0 19.66 - 4.8 33.3 05 14 4722 0905 Alarm State:  5
Tue Sep 19 16:11:14 PDT 2017 ON: 20.00 +20.0 19.63 - 3.5 33.5 05 14 4715 090F Alarm State:  5
Tue Sep 19 16:10:13 PDT 2017 ON: 20.01 +20.0 19.67 - 4.8 33.2 07 14 4622 0924 Alarm State:  5
Tue Sep 19 16:09:11 PDT 2017 ON: 20.03 +20.0 19.73 - 5.6 32.7 0D 12 4623 0912 Alarm State:  5
Tue Sep 19 16:08:10 PDT 2017 ON: 20.01 +20.0 19.63 - 3.8 33.3 00 14 4623 090D Alarm State:  5
Tue Sep 19 16:07:08 PDT 2017 ON: 20.00 +20.0 19.62 - 4.6 33.1 02 14 4612 0A05 Alarm State:  5
Tue Sep 19 16:06:07 PDT 2017 ON: 20.00 +20.0 19.68 - 4.7 32.9 00 14 4707 091F Alarm State:  5
Tue Sep 19 16:05:05 PDT 2017 ON: 19.97 +20.0 19.63 - 4.3 33.3 00 14 4712 0A01 Alarm State:  5
Tue Sep 19 16:04:04 PDT 2017 ON: 20.02 +20.0 19.71 - 5.1 33.0 0D 13 472A 0904 Alarm State:  5
Tue Sep 19 16:03:02 PDT 2017 ON: 20.01 +20.0 19.64 - 3.8 33.3 00 14 4723 090C Alarm State:  5
Tue Sep 19 16:02:01 PDT 2017 ON: 20.01 +20.0 19.65 - 4.0 33.7 05 14 470B 0917 Alarm State:  5
Tue Sep 19 16:00:59 PDT 2017 ON: 20.00 +20.0 19.67 - 4.7 33.2 05 14 470C 0A0B Alarm State:  5
Tue Sep 19 15:59:58 PDT 2017 ON: 20.00 +20.0 19.65 - 4.2 33.1 02 14 4803 0902 Alarm State:  5
Tue Sep 19 15:58:56 PDT 2017 ON: 19.99 +20.0 19.62 - 4.0 33.7 07 14 4808 0913 Alarm State:  5
Tue Sep 19 15:57:55 PDT 2017 ON: 20.01 +20.0 19.69 - 5.1 33.2 0D 14 4808 0900 Alarm State:  5
Tue Sep 19 15:56:53 PDT 2017 ON: 20.01 +20.0 19.68 - 4.7 33.3 07 14 4724 0912 Alarm State:  5
Tue Sep 19 15:55:52 PDT 2017 ON: 20.04 +20.0 19.72 - 5.5 33.1 0A 12 471A 0913 Alarm State:  5
Tue Sep 19 15:54:50 PDT 2017 ON: 20.01 +20.0 19.70 - 5.1 32.9 0D 13 461A 0925 Alarm State:  5
Tue Sep 19 15:53:49 PDT 2017 ON: 20.00 +20.0 19.62 - 3.5 33.4 00 14 471B 0927 Alarm State:  5
Tue Sep 19 15:52:47 PDT 2017 ON: 19.99 +20.0 19.66 - 4.8 33.1 07 14 4700 0A08 Alarm State:  5
Tue Sep 19 15:51:46 PDT 2017 ON: 20.02 +20.0 19.71 - 5.1 33.3 0D 13 470E 0911 Alarm State:  5
Tue Sep 19 15:50:44 PDT 2017 ON: 20.01 +20.0 19.73 - 5.7 32.6 0D 12 461E 0923 Alarm State:  5
Tue Sep 19 15:49:43 PDT 2017 ON: 20.01 +20.0 19.63 - 3.3 33.7 0A 14 471D 0916 Alarm State:  5
Tue Sep 19 15:48:41 PDT 2017 ON: 20.01 +20.0 19.67 - 4.7 33.3 00 14 4712 0918 Alarm State:  5
Tue Sep 19 15:47:40 PDT 2017 ON: 20.01 +20.0 19.71 - 5.9 32.4 0A 13 4716 0909 Alarm State:  5
Tue Sep 19 15:46:38 PDT 2017 ON: 19.99 +20.0 19.59 - 3.2 33.8 00 14 4804 0902 Alarm State:  5
Tue Sep 19 15:45:37 PDT 2017 ON: 20.00 +20.0 19.67 - 4.6 33.4 00 14 4723 0907 Alarm State:  0
Tue Sep 19 15:44:35 PDT 2017 ON: 20.01 +20.0 19.69 - 5.3 32.9 0A 14 4716 0903 Alarm State:  0
Tue Sep 19 15:43:34 PDT 2017 ON: 20.02 +20.0 19.67 - 4.6 33.0 00 14 4710 0906 Alarm State:  0
Tue Sep 19 15:42:32 PDT 2017 ON: 19.99 +20.0 19.62 - 3.3 33.8 07 14 471D 091D Alarm State:  0
Tue Sep 19 15:41:31 PDT 2017 ON: 20.01 +20.0 19.67 - 4.7 33.5 07 14 462C 0926 Alarm State:  0
Tue Sep 19 15:40:29 PDT 2017 ON: 20.00 +20.0 19.70 - 6.0 32.3 0D 14 4625 0A28 Alarm State:  0
Tue Sep 19 15:39:28 PDT 2017 ON: 19.98 +20.0 19.63 - 3.3 33.9 05 14 472D 092E Alarm State:  0
Tue Sep 19 15:38:26 PDT 2017 ON: 20.00 +20.0 19.69 - 4.7 33.5 0A 14 4725 0919 Alarm State:  0
Tue Sep 19 15:37:25 PDT 2017 ON: 20.02 +20.0 19.72 - 6.0 32.4 0A 12 462B 0904 Alarm State:  0
Tue Sep 19 15:36:23 PDT 2017 ON: 20.00 +20.0 19.60 - 3.4 33.7 09 14 4710 091A Alarm State:  0
Tue Sep 19 15:35:22 PDT 2017 ON: 19.99 +20.0 19.65 - 4.5 33.5 05 14 4707 091C Alarm State:  0
Tue Sep 19 15:34:21 PDT 2017 ON: 20.00 +20.0 19.69 - 5.0 33.1 0D 14 4703 090F Alarm State:  0
Tue Sep 19 15:33:19 PDT 2017 ON: 20.03 +20.0 19.62 - 3.8 33.3 00 14 4720 0920 Alarm State:  0
Tue Sep 19 15:32:18 PDT 2017 ON: 20.00 +20.0 19.67 - 4.7 33.2 07 14 4706 0925 Alarm State:  0
Tue Sep 19 15:31:16 PDT 2017 ON: 20.02 +20.0 19.70 - 5.3 32.7 0D 13 471F 0922 Alarm State:  0
Tue Sep 19 15:30:15 PDT 2017 ON: 20.00 +20.0 19.59 - 3.0 33.7 00 14 4812 0912 Alarm State:  0
Tue Sep 19 15:29:13 PDT 2017 ON: 20.00 +20.0 19.67 - 4.8 33.1 07 14 471C 0924 Alarm State:  0
Tue Sep 19 15:28:12 PDT 2017 ON: 20.03 +20.0 19.69 - 5.2 32.4 0D 14 4728 0911 Alarm State:  0
Tue Sep 19 15:27:10 PDT 2017 ON: 19.98 +20.0 19.62 - 3.9 33.7 00 14 4804 091C Alarm State:  0
Tue Sep 19 15:26:09 PDT 2017 ON: 20.00 +20.0 19.68 - 4.9 33.1 0A 14 4802 090B Alarm State:  0
Tue Sep 19 15:25:07 PDT 2017 ON: 20.03 +20.0 19.67 - 4.8 32.8 00 14 472A 0919 Alarm State:  0
Tue Sep 19 15:24:06 PDT 2017 ON: 20.02 +20.0 19.66 - 3.8 33.8 05 14 4714 0903 Alarm State:  0
Tue Sep 19 15:23:04 PDT 2017 ON: 20.01 +20.0 19.69 - 4.9 33.1 00 14 4622 090F Alarm State:  0
Tue Sep 19 15:22:03 PDT 2017 ON: 20.04 +20.0 19.72 - 5.7 32.4 0D 12 4626 0927 Alarm State:  0
Tue Sep 19 15:21:01 PDT 2017 ON: 19.99 +20.0 19.61 - 3.5 33.7 0C 14 4706 0913 Alarm State:  0
Tue Sep 19 15:20:00 PDT 2017 ON: 19.99 +20.0 19.67 - 5.0 33.0 05 14 4629 0A16 Alarm State:  0
Tue Sep 19 15:18:58 PDT 2017 ON: 20.01 +20.0 19.63 - 3.6 33.3 00 14 4725 0906 Alarm State:  0
Tue Sep 19 15:17:57 PDT 2017 ON: 19.99 +20.0 19.62 - 4.4 33.3 07 14 471F 0926 Alarm State:  0
Tue Sep 19 15:16:55 PDT 2017 ON: 20.02 +20.0 19.70 - 5.0 32.9 08 13 480D 091F Alarm State:  0
Tue Sep 19 15:15:54 PDT 2017 ON: 20.02 +20.0 19.68 - 5.0 32.8 00 14 4720 0903 Alarm State:  0
Tue Sep 19 15:14:52 PDT 2017 ON: 20.03 +20.0 19.63 - 3.5 33.6 00 14 4721 090F Alarm State:  0
Tue Sep 19 15:13:51 PDT 2017 ON: 19.99 +20.0 19.66 - 4.8 33.1 07 14 462C 0920 Alarm State:  0
Tue Sep 19 15:12:49 PDT 2017 ON: 20.03 +20.0 19.69 - 5.3 32.5 08 14 4708 0908 Alarm State:  0
Tue Sep 19 15:11:48 PDT 2017 ON: 19.99 +20.0 19.65 - 4.1 33.7 02 14 470C 0924 Alarm State:  0
Tue Sep 19 15:10:46 PDT 2017 ON: 20.01 +20.0 19.69 - 5.3 32.9 07 14 462A 091C Alarm State:  0
Tue Sep 19 15:09:45 PDT 2017 ON: 20.02 +20.0 19.66 - 4.9 32.6 00 14 4632 090D Alarm State:  0
Tue Sep 19 15:08:43 PDT 2017 ON: 19.98 +20.0 19.64 - 4.0 33.8 02 14 4708 091C Alarm State:  0
Tue Sep 19 15:07:42 PDT 2017 ON: 20.00 +20.0 19.68 - 5.2 33.1 05 14 4706 090B Alarm State:  0
Tue Sep 19 15:06:40 PDT 2017 ON: 20.02 +20.0 19.70 - 5.9 32.4 0A 13 4703 0911 Alarm State:  0
Tue Sep 19 15:05:39 PDT 2017 ON: 19.97 +20.0 19.62 - 3.2 33.9 0A 14 472B 0907 Alarm State:  0
Tue Sep 19 15:04:37 PDT 2017 ON: 20.00 +20.0 19.67 - 4.3 33.7 05 14 471E 0903 Alarm State:  0
Tue Sep 19 15:03:36 PDT 2017 ON: 20.02 +20.0 19.70 - 5.2 32.9 0D 13 4627 0914 Alarm State:  0
Tue Sep 19 15:02:34 PDT 2017 ON: 20.02 +20.0 19.65 - 3.5 33.4 00 14 4717 091F Alarm State:  0
Tue Sep 19 15:01:33 PDT 2017 ON: 19.98 +20.0 19.66 - 4.7 33.0 07 14 4700 0A1B Alarm State:  0
Tue Sep 19 15:00:31 PDT 2017 ON: 20.03 +20.0 19.67 - 4.4 33.0 00 14 4730 0927 Alarm State:  0
Tue Sep 19 14:59:30 PDT 2017 ON: 20.00 +20.0 19.63 - 3.6 33.8 0A 14 4804 0917 Alarm State:  0
Tue Sep 19 14:58:28 PDT 2017 ON: 20.01 +20.0 19.67 - 5.2 32.9 00 14 471B 091A Alarm State:  0
Tue Sep 19 14:57:27 PDT 2017 ON: 20.02 +20.0 19.61 - 3.7 33.3 00 14 4732 0900 Alarm State:  0
Tue Sep 19 14:56:25 PDT 2017 ON: 20.00 +20.0 19.64 - 3.7 33.6 00 14 470C 090F Alarm State:  0
Tue Sep 19 14:55:24 PDT 2017 ON: 19.99 +20.0 19.68 - 5.2 32.9 05 14 4618 0A21 Alarm State:  0
Tue Sep 19 14:54:22 PDT 2017 ON: 20.01 +20.0 19.61 - 3.2 33.5 00 14 4723 0927 Alarm State:  0
Tue Sep 19 14:53:21 PDT 2017 ON: 20.00 +20.0 19.68 - 4.5 33.6 05 14 470E 092F Alarm State:  0
Tue Sep 19 14:52:19 PDT 2017 ON: 20.01 +20.0 19.72 - 6.2 32.3 0D 12 4706 091E Alarm State:  0
Tue Sep 19 14:51:18 PDT 2017 ON: 19.99 +20.0 19.62 - 3.8 33.8 05 14 4729 091C Alarm State:  0
Tue Sep 19 14:50:16 PDT 2017 ON: 20.01 +20.0 19.70 - 5.2 33.0 0A 13 4721 0907 Alarm State:  0
Tue Sep 19 14:49:15 PDT 2017 ON: 20.04 +20.0 19.72 - 5.6 32.3 05 12 4625 091B Alarm State:  0
Tue Sep 19 14:48:13 PDT 2017 ON: 20.00 +20.0 19.63 - 3.6 33.6 02 14 462D 090E Alarm State:  0
Tue Sep 19 14:47:12 PDT 2017 ON: 20.01 +20.0 19.67 - 4.6 33.2 02 14 461C 0912 Alarm State:  0
Tue Sep 19 14:46:11 PDT 2017 ON: 20.03 +20.0 19.67 - 5.1 32.5 00 14 462E 091E Alarm State:  5
Tue Sep 19 14:45:09 PDT 2017 ON: 19.98 +20.0 19.62 - 4.3 33.6 00 14 470E 092C Alarm State:  0
Tue Sep 19 14:44:08 PDT 2017 ON: 20.01 +20.0 19.73 - 5.9 32.3 0A 12 4710 0A07 Alarm State:  0
Tue Sep 19 14:43:06 PDT 2017 ON: 19.97 +20.0 19.63 - 3.4 33.9 02 14 4804 092A Alarm State:  0
Tue Sep 19 14:42:05 PDT 2017 ON: 20.00 +20.0 19.66 - 4.3 33.6 05 14 4808 0921 Alarm State:  0
Tue Sep 19 14:41:03 PDT 2017 ON: 20.02 +20.0 19.69 - 5.1 33.0 0D 14 4722 0902 Alarm State:  0
Tue Sep 19 14:40:02 PDT 2017 ON: 20.01 +20.0 19.63 - 3.5 33.4 00 14 4809 090E Alarm State:  0
Tue Sep 19 14:39:00 PDT 2017 ON: 20.00 +20.0 19.64 - 4.1 33.6 05 14 4719 091C Alarm State:  0
Tue Sep 19 14:37:59 PDT 2017 ON: 19.99 +20.0 19.66 - 5.2 32.9 05 14 4632 0929 Alarm State:  0
Tue Sep 19 14:36:57 PDT 2017 ON: 20.00 +20.0 19.61 - 3.5 33.5 02 14 4807 0907 Alarm State:  0
Tue Sep 19 14:35:56 PDT 2017 ON: 20.02 +20.0 19.63 - 3.8 33.4 00 14 4801 0912 Alarm State:  0
Tue Sep 19 14:34:54 PDT 2017 ON: 19.99 +20.0 19.65 - 4.5 33.2 07 14 4723 0A12 Alarm State:  0
Tue Sep 19 14:33:53 PDT 2017 ON: 20.02 +20.0 19.68 - 4.8 32.9 05 14 4812 0903 Alarm State:  0
Tue Sep 19 14:32:51 PDT 2017 ON: 20.00 +20.0 19.67 - 4.4 33.3 00 14 4805 090D Alarm State:  0
Tue Sep 19 14:31:50 PDT 2017 ON: 20.00 +20.0 19.63 - 3.4 33.6 07 14 4815 0923 Alarm State:  0
Tue Sep 19 14:30:48 PDT 2017 ON: 20.01 +20.0 19.67 - 4.0 33.4 00 14 472F 090A Alarm State:  0
Tue Sep 19 14:29:47 PDT 2017 ON: 20.01 +20.0 19.60 - 3.3 33.7 01 14 4725 090F Alarm State:  0
Tue Sep 19 14:28:45 PDT 2017 ON: 20.02 +20.0 19.67 - 4.8 33.4 05 14 4629 0921 Alarm State:  0
Tue Sep 19 14:27:44 PDT 2017 ON: 19.99 +20.0 19.70 - 5.3 32.8 0D 14 4704 0A18 Alarm State:  0
Tue Sep 19 14:26:42 PDT 2017 ON: 19.99 +20.0 19.61 - 2.9 33.6 00 14 480A 091B Alarm State:  0
Tue Sep 19 14:25:41 PDT 2017 ON: 19.99 +20.0 19.65 - 4.4 33.4 00 14 4802 091C Alarm State:  0
Tue Sep 19 14:24:39 PDT 2017 ON: 20.02 +20.0 19.69 - 5.1 33.0 0D 14 4801 090E Alarm State:  0
Tue Sep 19 14:23:38 PDT 2017 ON: 20.02 +20.0 19.72 - 5.5 32.5 08 12 4718 091D Alarm State:  0
Tue Sep 19 14:22:36 PDT 2017 ON: 20.00 +20.0 19.60 - 3.4 33.7 04 14 4721 0919 Alarm State:  0
Tue Sep 19 14:21:35 PDT 2017 ON: 20.00 +20.0 19.67 - 5.0 32.9 07 14 462E 0903 Alarm State:  0
Tue Sep 19 14:20:33 PDT 2017 ON: 20.02 +20.0 19.64 - 4.2 33.1 00 14 471A 0914 Alarm State:  0
Tue Sep 19 14:19:32 PDT 2017 ON: 19.99 +20.0 19.66 - 4.4 33.5 05 14 4706 0919 Alarm State:  0
Tue Sep 19 14:18:30 PDT 2017 ON: 20.01 +20.0 19.70 - 5.3 32.7 0A 14 4703 0A07 Alarm State:  0
Tue Sep 19 14:17:29 PDT 2017 ON: 20.00 +20.0 19.62 - 3.5 33.4 00 14 4802 0923 Alarm State:  0
Tue Sep 19 14:16:27 PDT 2017 ON: 20.00 +20.0 19.61 - 3.6 33.8 0A 14 4724 0902 Alarm State:  0
Tue Sep 19 14:15:26 PDT 2017 ON: 20.00 +20.0 19.69 - 5.3 33.0 0A 14 462C 0912 Alarm State:  0
Tue Sep 19 14:14:24 PDT 2017 ON: 20.02 +20.0 19.63 - 3.6 33.3 00 14 4721 091C Alarm State:  0
Tue Sep 19 14:13:23 PDT 2017 ON: 20.00 +20.0 19.66 - 4.4 33.5 05 14 4708 0922 Alarm State:  0
Tue Sep 19 14:12:21 PDT 2017 ON: 20.01 +20.0 19.70 - 5.4 32.8 0D 13 4700 091F Alarm State:  0
Tue Sep 19 14:11:20 PDT 2017 ON: 20.01 +20.0 19.69 - 5.0 32.6 00 14 462E 091F Alarm State:  0
Tue Sep 19 14:10:18 PDT 2017 ON: 19.99 +20.0 19.61 - 3.9 33.8 02 14 4703 0A04 Alarm State:  0
Tue Sep 19 14:09:17 PDT 2017 ON: 20.00 +20.0 19.68 - 4.6 33.4 07 14 4708 0922 Alarm State:  0
Tue Sep 19 14:08:15 PDT 2017 ON: 20.02 +20.0 19.70 - 5.8 32.2 08 13 4706 091F Alarm State:  0
Tue Sep 19 14:07:14 PDT 2017 ON: 19.98 +20.0 19.61 - 3.4 33.9 02 14 472B 091B Alarm State:  0
Tue Sep 19 14:06:12 PDT 2017 ON: 20.00 +20.0 19.66 - 4.9 33.1 00 14 4715 0912 Alarm State:  0
Tue Sep 19 14:05:11 PDT 2017 ON: 20.02 +20.0 19.66 - 4.6 32.9 00 14 4726 0902 Alarm State:  0
Tue Sep 19 14:04:09 PDT 2017 ON: 20.00 +20.0 19.66 - 4.0 33.8 02 14 4716 0907 Alarm State:  0
Tue Sep 19 14:03:08 PDT 2017 ON: 20.01 +20.0 19.69 - 5.2 33.0 05 14 4630 090F Alarm State:  0
Tue Sep 19 14:02:06 PDT 2017 ON: 20.00 +20.0 19.64 - 3.6 33.4 05 14 471F 091D Alarm State:  0
Tue Sep 19 14:01:05 PDT 2017 ON: 20.00 +20.0 19.65 - 4.2 33.7 05 14 470C 0927 Alarm State:  0
Tue Sep 19 14:00:03 PDT 2017 ON: 20.03 +20.0 19.72 - 5.9 32.4 0D 13 4629 0A03 Alarm State:  0
Tue Sep 19 13:59:02 PDT 2017 ON: 20.01 +20.0 19.59 - 3.4 33.4 00 14 4721 0901 Alarm State:  0
Tue Sep 19 13:58:00 PDT 2017 ON: 19.98 +20.0 19.65 - 4.2 33.6 05 14 471F 091F Alarm State:  0
Tue Sep 19 13:56:59 PDT 2017 ON: 19.99 +20.0 19.69 - 4.7 33.1 0A 14 4803 0A03 Alarm State:  0
Tue Sep 19 13:55:57 PDT 2017 ON: 20.03 +20.0 19.65 - 3.9 33.3 00 14 481F 0912 Alarm State:  0
Tue Sep 19 13:54:56 PDT 2017 ON: 20.03 +20.0 19.67 - 5.2 32.7 00 14 471D 0926 Alarm State:  0
Tue Sep 19 13:53:54 PDT 2017 ON: 20.00 +20.0 19.63 - 3.3 33.7 00 14 4725 091D Alarm State:  0
Tue Sep 19 13:52:53 PDT 2017 ON: 19.99 +20.0 19.66 - 4.7 33.2 00 14 4702 0906 Alarm State:  0
Tue Sep 19 13:51:51 PDT 2017 ON: 20.03 +20.0 19.65 - 4.7 33.0 00 14 471E 0914 Alarm State:  0
Tue Sep 19 13:50:50 PDT 2017 ON: 20.03 +20.0 19.66 - 4.6 32.9 00 14 4701 0924 Alarm State:  0
Tue Sep 19 13:49:49 PDT 2017 ON: 19.99 +20.0 19.66 - 4.4 33.6 00 14 462C 0921 Alarm State:  0
Tue Sep 19 13:48:47 PDT 2017 ON: 20.01 +20.0 19.72 - 6.0 32.3 0A 13 4631 0A05 Alarm State:  0
Tue Sep 19 13:47:46 PDT 2017 ON: 19.98 +20.0 19.60 - 3.5 33.9 01 14 4728 091F Alarm State:  0
Tue Sep 19 13:46:44 PDT 2017 ON: 20.01 +20.0 19.70 - 5.5 32.7 0D 14 471D 0A11 Alarm State:  0
Tue Sep 19 13:45:43 PDT 2017 ON: 19.99 +20.0 19.59 - 2.9 33.8 00 14 4822 091D Alarm State:  0
Tue Sep 19 13:44:41 PDT 2017 ON: 20.02 +20.0 19.67 - 4.6 33.2 00 14 4730 0902 Alarm State:  0
Tue Sep 19 13:43:40 PDT 2017 ON: 20.03 +20.0 19.68 - 5.2 32.7 00 14 4712 0915 Alarm State:  0
Tue Sep 19 13:42:38 PDT 2017 ON: 20.02 +20.0 19.65 - 3.9 33.3 00 14 4628 0925 Alarm State:  0
Tue Sep 19 13:41:37 PDT 2017 ON: 19.99 +20.0 19.66 - 4.6 33.1 07 14 461A 0922 Alarm State:  0
Tue Sep 19 13:40:35 PDT 2017 ON: 20.03 +20.0 19.69 - 5.2 32.5 08 14 4702 0919 Alarm State:  0
Tue Sep 19 13:39:34 PDT 2017 ON: 19.97 +20.0 19.60 - 3.5 33.9 01 14 4716 092A Alarm State:  0
Tue Sep 19 13:38:32 PDT 2017 ON: 20.00 +20.0 19.66 - 4.6 33.6 05 14 470B 091E Alarm State:  0
Tue Sep 19 13:37:31 PDT 2017 ON: 20.01 +20.0 19.69 - 5.4 32.8 0A 14 461D 0906 Alarm State:  0
Tue Sep 19 13:36:29 PDT 2017 ON: 20.01 +20.0 19.63 - 3.9 33.2 00 14 4701 091D Alarm State:  0
Tue Sep 19 13:35:28 PDT 2017 ON: 19.99 +20.0 19.67 - 4.7 33.1 05 14 4622 0920 Alarm State:  0
Tue Sep 19 13:34:26 PDT 2017 ON: 20.03 +20.0 19.71 - 5.3 32.4 08 13 4702 0925 Alarm State:  0
Tue Sep 19 13:33:25 PDT 2017 ON: 19.98 +20.0 19.62 - 3.9 33.7 05 14 470A 0A18 Alarm State:  0
Tue Sep 19 13:32:23 PDT 2017 ON: 19.98 +20.0 19.66 - 4.9 32.9 05 14 471B 0A2B Alarm State:  0
Tue Sep 19 13:31:22 PDT 2017 ON: 19.99 +20.0 19.60 - 2.9 33.6 02 14 4823 0928 Alarm State:  0
Tue Sep 19 13:30:20 PDT 2017 ON: 20.01 +20.0 19.67 - 4.4 33.6 07 14 472C 090E Alarm State:  0
Tue Sep 19 13:29:19 PDT 2017 ON: 20.02 +20.0 19.67 - 4.5 33.6 05 14 470F 0918 Alarm State:  0
Tue Sep 19 13:28:17 PDT 2017 ON: 20.00 +20.0 19.68 - 5.0 33.0 00 14 4616 0A02 Alarm State:  0
Tue Sep 19 13:27:16 PDT 2017 ON: 20.02 +20.0 19.65 - 4.5 32.9 00 14 4704 0908 Alarm State:  0
Tue Sep 19 13:26:14 PDT 2017 ON: 19.98 +20.0 19.64 - 4.3 33.6 0C 14 4700 092D Alarm State:  0
Tue Sep 19 13:25:13 PDT 2017 ON: 20.00 +20.0 19.70 - 5.1 33.1 0D 13 4705 090F Alarm State:  0
Tue Sep 19 13:24:11 PDT 2017 ON: 20.03 +20.0 19.69 - 5.3 32.3 05 14 4715 0927 Alarm State:  0
Tue Sep 19 13:23:10 PDT 2017 ON: 19.97 +20.0 19.63 - 3.8 33.9 02 14 472E 092D Alarm State:  0
Tue Sep 19 13:22:08 PDT 2017 ON: 20.02 +20.0 19.69 - 5.2 32.7 0A 14 4724 0924 Alarm State:  0
Tue Sep 19 13:21:07 PDT 2017 ON: 20.02 +20.0 19.62 - 3.5 33.4 00 14 4812 0903 Alarm State:  0
Tue Sep 19 13:20:05 PDT 2017 ON: 20.01 +20.0 19.68 - 4.6 33.5 05 14 4717 0918 Alarm State:  0
Tue Sep 19 13:19:04 PDT 2017 ON: 20.02 +20.0 19.71 - 5.8 32.7 0A 13 4629 0924 Alarm State:  0
Tue Sep 19 13:18:02 PDT 2017 ON: 20.00 +20.0 19.63 - 3.8 33.3 00 14 4710 0A0B Alarm State:  0
Tue Sep 19 13:17:01 PDT 2017 ON: 19.97 +20.0 19.62 - 4.5 33.2 07 14 4707 0A20 Alarm State:  0
Tue Sep 19 13:15:59 PDT 2017 ON: 20.03 +20.0 19.65 - 4.2 33.1 00 14 4731 090B Alarm State:  0
Tue Sep 19 13:14:58 PDT 2017 ON: 20.00 +20.0 19.65 - 3.9 33.7 0A 14 471E 0909 Alarm State:  0
Tue Sep 19 13:13:56 PDT 2017 ON: 20.00 +20.0 19.68 - 4.9 33.1 00 14 470A 0912 Alarm State:  0
Tue Sep 19 13:12:55 PDT 2017 ON: 20.00 +20.0 19.68 - 5.3 32.8 00 14 4715 0902 Alarm State:  0
Tue Sep 19 13:11:53 PDT 2017 ON: 20.00 +20.0 19.59 - 3.2 33.8 09 14 472F 0908 Alarm State:  0
Tue Sep 19 13:10:52 PDT 2017 ON: 20.02 +20.0 19.68 - 5.0 33.1 07 14 470C 0910 Alarm State:  0
Tue Sep 19 13:09:50 PDT 2017 ON: 20.03 +20.0 19.63 - 4.4 33.0 00 14 471A 090D Alarm State:  0
Tue Sep 19 13:08:49 PDT 2017 ON: 19.99 +20.0 19.67 - 4.8 33.1 00 14 462A 0919 Alarm State:  0
Tue Sep 19 13:07:47 PDT 2017 ON: 20.03 +20.0 19.71 - 5.5 32.6 08 13 470D 0923 Alarm State:  0
Tue Sep 19 13:06:46 PDT 2017 ON: 19.99 +20.0 19.60 - 3.2 33.9 05 14 4805 0925 Alarm State:  0
Tue Sep 19 13:05:44 PDT 2017 ON: 20.00 +20.0 19.64 - 4.6 33.5 00 14 4718 0924 Alarm State:  0
Tue Sep 19 13:04:43 PDT 2017 ON: 19.99 +20.0 19.67 - 5.1 33.0 05 14 4626 0A0B Alarm State:  0
Tue Sep 19 13:03:41 PDT 2017 ON: 20.02 +20.0 19.60 - 3.3 33.5 00 14 4725 091B Alarm State:  0
Tue Sep 19 13:02:40 PDT 2017 ON: 19.99 +20.0 19.66 - 4.4 33.6 05 14 4710 0923 Alarm State:  0
Tue Sep 19 13:01:39 PDT 2017 ON: 20.00 +20.0 19.67 - 4.9 33.0 07 14 4714 0916 Alarm State:  0
Tue Sep 19 13:00:37 PDT 2017 ON: 20.02 +20.0 19.69 - 4.9 33.2 0A 14 471D 090A Alarm State:  0
Tue Sep 19 12:59:36 PDT 2017 ON: 20.02 +20.0 19.67 - 4.6 33.3 00 14 4707 0915 Alarm State:  0
Tue Sep 19 12:58:34 PDT 2017 ON: 20.03 +20.0 19.71 - 5.7 32.4 0D 13 470C 0903 Alarm State:  0
Tue Sep 19 12:57:33 PDT 2017 ON: 19.99 +20.0 19.61 - 3.4 33.7 07 14 471E 0907 Alarm State:  0
Tue Sep 19 12:56:31 PDT 2017 ON: 19.99 +20.0 19.66 - 4.7 33.2 00 14 4715 090B Alarm State:  0
Tue Sep 19 12:55:30 PDT 2017 ON: 20.02 +20.0 19.71 - 5.4 32.9 0A 13 4715 0923 Alarm State:  0
Tue Sep 19 12:54:28 PDT 2017 ON: 20.02 +20.0 19.61 - 3.7 33.4 00 14 4728 091B Alarm State:  0
Tue Sep 19 12:53:27 PDT 2017 ON: 20.00 +20.0 19.67 - 4.4 33.6 05 14 470E 0922 Alarm State:  0
Tue Sep 19 12:52:25 PDT 2017 ON: 20.01 +20.0 19.71 - 5.8 32.6 0D 13 4701 091C Alarm State:  0
Tue Sep 19 12:51:24 PDT 2017 ON: 19.99 +20.0 19.62 - 3.2 33.8 07 14 4729 0914 Alarm State:  0
Tue Sep 19 12:50:22 PDT 2017 ON: 20.01 +20.0 19.65 - 4.3 33.6 0C 14 4714 091A Alarm State:  0
Tue Sep 19 12:49:21 PDT 2017 ON: 20.00 +20.0 19.68 - 4.8 33.3 05 14 462A 0926 Alarm State:  0
Tue Sep 19 12:48:19 PDT 2017 ON: 20.00 +20.0 19.70 - 5.0 32.9 0A 13 4705 0913 Alarm State:  0
Tue Sep 19 12:47:18 PDT 2017 ON: 20.02 +20.0 19.68 - 5.1 32.6 00 14 471C 0920 Alarm State:  0
Tue Sep 19 12:46:16 PDT 2017 ON: 20.00 +20.0 19.63 - 3.5 33.6 05 14 4726 0917 Alarm State:  0
Tue Sep 19 12:45:15 PDT 2017 ON: 20.01 +20.0 19.64 - 4.7 33.2 00 14 4711 0923 Alarm State:  0
Tue Sep 19 12:44:13 PDT 2017 ON: 20.02 +20.0 19.70 - 5.1 32.6 0A 13 4727 091F Alarm State:  0
Tue Sep 19 12:43:12 PDT 2017 ON: 20.00 +20.0 19.66 - 4.0 33.4 02 14 4724 0919 Alarm State:  0
Tue Sep 19 12:42:10 PDT 2017 ON: 20.03 +20.0 19.67 - 4.6 32.8 00 14 471A 0928 Alarm State:  0
Tue Sep 19 12:41:09 PDT 2017 ON: 20.01 +20.0 19.62 - 3.5 33.5 00 14 4723 091A Alarm State:  0
Tue Sep 19 12:40:07 PDT 2017 ON: 20.00 +20.0 19.64 - 4.2 33.7 02 14 471B 091F Alarm State:  0
Tue Sep 19 12:39:06 PDT 2017 ON: 20.00 +20.0 19.69 - 4.6 33.5 0A 14 471A 091F Alarm State:  0
Tue Sep 19 12:38:04 PDT 2017 ON: 20.02 +20.0 19.69 - 4.8 33.1 0D 14 471C 0924 Alarm State:  0
Tue Sep 19 12:37:03 PDT 2017 ON: 20.02 +20.0 19.67 - 4.6 33.1 00 14 4804 0911 Alarm State:  0
Tue Sep 19 12:36:01 PDT 2017 ON: 20.01 +20.0 19.66 - 4.4 32.9 00 14 472F 0916 Alarm State:  0
Tue Sep 19 12:35:00 PDT 2017 ON: 19.98 +20.0 19.64 - 4.0 33.7 02 14 4809 0928 Alarm State:  0
Tue Sep 19 12:33:58 PDT 2017 ON: 20.02 +20.0 19.67 - 4.3 33.7 02 14 4807 0911 Alarm State:  0
Tue Sep 19 12:32:57 PDT 2017 ON: 20.01 +20.0 19.67 - 4.8 33.1 07 14 4711 0923 Alarm State:  0
Tue Sep 19 12:31:55 PDT 2017 ON: 20.01 +20.0 19.68 - 5.0 32.6 00 14 4713 0922 Alarm State:  0
Tue Sep 19 12:30:54 PDT 2017 ON: 19.99 +20.0 19.63 - 3.7 33.8 00 14 4718 0908 Alarm State:  0
Tue Sep 19 12:29:52 PDT 2017 ON: 20.00 +20.0 19.65 - 5.1 32.9 05 14 4704 0A0B Alarm State:  0
Tue Sep 19 12:28:51 PDT 2017 ON: 19.99 +20.0 19.59 - 2.8 33.6 01 14 480E 0910 Alarm State:  0
Tue Sep 19 12:27:49 PDT 2017 ON: 20.01 +20.0 19.66 - 4.4 33.6 07 14 471B 0921 Alarm State:  0
Tue Sep 19 12:26:48 PDT 2017 ON: 20.01 +20.0 19.68 - 5.0 32.9 05 14 4708 0A04 Alarm State:  0
Tue Sep 19 12:25:46 PDT 2017 ON: 19.99 +20.0 19.61 - 2.8 33.7 02 14 4811 090A Alarm State:  0
Tue Sep 19 12:24:45 PDT 2017 ON: 19.99 +20.0 19.67 - 4.4 33.5 02 14 4723 0918 Alarm State:  0
Tue Sep 19 12:23:43 PDT 2017 ON: 20.02 +20.0 19.70 - 4.9 33.5 0D 13 470F 091B Alarm State:  0
Tue Sep 19 12:22:42 PDT 2017 ON: 20.00 +20.0 19.68 - 4.8 33.0 07 14 461B 0929 Alarm State:  0
Tue Sep 19 12:21:40 PDT 2017 ON: 20.03 +20.0 19.68 - 4.6 32.8 00 14 4716 0921 Alarm State:  0
Tue Sep 19 12:20:39 PDT 2017 ON: 20.01 +20.0 19.61 - 3.3 33.6 02 14 4723 0913 Alarm State:  0
Tue Sep 19 12:19:37 PDT 2017 ON: 19.99 +20.0 19.68 - 4.4 33.6 0A 14 4709 091E Alarm State:  0
Tue Sep 19 12:18:36 PDT 2017 ON: 20.01 +20.0 19.70 - 5.2 32.9 0D 13 4702 091A Alarm State:  0
Tue Sep 19 12:17:34 PDT 2017 ON: 20.01 +20.0 19.61 - 3.3 33.5 02 14 4722 0918 Alarm State:  0
Tue Sep 19 12:16:33 PDT 2017 ON: 19.99 +20.0 19.66 - 4.5 33.4 05 14 4705 091A Alarm State:  0
Tue Sep 19 12:15:32 PDT 2017 ON: 20.02 +20.0 19.71 - 5.6 32.7 0A 13 4711 0926 Alarm State:  0
Tue Sep 19 12:14:30 PDT 2017 ON: 20.00 +20.0 19.59 - 2.9 33.8 07 14 4809 0922 Alarm State:  0
Tue Sep 19 12:13:29 PDT 2017 ON: 19.99 +20.0 19.67 - 4.5 33.5 00 14 4716 090A Alarm State:  0
Tue Sep 19 12:12:27 PDT 2017 ON: 20.01 +20.0 19.71 - 5.7 32.4 08 13 4705 090A Alarm State:  0
Tue Sep 19 12:11:26 PDT 2017 ON: 19.97 +20.0 19.59 - 3.4 33.9 01 14 4714 0917 Alarm State:  0
Tue Sep 19 12:10:24 PDT 2017 ON: 20.01 +20.0 19.67 - 4.8 33.0 07 14 470C 090E Alarm State:  0
Tue Sep 19 12:09:23 PDT 2017 ON: 20.01 +20.0 19.68 - 4.4 33.1 00 14 4727 0915 Alarm State:  0
Tue Sep 19 12:08:21 PDT 2017 ON: 20.02 +20.0 19.63 - 3.6 33.5 00 14 470D 0922 Alarm State:  0
Tue Sep 19 12:07:20 PDT 2017 ON: 20.00 +20.0 19.68 - 4.6 33.1 00 14 4702 0A14 Alarm State:  0
Tue Sep 19 12:06:18 PDT 2017 ON: 19.98 +20.0 19.57 - 2.5 33.8 00 14 480D 090C Alarm State:  0
Tue Sep 19 12:05:17 PDT 2017 ON: 20.00 +20.0 19.67 - 4.4 33.5 00 14 471B 0918 Alarm State:  0
Tue Sep 19 12:04:15 PDT 2017 ON: 20.01 +20.0 19.70 - 5.6 32.7 0D 13 4707 0923 Alarm State:  0
Tue Sep 19 12:03:14 PDT 2017 ON: 19.98 +20.0 19.60 - 2.9 33.8 07 14 472E 0923 Alarm State:  0
Tue Sep 19 12:02:12 PDT 2017 ON: 20.00 +20.0 19.67 - 4.6 33.5 05 14 4720 0928 Alarm State:  0
Tue Sep 19 12:01:11 PDT 2017 ON: 20.03 +20.0 19.69 - 5.1 33.0 0D 14 471D 0922 Alarm State:  0
Tue Sep 19 12:00:09 PDT 2017 ON: 20.00 +20.0 19.62 - 3.5 33.4 00 14 4814 0918 Alarm State:  0
Tue Sep 19 11:59:08 PDT 2017 ON: 20.00 +20.0 19.65 - 4.2 33.6 00 14 4807 0922 Alarm State:  0
Tue Sep 19 11:58:06 PDT 2017 ON: 20.02 +20.0 19.73 - 5.8 32.4 0D 12 472E 0925 Alarm State:  0
Tue Sep 19 11:57:05 PDT 2017 ON: 19.99 +20.0 19.64 - 3.3 33.9 05 14 4804 0913 Alarm State:  0
Tue Sep 19 11:56:03 PDT 2017 ON: 20.00 +20.0 19.68 - 4.7 33.3 07 14 471D 0916 Alarm State:  0
Tue Sep 19 11:55:02 PDT 2017 ON: 20.01 +20.0 19.72 - 5.8 32.5 0D 13 4710 0A12 Alarm State:  0
Tue Sep 19 11:54:00 PDT 2017 ON: 19.98 +20.0 19.62 - 3.6 33.9 07 14 4805 0930 Alarm State:  0
Tue Sep 19 11:52:59 PDT 2017 ON: 20.01 +20.0 19.69 - 5.0 33.2 0D 14 472B 0922 Alarm State:  0
Tue Sep 19 11:51:57 PDT 2017 ON: 20.02 +20.0 19.72 - 5.7 32.3 08 12 4727 0927 Alarm State:  0
Tue Sep 19 11:50:56 PDT 2017 ON: 19.98 +20.0 19.62 - 3.3 33.9 05 14 480B 0909 Alarm State:  0
Tue Sep 19 11:49:54 PDT 2017 ON: 20.01 +20.0 19.67 - 4.6 33.3 07 14 472A 090C Alarm State:  0
Tue Sep 19 11:48:53 PDT 2017 ON: 20.03 +20.0 19.70 - 5.2 32.9 0D 13 472B 0914 Alarm State:  0
Tue Sep 19 11:47:51 PDT 2017 ON: 20.02 +20.0 19.68 - 4.9 32.6 00 14 4701 0927 Alarm State:  0
Tue Sep 19 11:46:50 PDT 2017 ON: 19.99 +20.0 19.64 - 3.6 33.8 05 14 4708 0911 Alarm State:  0
Tue Sep 19 11:45:48 PDT 2017 ON: 19.99 +20.0 19.68 - 4.9 33.1 05 14 462D 0A0E Alarm State:  0
Tue Sep 19 11:44:47 PDT 2017 ON: 20.01 +20.0 19.64 - 4.6 32.9 00 14 471D 090E Alarm State:  0
Tue Sep 19 11:43:45 PDT 2017 ON: 19.98 +20.0 19.63 - 4.1 33.5 05 14 472B 091F Alarm State:  0
Tue Sep 19 11:42:44 PDT 2017 ON: 20.02 +20.0 19.69 - 5.3 32.8 0D 14 472E 0922 Alarm State:  0
Tue Sep 19 11:41:42 PDT 2017 ON: 20.02 +20.0 19.59 - 3.1 33.7 00 14 4728 0906 Alarm State:  0
Tue Sep 19 11:40:41 PDT 2017 ON: 20.01 +20.0 19.69 - 4.8 33.2 05 14 4628 0918 Alarm State:  0
Tue Sep 19 11:39:39 PDT 2017 ON: 20.02 +20.0 19.65 - 4.5 32.9 00 14 4707 0903 Alarm State:  0
Tue Sep 19 11:38:38 PDT 2017 ON: 19.98 +20.0 19.66 - 4.1 33.7 02 14 4631 092B Alarm State:  0
Tue Sep 19 11:37:36 PDT 2017 ON: 20.02 +20.0 19.72 - 5.7 32.6 0D 12 462D 0922 Alarm State:  0
Tue Sep 19 11:36:35 PDT 2017 ON: 19.99 +20.0 19.59 - 3.0 33.7 00 14 4725 0914 Alarm State:  0
Tue Sep 19 11:35:33 PDT 2017 ON: 19.99 +20.0 19.65 - 4.4 33.2 00 14 4727 0A03 Alarm State:  0
Tue Sep 19 11:34:32 PDT 2017 ON: 20.03 +20.0 19.70 - 5.0 32.9 05 13 4809 090D Alarm State:  0
Tue Sep 19 11:33:30 PDT 2017 ON: 20.02 +20.0 19.66 - 4.3 33.0 00 14 4720 0922 Alarm State:  0
Tue Sep 19 11:32:29 PDT 2017 ON: 19.99 +20.0 19.64 - 4.1 33.7 05 14 4721 090C Alarm State:  0
Tue Sep 19 11:31:27 PDT 2017 ON: 20.02 +20.0 19.69 - 5.1 33.3 0D 14 471F 0926 Alarm State:  0
Tue Sep 19 11:30:26 PDT 2017 ON: 20.00 +20.0 19.65 - 4.4 33.7 00 14 470A 090D Alarm State:  0
Tue Sep 19 11:29:24 PDT 2017 ON: 20.02 +20.0 19.70 - 5.7 32.6 0D 13 4628 0917 Alarm State:  0
Tue Sep 19 11:28:23 PDT 2017 ON: 19.97 +20.0 19.60 - 3.3 33.9 01 14 471D 090D Alarm State:  0
Tue Sep 19 11:27:22 PDT 2017 ON: 20.00 +20.0 19.66 - 4.8 33.5 05 14 4702 0911 Alarm State:  0
Tue Sep 19 11:26:20 PDT 2017 ON: 20.01 +20.0 19.72 - 5.6 32.7 0D 12 4613 0922 Alarm State:  0
Tue Sep 19 11:25:19 PDT 2017 ON: 19.98 +20.0 19.60 - 3.0 33.9 0C 14 470F 0922 Alarm State:  0
Tue Sep 19 11:24:17 PDT 2017 ON: 20.01 +20.0 19.67 - 4.8 33.2 07 14 4703 0927 Alarm State:  0
Tue Sep 19 11:23:16 PDT 2017 ON: 20.04 +20.0 19.68 - 4.8 33.1 02 14 471E 090B Alarm State:  0
Tue Sep 19 11:22:14 PDT 2017 ON: 20.00 +20.0 19.71 - 5.8 32.5 0A 13 461F 0920 Alarm State:  0
Tue Sep 19 11:21:13 PDT 2017 ON: 19.98 +20.0 19.60 - 3.4 34.0 07 14 4719 0914 Alarm State:  0
Tue Sep 19 11:20:11 PDT 2017 ON: 20.00 +20.0 19.69 - 4.9 33.2 0D 14 4709 090B Alarm State:  0
Tue Sep 19 11:19:10 PDT 2017 ON: 19.99 +20.0 19.67 - 4.3 33.7 05 14 4716 0905 Alarm State:  0
Tue Sep 19 11:18:08 PDT 2017 ON: 20.00 +20.0 19.71 - 5.6 32.6 0D 13 4627 0A14 Alarm State:  0
Tue Sep 19 11:17:07 PDT 2017 ON: 19.98 +20.0 19.58 - 2.7 33.8 01 14 472F 091D Alarm State:  0
Tue Sep 19 11:16:05 PDT 2017 ON: 20.01 +20.0 19.63 - 3.8 33.5 02 14 4804 0920 Alarm State:  0
Tue Sep 19 11:15:04 PDT 2017 ON: 19.99 +20.0 19.66 - 4.7 33.1 07 14 4720 0931 Alarm State:  0
Tue Sep 19 11:14:02 PDT 2017 ON: 20.01 +20.0 19.62 - 3.2 33.5 00 14 4821 0909 Alarm State:  0
Tue Sep 19 11:13:01 PDT 2017 ON: 20.00 +20.0 19.67 - 4.6 33.0 02 14 4727 091D Alarm State:  0
Tue Sep 19 11:11:59 PDT 2017 ON: 20.04 +20.0 19.68 - 4.4 33.1 00 14 4729 091E Alarm State:  0
Tue Sep 19 11:10:58 PDT 2017 ON: 20.02 +20.0 19.65 - 4.3 33.1 00 14 4627 0909 Alarm State:  0
Tue Sep 19 11:09:56 PDT 2017 ON: 19.98 +20.0 19.66 - 4.3 33.2 00 14 461F 092E Alarm State:  0
Tue Sep 19 11:08:55 PDT 2017 ON: 20.02 +20.0 19.67 - 5.1 32.7 02 14 4707 0927 Alarm State:  0
Tue Sep 19 11:07:53 PDT 2017 ON: 20.01 +20.0 19.63 - 4.0 33.2 02 14 4630 0907 Alarm State:  0
Tue Sep 19 11:06:52 PDT 2017 ON: 19.98 +20.0 19.66 - 4.2 33.5 00 14 462D 0924 Alarm State:  0
Tue Sep 19 11:05:50 PDT 2017 ON: 20.03 +20.0 19.69 - 5.4 32.4 0A 14 4710 091E Alarm State:  0
Tue Sep 19 11:04:49 PDT 2017 ON: 19.99 +20.0 19.64 - 3.5 33.9 0A 14 4800 091E Alarm State:  0
Tue Sep 19 11:03:47 PDT 2017 ON: 20.01 +20.0 19.67 - 4.5 33.4 00 14 472F 0911 Alarm State:  0
Tue Sep 19 11:02:46 PDT 2017 ON: 20.01 +20.0 19.71 - 5.3 32.9 0D 13 4718 0919 Alarm State:  0
Tue Sep 19 11:01:44 PDT 2017 ON: 20.01 +20.0 19.63 - 3.4 33.5 02 14 471E 091A Alarm State:  0
Tue Sep 19 11:00:43 PDT 2017 ON: 19.99 +20.0 19.69 - 4.8 32.9 00 14 462A 0926 Alarm State:  0
Tue Sep 19 10:59:41 PDT 2017 ON: 20.03 +20.0 19.69 - 4.6 32.9 0A 14 4715 091E Alarm State:  0
Tue Sep 19 10:58:40 PDT 2017 ON: 19.99 +20.0 19.63 - 3.5 33.8 0A 14 471C 0910 Alarm State:  0
Tue Sep 19 10:57:38 PDT 2017 ON: 20.01 +20.0 19.68 - 5.0 33.0 00 14 462D 091B Alarm State:  0
Tue Sep 19 10:56:37 PDT 2017 ON: 20.03 +20.0 19.66 - 4.4 33.0 00 14 4711 090B Alarm State:  0
Tue Sep 19 10:55:35 PDT 2017 ON: 19.99 +20.0 19.65 - 4.2 33.6 00 14 4705 090E Alarm State:  0
Tue Sep 19 10:54:34 PDT 2017 ON: 20.00 +20.0 19.70 - 5.6 32.7 0D 14 462B 0A06 Alarm State:  0
Tue Sep 19 10:53:32 PDT 2017 ON: 20.00 +20.0 19.60 - 2.9 33.9 01 14 4730 0918 Alarm State:  0
Tue Sep 19 10:52:31 PDT 2017 ON: 20.00 +20.0 19.64 - 4.2 33.7 05 14 4723 0920 Alarm State:  0
Tue Sep 19 10:51:29 PDT 2017 ON: 19.98 +20.0 19.66 - 4.6 33.2 05 14 471B 0A02 Alarm State:  0
Tue Sep 19 10:50:28 PDT 2017 ON: 20.01 +20.0 19.67 - 4.6 33.0 00 14 480F 0925 Alarm State:  0
Tue Sep 19 10:49:26 PDT 2017 ON: 19.99 +20.0 19.62 - 3.1 33.9 00 14 481E 090B Alarm State:  0
Tue Sep 19 10:48:25 PDT 2017 ON: 20.01 +20.0 19.68 - 4.4 33.6 05 14 4731 0918 Alarm State:  0
Tue Sep 19 10:47:23 PDT 2017 ON: 20.00 +20.0 19.67 - 4.3 33.7 02 14 470E 0901 Alarm State:  0
Tue Sep 19 10:46:22 PDT 2017 ON: 20.00 +20.0 19.69 - 5.0 33.0 05 14 4623 0914 Alarm State:  0
Tue Sep 19 10:45:20 PDT 2017 ON: 20.01 +20.0 19.62 - 3.2 33.5 02 14 4721 0907 Alarm State:  0
Tue Sep 19 10:44:19 PDT 2017 ON: 20.01 +20.0 19.67 - 4.6 33.4 07 14 462A 091A Alarm State:  0
Tue Sep 19 10:43:17 PDT 2017 ON: 20.03 +20.0 19.70 - 4.9 32.9 0D 13 4706 0910 Alarm State:  0
Tue Sep 19 10:42:16 PDT 2017 ON: 20.03 +20.0 19.70 - 4.9 33.0 03 13 4708 0926 Alarm State:  0
Tue Sep 19 10:41:15 PDT 2017 ON: 20.00 +20.0 19.63 - 3.7 33.8 02 14 4626 0907 Alarm State:  0
Tue Sep 19 10:40:13 PDT 2017 ON: 20.02 +20.0 19.72 - 6.0 32.3 0D 13 4600 0A14 Alarm State:  0
Tue Sep 19 10:39:12 PDT 2017 ON: 19.97 +20.0 19.63 - 3.5 33.9 05 14 462D 092D Alarm State:  0
Tue Sep 19 10:38:10 PDT 2017 ON: 20.01 +20.0 19.70 - 5.4 32.8 0D 13 4625 091C Alarm State:  0
Tue Sep 19 10:37:09 PDT 2017 ON: 19.99 +20.0 19.62 - 2.9 33.6 00 14 4727 0903 Alarm State:  0
Tue Sep 19 10:36:07 PDT 2017 ON: 20.00 +20.0 19.65 - 4.3 33.3 07 14 4721 0927 Alarm State:  0
Tue Sep 19 10:35:06 PDT 2017 ON: 20.04 +20.0 19.67 - 4.2 33.2 00 14 480F 0924 Alarm State:  0
Tue Sep 19 10:34:04 PDT 2017 ON: 20.01 +20.0 19.69 - 4.8 33.1 08 14 4704 0910 Alarm State:  0
Tue Sep 19 10:33:03 PDT 2017 ON: 19.98 +20.0 19.65 - 3.9 33.8 02 14 470B 092C Alarm State:  0
Tue Sep 19 10:32:01 PDT 2017 ON: 20.01 +20.0 19.68 - 4.9 33.1 05 14 4705 091B Alarm State:  0
Tue Sep 19 10:31:00 PDT 2017 ON: 20.02 +20.0 19.64 - 3.9 33.2 00 14 471A 0A05 Alarm State:  0
Tue Sep 19 10:29:58 PDT 2017 ON: 19.99 +20.0 19.65 - 4.4 33.1 07 14 4710 0A19 Alarm State:  0
Tue Sep 19 10:28:57 PDT 2017 ON: 20.02 +20.0 19.61 - 3.0 33.6 00 14 4818 091E Alarm State:  0
Tue Sep 19 10:27:55 PDT 2017 ON: 20.01 +20.0 19.65 - 4.1 33.3 00 14 4717 090A Alarm State:  0
Tue Sep 19 10:26:54 PDT 2017 ON: 20.00 +20.0 19.61 - 3.2 33.7 07 14 462F 0910 Alarm State:  0
Tue Sep 19 10:25:52 PDT 2017 ON: 20.00 +20.0 19.67 - 4.8 33.2 05 14 4532 0925 Alarm State:  0
Tue Sep 19 10:24:51 PDT 2017 ON: 20.02 +20.0 19.72 - 5.5 32.3 08 12 4610 091B Alarm State:  0
Tue Sep 19 10:23:49 PDT 2017 ON: 19.99 +20.0 19.60 - 3.0 33.8 01 14 4705 0916 Alarm State:  0
Tue Sep 19 10:22:48 PDT 2017 ON: 19.99 +20.0 19.64 - 4.2 33.4 00 14 4716 092C Alarm State:  0
Tue Sep 19 10:21:46 PDT 2017 ON: 20.02 +20.0 19.69 - 4.6 33.1 08 14 4809 0924 Alarm State:  0
Tue Sep 19 10:20:45 PDT 2017 ON: 20.03 +20.0 19.67 - 4.7 32.7 00 14 472F 0907 Alarm State:  0
Tue Sep 19 10:19:43 PDT 2017 ON: 19.99 +20.0 19.62 - 3.6 33.9 0A 14 4806 0921 Alarm State:  0
Tue Sep 19 10:18:42 PDT 2017 ON: 20.03 +20.0 19.66 - 3.9 33.5 02 14 4724 091D Alarm State:  0
Tue Sep 19 10:17:40 PDT 2017 ON: 20.00 +20.0 19.65 - 4.0 33.8 02 14 4718 0920 Alarm State:  0
Tue Sep 19 10:16:39 PDT 2017 ON: 20.01 +20.0 19.68 - 4.7 33.1 00 14 470D 091C Alarm State:  0
Tue Sep 19 10:15:37 PDT 2017 ON: 20.02 +20.0 19.67 - 4.2 33.3 00 14 4727 0903 Alarm State:  0
Tue Sep 19 10:14:36 PDT 2017 ON: 20.02 +20.0 19.70 - 5.5 32.5 08 13 4621 0917 Alarm State:  0
Tue Sep 19 10:13:34 PDT 2017 ON: 19.99 +20.0 19.62 - 3.2 33.8 00 14 4702 0929 Alarm State:  0
Tue Sep 19 10:12:33 PDT 2017 ON: 20.00 +20.0 19.68 - 4.5 33.2 02 14 462A 0929 Alarm State:  0
Tue Sep 19 10:11:31 PDT 2017 ON: 20.05 +20.0 19.67 - 4.7 32.7 00 14 4713 0902 Alarm State:  0
Tue Sep 19 10:10:30 PDT 2017 ON: 20.00 +20.0 19.65 - 3.8 33.8 05 14 4710 0923 Alarm State:  0
Tue Sep 19 10:09:28 PDT 2017 ON: 20.02 +20.0 19.68 - 5.0 32.9 05 14 4630 0923 Alarm State:  0
Tue Sep 19 10:08:27 PDT 2017 ON: 20.00 +20.0 19.62 - 3.1 33.6 00 14 4729 091F Alarm State:  0
Tue Sep 19 10:07:25 PDT 2017 ON: 19.99 +20.0 19.65 - 3.7 33.7 05 14 4702 0908 Alarm State:  0
Tue Sep 19 10:06:24 PDT 2017 ON: 20.00 +20.0 19.69 - 4.8 33.3 05 14 4609 0919 Alarm State:  0
Tue Sep 19 10:05:22 PDT 2017 ON: 20.01 +20.0 19.71 - 5.7 32.3 08 13 4612 0A19 Alarm State:  0
Tue Sep 19 10:04:21 PDT 2017 ON: 19.97 +20.0 19.61 - 3.4 33.9 00 14 470F 092D Alarm State:  0
Tue Sep 19 10:03:19 PDT 2017 ON: 20.01 +20.0 19.68 - 4.8 33.3 05 14 4716 090F Alarm State:  0
Tue Sep 19 10:02:18 PDT 2017 ON: 20.03 +20.0 19.69 - 5.2 32.4 0D 14 4712 0916 Alarm State:  0
Tue Sep 19 10:01:16 PDT 2017 ON: 19.98 +20.0 19.63 - 3.8 33.9 0A 14 4719 0A00 Alarm State:  0
Tue Sep 19 10:00:15 PDT 2017 ON: 20.02 +20.0 19.68 - 4.9 33.5 05 14 4713 091B Alarm State:  0
Tue Sep 19 09:59:13 PDT 2017 ON: 20.01 +20.0 19.68 - 4.7 33.1 07 14 462B 0929 Alarm State:  0
Tue Sep 19 09:58:12 PDT 2017 ON: 19.99 +20.0 19.59 - 2.9 33.6 00 14 4730 090E Alarm State:  0
Tue Sep 19 09:57:10 PDT 2017 ON: 19.99 +20.0 19.65 - 3.8 33.9 0A 14 471F 0914 Alarm State:  0
Tue Sep 19 09:56:09 PDT 2017 ON: 20.02 +20.0 19.69 - 4.4 33.7 0C 14 4632 0919 Alarm State:  0
Tue Sep 19 09:55:07 PDT 2017 ON: 20.01 +20.0 19.69 - 5.0 33.0 05 14 4613 0929 Alarm State:  0
Tue Sep 19 09:54:06 PDT 2017 ON: 19.98 +20.0 19.61 - 3.0 33.7 00 14 4718 0909 Alarm State:  0
Tue Sep 19 09:53:05 PDT 2017 ON: 19.99 +20.0 19.64 - 3.6 33.7 07 14 4703 0915 Alarm State:  0
Tue Sep 19 09:52:03 PDT 2017 ON: 19.99 +20.0 19.67 - 4.6 33.0 07 14 4628 0A14 Alarm State:  0
Tue Sep 19 09:51:02 PDT 2017 ON: 20.01 +20.0 19.70 - 4.6 33.0 0D 13 471E 090E Alarm State:  0
Tue Sep 19 09:50:00 PDT 2017 ON: 19.99 +20.0 19.60 - 2.9 33.9 02 14 4805 0929 Alarm State:  0
Tue Sep 19 09:48:59 PDT 2017 ON: 19.99 +20.0 19.66 - 4.4 33.7 05 14 470F 090A Alarm State:  0
Tue Sep 19 09:47:57 PDT 2017 ON: 20.00 +20.0 19.68 - 5.1 32.9 07 14 4616 091B Alarm State:  0
Tue Sep 19 09:46:56 PDT 2017 ON: 20.00 +20.0 19.61 - 3.2 33.6 07 14 4714 0908 Alarm State:  0
Tue Sep 19 09:45:54 PDT 2017 ON: 20.00 +20.0 19.68 - 4.4 33.4 00 14 4627 0915 Alarm State:  0
Tue Sep 19 09:44:53 PDT 2017 ON: 20.03 +20.0 19.70 - 5.3 32.5 0A 13 4707 0918 Alarm State:  0
Tue Sep 19 09:43:51 PDT 2017 ON: 19.99 +20.0 19.62 - 3.2 33.9 05 14 4721 0929 Alarm State:  0
Tue Sep 19 09:42:50 PDT 2017 ON: 20.01 +20.0 19.68 - 4.4 33.6 07 14 4706 090A Alarm State:  0
Tue Sep 19 09:41:48 PDT 2017 ON: 20.01 +20.0 19.69 - 5.0 33.1 05 14 4625 0A15 Alarm State:  0
Tue Sep 19 09:40:47 PDT 2017 ON: 20.02 +20.0 19.61 - 3.0 33.5 00 14 472B 0924 Alarm State:  0
Tue Sep 19 09:39:45 PDT 2017 ON: 19.99 +20.0 19.65 - 4.2 33.3 00 14 4719 0929 Alarm State:  0
Tue Sep 19 09:38:44 PDT 2017 ON: 20.02 +20.0 19.69 - 5.1 32.4 05 14 472A 0907 Alarm State:  0
Tue Sep 19 09:37:42 PDT 2017 ON: 20.00 +20.0 19.63 - 3.2 33.9 05 14 4732 0900 Alarm State:  0
Tue Sep 19 09:36:41 PDT 2017 ON: 20.01 +20.0 19.68 - 4.4 33.7 05 14 470F 090E Alarm State:  0
Tue Sep 19 09:35:39 PDT 2017 ON: 20.00 +20.0 19.67 - 4.6 33.3 05 14 4628 0917 Alarm State:  0
Tue Sep 19 09:34:38 PDT 2017 ON: 20.03 +20.0 19.68 - 5.0 32.6 00 14 470A 091E Alarm State:  0
Tue Sep 19 09:33:36 PDT 2017 ON: 19.99 +20.0 19.63 - 3.3 33.8 02 14 4710 0911 Alarm State:  0
Tue Sep 19 09:32:35 PDT 2017 ON: 20.00 +20.0 19.69 - 4.5 33.3 07 14 462A 0921 Alarm State:  0
Tue Sep 19 09:31:33 PDT 2017 ON: 20.03 +20.0 19.70 - 5.4 32.2 0D 13 4622 0926 Alarm State:  0
Tue Sep 19 09:30:32 PDT 2017 ON: 19.98 +20.0 19.65 - 3.9 33.7 05 14 4700 0928 Alarm State:  0
Tue Sep 19 09:29:20 PDT 2017 ON: 20.02 +20.0 19.70 - 4.9 33.3 0D 13 4632 0916 Alarm State:  0
Tue Sep 19 09:28:19 PDT 2017 ON: 20.00 +20.0 19.71 - 5.4 32.8 0D 13 4624 0921 Alarm State:  0
Tue Sep 19 09:27:17 PDT 2017 ON: 19.98 +20.0 19.60 - 2.8 33.8 01 14 471E 0919 Alarm State:  0
Tue Sep 19 09:26:16 PDT 2017 ON: 20.00 +20.0 19.64 - 3.9 33.5 02 14 4708 0928 Alarm State:  0
Tue Sep 19 09:25:14 PDT 2017 ON: 19.98 +20.0 19.64 - 4.2 33.5 00 14 4702 0925 Alarm State:  0
Tue Sep 19 09:24:13 PDT 2017 ON: 20.00 +20.0 19.69 - 5.2 32.9 0A 14 4703 090F Alarm State:  0
Tue Sep 19 09:23:11 PDT 2017 ON: 19.99 +20.0 19.62 - 3.1 33.6 05 14 4728 091C Alarm State:  0
Tue Sep 19 09:22:10 PDT 2017 ON: 19.99 +20.0 19.67 - 4.8 33.1 07 14 4700 0927 Alarm State:  0
Tue Sep 19 09:21:08 PDT 2017 ON: 20.02 +20.0 19.65 - 3.9 33.3 00 14 4731 0914 Alarm State:  0
Tue Sep 19 09:20:07 PDT 2017 ON: 20.02 +20.0 19.63 - 3.4 33.6 00 14 4729 0913 Alarm State:  0
Tue Sep 19 09:19:05 PDT 2017 ON: 20.00 +20.0 19.65 - 4.3 33.7 05 14 4711 0924 Alarm State:  0
Tue Sep 19 09:18:04 PDT 2017 ON: 20.00 +20.0 19.69 - 5.0 33.0 0D 14 4700 0926 Alarm State:  0
Tue Sep 19 09:17:02 PDT 2017 ON: 20.01 +20.0 19.62 - 3.6 33.4 00 14 471F 090A Alarm State:  0
Tue Sep 19 09:16:01 PDT 2017 ON: 19.99 +20.0 19.68 - 4.6 33.3 00 14 462A 091D Alarm State:  0
Tue Sep 19 09:14:59 PDT 2017 ON: 20.02 +20.0 19.70 - 5.4 32.7 0D 13 4631 0911 Alarm State:  0
Tue Sep 19 09:13:58 PDT 2017 ON: 20.01 +20.0 19.62 - 3.2 33.7 05 14 4716 0901 Alarm State:  0
Tue Sep 19 09:12:56 PDT 2017 ON: 20.02 +20.0 19.62 - 3.5 33.6 02 14 470B 0909 Alarm State:  0
Tue Sep 19 09:11:55 PDT 2017 ON: 19.98 +20.0 19.65 - 4.5 33.1 00 14 4630 0A0C Alarm State:  0
Tue Sep 19 09:10:53 PDT 2017 ON: 20.02 +20.0 19.68 - 4.4 33.1 02 14 4721 0928 Alarm State:  0
Tue Sep 19 09:09:52 PDT 2017 ON: 20.02 +20.0 19.66 - 4.6 32.8 00 14 470C 090F Alarm State:  0
Tue Sep 19 09:08:50 PDT 2017 ON: 20.00 +20.0 19.61 - 3.3 33.9 05 14 4716 0917 Alarm State:  0
Tue Sep 19 09:07:49 PDT 2017 ON: 20.01 +20.0 19.69 - 4.4 33.2 0D 14 471F 090D Alarm State:  0
Tue Sep 19 09:06:47 PDT 2017 ON: 20.04 +20.0 19.69 - 4.9 32.9 05 14 4726 091C Alarm State:  0
Tue Sep 19 09:05:46 PDT 2017 ON: 19.99 +20.0 19.63 - 3.7 33.8 05 14 471E 091B Alarm State:  0
Tue Sep 19 09:04:44 PDT 2017 ON: 20.00 +20.0 19.67 - 5.4 32.8 0A 14 4705 0A23 Alarm State:  0
Tue Sep 19 09:03:43 PDT 2017 ON: 19.98 +20.0 19.61 - 2.8 33.9 00 14 4810 0925 Alarm State:  0
Tue Sep 19 09:02:41 PDT 2017 ON: 20.00 +20.0 19.68 - 4.5 33.3 07 14 472B 0901 Alarm State:  0
Tue Sep 19 09:01:40 PDT 2017 ON: 20.03 +20.0 19.70 - 5.1 33.0 0D 13 472C 0901 Alarm State:  0
Tue Sep 19 09:00:38 PDT 2017 ON: 20.03 +20.0 19.68 - 5.4 32.5 05 14 462E 0915 Alarm State:  0
Tue Sep 19 08:59:37 PDT 2017 ON: 19.99 +20.0 19.62 - 3.0 33.9 07 14 4719 0913 Alarm State:  0
Tue Sep 19 08:58:35 PDT 2017 ON: 19.99 +20.0 19.64 - 4.2 33.7 05 14 4701 091C Alarm State:  0
Tue Sep 19 08:57:34 PDT 2017 ON: 19.98 +20.0 19.68 - 4.9 33.1 05 14 4615 0928 Alarm State:  0
Tue Sep 19 08:56:32 PDT 2017 ON: 20.01 +20.0 19.64 - 3.7 33.4 00 14 4718 090E Alarm State:  0
Tue Sep 19 08:55:31 PDT 2017 ON: 19.99 +20.0 19.62 - 4.1 33.7 02 14 471B 0925 Alarm State:  0
Tue Sep 19 08:54:29 PDT 2017 ON: 20.01 +20.0 19.68 - 5.1 33.0 05 14 4719 0A0C Alarm State:  0
Tue Sep 19 08:53:28 PDT 2017 ON: 19.99 +20.0 19.62 - 2.7 33.8 05 14 481B 091F Alarm State:  0
Tue Sep 19 08:52:26 PDT 2017 ON: 20.00 +20.0 19.67 - 4.2 33.7 00 14 4728 0901 Alarm State:  0
Tue Sep 19 08:51:25 PDT 2017 ON: 20.02 +20.0 19.66 - 4.8 33.2 05 14 4709 0911 Alarm State:  0
Tue Sep 19 08:50:23 PDT 2017 ON: 20.02 +20.0 19.70 - 5.4 32.3 05 13 470B 090A Alarm State:  0
Tue Sep 19 08:49:22 PDT 2017 ON: 19.98 +20.0 19.63 - 3.5 33.9 07 14 4716 0915 Alarm State:  0
Tue Sep 19 08:48:20 PDT 2017 ON: 20.00 +20.0 19.68 - 5.0 33.1 05 14 4702 090C Alarm State:  0
Tue Sep 19 08:47:19 PDT 2017 ON: 20.03 +20.0 19.68 - 5.0 32.6 00 14 4705 090A Alarm State:  0
Tue Sep 19 08:46:17 PDT 2017 ON: 19.99 +20.0 19.63 - 3.6 33.9 05 14 4711 091E Alarm State:  0
Tue Sep 19 08:45:16 PDT 2017 ON: 20.01 +20.0 19.68 - 5.0 33.0 00 14 4629 0922 Alarm State:  0
Tue Sep 19 08:44:14 PDT 2017 ON: 20.00 +20.0 19.61 - 3.1 33.6 00 14 472C 0926 Alarm State:  0
Tue Sep 19 08:43:13 PDT 2017 ON: 19.99 +20.0 19.66 - 4.2 33.7 05 14 4713 0907 Alarm State:  0
Tue Sep 19 08:42:11 PDT 2017 ON: 19.98 +20.0 19.69 - 5.2 32.7 0D 14 4718 0A05 Alarm State:  0
Tue Sep 19 08:41:10 PDT 2017 ON: 20.00 +20.0 19.58 - 2.2 33.6 00 14 4821 0903 Alarm State:  0
Tue Sep 19 08:40:08 PDT 2017 ON: 20.00 +20.0 19.65 - 2.4 33.8 00 14 4824 090B Alarm State:  0
Tue Sep 19 08:39:07 PDT 2017 ON: 20.06 +20.0 19.74 - 2.7 33.9 03 11 4722 0920 Alarm State:  5
Tue Sep 19 08:38:05 PDT 2017 ON: 20.03 +20.0 19.68 - 4.9 32.6 02 14 4626 090B Alarm State:  5
Tue Sep 19 08:37:04 PDT 2017 ON: 19.99 +20.0 19.61 - 3.6 33.9 02 14 4707 091B Alarm State:  5
Tue Sep 19 08:36:02 PDT 2017 ON: 20.01 +20.0 19.69 - 5.1 32.9 05 14 4629 0A11 Alarm State:  5
Tue Sep 19 08:35:01 PDT 2017 ON: 20.01 +20.0 19.60 - 2.9 33.6 00 14 4726 0904 Alarm State:  5
Tue Sep 19 08:33:59 PDT 2017 ON: 20.00 +20.0 19.65 - 3.7 33.8 05 14 4713 0916 Alarm State:  5
Tue Sep 19 08:32:58 PDT 2017 ON: 20.00 +20.0 19.68 - 4.5 33.4 05 14 462C 0929 Alarm State:  5
Tue Sep 19 08:31:56 PDT 2017 ON: 20.00 +20.0 19.69 - 4.8 33.2 0D 14 4700 0909 Alarm State:  5
Tue Sep 19 08:30:55 PDT 2017 ON: 20.01 +20.0 19.69 - 4.6 33.3 0D 14 4718 091B Alarm State:  5
Tue Sep 19 08:29:43 PDT 2017 ON: 20.01 +20.0 19.69 - 5.0 33.2 0D 14 470B 0902 Alarm State:  5
Tue Sep 19 08:28:42 PDT 2017 ON: 20.01 +20.0 19.71 - 5.1 33.0 0D 13 461A 0917 Alarm State:  5
Tue Sep 19 08:27:40 PDT 2017 ON: 20.01 +20.0 19.62 - 3.4 33.5 00 14 4716 0924 Alarm State:  5
Tue Sep 19 08:26:39 PDT 2017 ON: 19.99 +20.0 19.65 - 4.6 33.1 07 14 4629 0A30 Alarm State:  5
Tue Sep 19 08:25:37 PDT 2017 ON: 20.02 +20.0 19.70 - 5.2 32.5 08 14 4713 0A17 Alarm State:  5
Tue Sep 19 08:24:36 PDT 2017 ON: 19.99 +20.0 19.61 - 3.2 33.8 07 14 4800 0A16 Alarm State:  5
Tue Sep 19 08:23:34 PDT 2017 ON: 19.97 +20.0 19.65 - 4.5 33.1 05 14 480B 0A2E Alarm State:  5
Tue Sep 19 08:22:33 PDT 2017 ON: 20.00 +20.0 19.63 - 3.2 33.6 00 14 4916 0901 Alarm State:  5
Tue Sep 19 08:21:31 PDT 2017 ON: 20.01 +20.0 19.67 - 4.6 33.2 00 14 482A 0915 Alarm State:  5
Tue Sep 19 08:20:30 PDT 2017 ON: 20.01 +20.0 19.70 - 4.6 33.5 0D 13 4808 0928 Alarm State:  5
Tue Sep 19 08:19:28 PDT 2017 ON: 19.99 +20.0 19.66 - 4.0 33.8 0A 14 471A 090D Alarm State:  5
Tue Sep 19 08:18:27 PDT 2017 ON: 20.01 +20.0 19.69 - 5.2 33.0 05 14 4627 091C Alarm State:  5
Tue Sep 19 08:17:25 PDT 2017 ON: 20.01 +20.0 19.65 - 4.1 33.2 00 14 4721 0904 Alarm State:  5
Tue Sep 19 08:16:24 PDT 2017 ON: 19.98 +20.0 19.64 - 4.0 33.7 02 14 472B 0923 Alarm State:  5
Tue Sep 19 08:15:22 PDT 2017 ON: 20.01 +20.0 19.69 - 4.9 33.3 0D 14 472E 0903 Alarm State:  5
Tue Sep 19 08:14:21 PDT 2017 ON: 20.00 +20.0 19.71 - 5.5 32.8 0D 13 462D 0A18 Alarm State:  5
Tue Sep 19 08:13:19 PDT 2017 ON: 19.97 +20.0 19.57 - 2.5 34.0 01 14 4804 0919 Alarm State:  5
Tue Sep 19 08:12:18 PDT 2017 ON: 20.01 +20.0 19.68 - 4.6 33.3 05 14 471B 0918 Alarm State:  5
Tue Sep 19 08:11:16 PDT 2017 ON: 20.02 +20.0 19.71 - 5.1 32.9 0D 13 4718 091C Alarm State:  5
Tue Sep 19 08:10:15 PDT 2017 ON: 20.02 +20.0 19.66 - 4.2 33.1 00 14 4718 0917 Alarm State:  5
Tue Sep 19 08:09:14 PDT 2017 ON: 20.00 +20.0 19.63 - 4.0 33.8 0A 14 4630 0925 Alarm State:  5
Tue Sep 19 08:08:12 PDT 2017 ON: 20.01 +20.0 19.67 - 5.1 33.0 02 14 4610 0905 Alarm State:  5
Tue Sep 19 08:07:11 PDT 2017 ON: 20.02 +20.0 19.63 - 4.1 33.1 00 14 462B 0920 Alarm State:  5
Tue Sep 19 08:06:09 PDT 2017 ON: 19.99 +20.0 19.65 - 4.1 33.7 05 14 4621 0930 Alarm State:  5
Tue Sep 19 08:05:08 PDT 2017 ON: 20.01 +20.0 19.71 - 5.4 32.8 0D 13 4612 0922 Alarm State:  5
Tue Sep 19 08:04:06 PDT 2017 ON: 20.00 +20.0 19.61 - 3.2 33.5 00 14 4717 0908 Alarm State:  5
Tue Sep 19 08:03:05 PDT 2017 ON: 19.99 +20.0 19.65 - 4.4 33.3 07 14 471A 092E Alarm State:  5
Tue Sep 19 08:02:03 PDT 2017 ON: 20.02 +20.0 19.72 - 5.1 33.0 0A 12 4728 0928 Alarm State:  5
Tue Sep 19 08:01:02 PDT 2017 ON: 20.01 +20.0 19.70 - 5.3 32.9 0D 13 4701 0913 Alarm State:  5
Tue Sep 19 08:00:00 PDT 2017 ON: 20.01 +20.0 19.61 - 3.3 33.5 00 14 4723 0900 Alarm State:  5
Tue Sep 19 07:58:59 PDT 2017 ON: 19.99 +20.0 19.67 - 4.5 33.4 05 14 4704 0A0A Alarm State:  5
Tue Sep 19 07:57:57 PDT 2017 ON: 20.02 +20.0 19.73 - 5.8 32.5 0A 12 4708 091F Alarm State:  5
Tue Sep 19 07:56:56 PDT 2017 ON: 19.99 +20.0 19.61 - 3.2 33.7 05 14 472B 0924 Alarm State:  5
Tue Sep 19 07:55:54 PDT 2017 ON: 19.99 +20.0 19.66 - 4.4 33.3 00 14 4723 0925 Alarm State:  5
Tue Sep 19 07:54:52 PDT 2017 ON: 20.03 +20.0 19.71 - 5.0 33.0 0D 13 4803 0922 Alarm State:  5
Tue Sep 19 07:53:51 PDT 2017 ON: 20.03 +20.0 19.71 - 5.4 32.6 0D 13 462F 090E Alarm State:  5
Tue Sep 19 07:52:49 PDT 2017 ON: 19.99 +20.0 19.62 - 3.2 33.8 07 14 4711 0915 Alarm State:  5
Tue Sep 19 07:51:48 PDT 2017 ON: 19.99 +20.0 19.67 - 4.4 33.4 00 14 470F 0916 Alarm State:  5
Tue Sep 19 07:50:46 PDT 2017 ON: 20.01 +20.0 19.69 - 5.0 33.2 0D 14 471A 0908 Alarm State:  5
Tue Sep 19 07:49:45 PDT 2017 ON: 20.02 +20.0 19.75 - 6.1 32.2 0D 11 461F 0A1D Alarm State:  5
Tue Sep 19 07:48:44 PDT 2017 ON: 19.97 +20.0 19.60 - 3.5 34.0 01 14 4719 0A07 Alarm State:  5
Tue Sep 19 07:47:42 PDT 2017 ON: 20.01 +20.0 19.69 - 4.6 33.4 0A 14 4717 091E Alarm State:  5
Tue Sep 19 07:46:41 PDT 2017 ON: 20.03 +20.0 19.71 - 5.9 32.2 0D 13 4702 0909 Alarm State:  5
Tue Sep 19 07:45:39 PDT 2017 ON: 19.99 +20.0 19.61 - 3.3 33.7 00 14 4718 0917 Alarm State:  5
Tue Sep 19 07:44:38 PDT 2017 ON: 20.00 +20.0 19.67 - 4.5 33.2 07 14 4632 091B Alarm State:  5
Tue Sep 19 07:43:36 PDT 2017 ON: 20.03 +20.0 19.69 - 4.9 32.6 08 14 471C 091E Alarm State:  5
Tue Sep 19 07:42:35 PDT 2017 ON: 19.99 +20.0 19.63 - 3.5 33.8 0A 14 4722 0917 Alarm State:  5
Tue Sep 19 07:41:33 PDT 2017 ON: 20.00 +20.0 19.68 - 4.6 33.3 00 14 4707 0919 Alarm State:  5
Tue Sep 19 07:40:32 PDT 2017 ON: 20.03 +20.0 19.70 - 5.5 32.7 0D 13 4715 0912 Alarm State:  5
Tue Sep 19 07:39:30 PDT 2017 ON: 20.01 +20.0 19.62 - 3.4 33.5 00 14 4807 0926 Alarm State:  5
Tue Sep 19 07:38:29 PDT 2017 ON: 19.99 +20.0 19.64 - 4.4 33.4 05 14 4728 0925 Alarm State:  5
Tue Sep 19 07:37:27 PDT 2017 ON: 20.01 +20.0 19.70 - 4.9 33.1 0D 13 472D 0928 Alarm State:  5
Tue Sep 19 07:36:26 PDT 2017 ON: 20.03 +20.0 19.68 - 5.4 32.5 00 14 470F 0914 Alarm State:  5
Tue Sep 19 07:35:24 PDT 2017 ON: 20.00 +20.0 19.62 - 3.4 33.5 02 14 4724 0901 Alarm State:  5
Tue Sep 19 07:34:23 PDT 2017 ON: 20.00 +20.0 19.66 - 4.5 33.2 00 14 4716 0A02 Alarm State:  5
Tue Sep 19 07:33:21 PDT 2017 ON: 20.02 +20.0 19.69 - 5.0 33.0 0A 14 4729 090C Alarm State:  5
Tue Sep 19 07:32:20 PDT 2017 ON: 20.04 +20.0 19.67 - 4.8 32.8 00 14 4715 091F Alarm State:  5
Tue Sep 19 07:31:18 PDT 2017 ON: 19.99 +20.0 19.65 - 4.1 33.8 02 14 4700 0923 Alarm State:  5
Tue Sep 19 07:30:17 PDT 2017 ON: 20.01 +20.0 19.69 - 5.3 32.9 05 14 4623 0916 Alarm State:  5
Tue Sep 19 07:29:15 PDT 2017 ON: 20.03 +20.0 19.66 - 5.0 32.5 00 14 4713 091D Alarm State:  5
Tue Sep 19 07:28:14 PDT 2017 ON: 19.98 +20.0 19.64 - 3.9 33.8 05 14 4725 0924 Alarm State:  5
Tue Sep 19 07:27:12 PDT 2017 ON: 20.01 +20.0 19.69 - 4.3 33.7 0D 14 471E 090C Alarm State:  5
Tue Sep 19 07:26:11 PDT 2017 ON: 20.00 +20.0 19.68 - 5.1 33.0 05 14 4621 0921 Alarm State:  5
Tue Sep 19 07:25:09 PDT 2017 ON: 20.00 +20.0 19.63 - 3.4 33.4 00 14 4729 0906 Alarm State:  5
Tue Sep 19 07:24:08 PDT 2017 ON: 20.02 +20.0 19.65 - 4.0 33.2 02 14 4707 091B Alarm State:  5
Tue Sep 19 07:23:06 PDT 2017 ON: 19.99 +20.0 19.65 - 4.0 33.8 05 14 4702 091F Alarm State:  5
Tue Sep 19 07:22:05 PDT 2017 ON: 20.01 +20.0 19.70 - 5.3 32.9 0D 13 4623 0918 Alarm State:  5
Tue Sep 19 07:21:03 PDT 2017 ON: 20.00 +20.0 19.62 - 3.1 33.6 02 14 4729 0918 Alarm State:  5
Tue Sep 19 07:20:02 PDT 2017 ON: 19.99 +20.0 19.70 - 4.7 33.0 0A 14 470D 0A21 Alarm State:  5
Tue Sep 19 07:19:00 PDT 2017 ON: 20.02 +20.0 19.68 - 4.7 33.0 0A 14 4803 090F Alarm State:  5
Tue Sep 19 07:17:59 PDT 2017 ON: 20.01 +20.0 19.68 - 4.6 33.2 05 14 471C 0924 Alarm State:  5
Tue Sep 19 07:16:57 PDT 2017 ON: 20.04 +20.0 19.72 - 5.8 32.2 0A 12 4622 090F Alarm State:  5
Tue Sep 19 07:15:56 PDT 2017 ON: 19.99 +20.0 19.62 - 3.9 33.8 05 14 4630 0928 Alarm State:  5
Tue Sep 19 07:14:54 PDT 2017 ON: 20.01 +20.0 19.70 - 5.3 32.9 0D 13 4625 091C Alarm State:  5
Tue Sep 19 07:13:53 PDT 2017 ON: 20.03 +20.0 19.69 - 5.1 32.5 02 14 4627 0900 Alarm State:  5
Tue Sep 19 07:12:51 PDT 2017 ON: 20.00 +20.0 19.60 - 3.3 33.5 00 14 4632 091D Alarm State:  5
Tue Sep 19 07:11:50 PDT 2017 ON: 20.00 +20.0 19.64 - 4.4 33.3 00 14 4628 092F Alarm State:  5
Tue Sep 19 07:10:48 PDT 2017 ON: 20.03 +20.0 19.72 - 5.5 32.4 0A 12 4708 0901 Alarm State:  5
Tue Sep 19 07:09:47 PDT 2017 ON: 19.99 +20.0 19.61 - 3.4 33.8 05 14 471C 090B Alarm State:  5
Tue Sep 19 07:08:45 PDT 2017 ON: 20.01 +20.0 19.68 - 5.0 32.9 05 14 462C 090B Alarm State:  5
Tue Sep 19 07:07:44 PDT 2017 ON: 20.02 +20.0 19.66 - 4.1 33.2 00 14 4725 0913 Alarm State:  5
Tue Sep 19 07:06:42 PDT 2017 ON: 20.02 +20.0 19.65 - 4.5 32.9 00 14 470C 0927 Alarm State:  5
Tue Sep 19 07:05:41 PDT 2017 ON: 19.98 +20.0 19.63 - 3.7 33.9 0A 14 470C 0925 Alarm State:  5
Tue Sep 19 07:04:39 PDT 2017 ON: 20.01 +20.0 19.69 - 4.9 32.9 07 14 4630 0919 Alarm State:  5
Tue Sep 19 07:03:38 PDT 2017 ON: 20.03 +20.0 19.63 - 3.2 33.5 00 14 472F 0913 Alarm State:  5
Tue Sep 19 07:02:36 PDT 2017 ON: 20.01 +20.0 19.64 - 4.0 33.3 00 14 4702 0927 Alarm State:  5
Tue Sep 19 07:01:35 PDT 2017 ON: 19.98 +20.0 19.67 - 4.4 33.3 05 14 462D 0923 Alarm State:  5
Tue Sep 19 07:00:33 PDT 2017 ON: 20.00 +20.0 19.70 - 5.1 32.8 0D 13 470D 091E Alarm State:  5
Tue Sep 19 06:59:32 PDT 2017 ON: 20.01 +20.0 19.65 - 3.9 33.3 00 14 472D 091E Alarm State:  5
Tue Sep 19 06:58:30 PDT 2017 ON: 19.99 +20.0 19.64 - 3.8 33.8 02 14 472C 0924 Alarm State:  5
Tue Sep 19 06:57:29 PDT 2017 ON: 20.01 +20.0 19.68 - 5.0 33.3 00 14 4716 0925 Alarm State:  5
Tue Sep 19 06:56:27 PDT 2017 ON: 20.02 +20.0 19.73 - 5.9 32.4 0D 12 462A 0910 Alarm State:  5
Tue Sep 19 06:55:26 PDT 2017 ON: 19.98 +20.0 19.62 - 3.3 33.9 00 14 4717 0906 Alarm State:  5
Tue Sep 19 06:54:24 PDT 2017 ON: 20.00 +20.0 19.64 - 4.0 33.7 02 14 470A 0912 Alarm State:  5
Tue Sep 19 06:53:23 PDT 2017 ON: 20.00 +20.0 19.68 - 5.0 32.9 07 14 461F 0927 Alarm State:  5
Tue Sep 19 06:52:21 PDT 2017 ON: 20.03 +20.0 19.66 - 4.5 32.9 00 14 4717 091C Alarm State:  5
Tue Sep 19 06:51:20 PDT 2017 ON: 19.98 +20.0 19.63 - 4.2 33.5 05 14 471F 092F Alarm State:  5
Tue Sep 19 06:50:18 PDT 2017 ON: 20.02 +20.0 19.72 - 5.1 33.4 0D 12 4720 090D Alarm State:  5
Tue Sep 19 06:49:17 PDT 2017 ON: 20.00 +20.0 19.67 - 4.9 33.0 07 14 4627 0922 Alarm State:  5
Tue Sep 19 06:48:15 PDT 2017 ON: 20.02 +20.0 19.67 - 4.4 33.0 00 14 471B 0907 Alarm State:  5
Tue Sep 19 06:47:14 PDT 2017 ON: 20.00 +20.0 19.61 - 3.4 33.7 02 14 4711 0904 Alarm State:  5
Tue Sep 19 06:46:12 PDT 2017 ON: 20.00 +20.0 19.66 - 4.4 33.7 02 14 461F 0918 Alarm State:  5
Tue Sep 19 06:45:11 PDT 2017 ON: 20.01 +20.0 19.69 - 5.2 33.0 05 14 4532 0902 Alarm State:  5
Tue Sep 19 06:44:09 PDT 2017 ON: 20.03 +20.0 19.69 - 5.1 32.5 00 14 4618 0921 Alarm State:  5
Tue Sep 19 06:42:58 PDT 2017 ON: 19.99 +20.0 19.61 - 3.3 33.7 07 14 461B 0922 Alarm State:  5
Tue Sep 19 06:41:57 PDT 2017 ON: 20.00 +20.0 19.66 - 4.7 33.0 07 14 461B 0A1B Alarm State:  5
Tue Sep 19 06:40:55 PDT 2017 ON: 20.02 +20.0 19.66 - 4.3 33.0 00 14 4717 0928 Alarm State:  5
Tue Sep 19 06:39:54 PDT 2017 ON: 20.00 +20.0 19.61 - 3.5 33.8 07 14 4713 0926 Alarm State:  5
Tue Sep 19 06:38:52 PDT 2017 ON: 20.00 +20.0 19.68 - 4.8 33.0 00 14 462B 0A0F Alarm State:  5
Tue Sep 19 06:37:51 PDT 2017 ON: 20.01 +20.0 19.63 - 3.6 33.3 00 14 4732 0906 Alarm State:  5
Tue Sep 19 06:36:49 PDT 2017 ON: 20.00 +20.0 19.64 - 3.8 33.5 00 14 4719 091A Alarm State:  5
Tue Sep 19 06:35:48 PDT 2017 ON: 19.99 +20.0 19.63 - 3.7 33.8 0A 14 4711 091D Alarm State:  5
Tue Sep 19 06:34:46 PDT 2017 ON: 20.01 +20.0 19.68 - 4.9 33.0 07 14 4625 0921 Alarm State:  5
Tue Sep 19 06:33:45 PDT 2017 ON: 20.03 +20.0 19.69 - 4.9 32.8 05 14 470E 0919 Alarm State:  5
Tue Sep 19 06:32:43 PDT 2017 ON: 20.01 +20.0 19.62 - 3.5 33.5 00 14 4709 091F Alarm State:  5
Tue Sep 19 06:31:42 PDT 2017 ON: 20.00 +20.0 19.67 - 4.4 33.7 05 14 4626 092C Alarm State:  5
Tue Sep 19 06:30:40 PDT 2017 ON: 20.01 +20.0 19.69 - 5.0 33.1 05 14 461F 0922 Alarm State:  5
Tue Sep 19 06:29:39 PDT 2017 ON: 20.02 +20.0 19.70 - 5.3 32.6 0A 13 461F 0921 Alarm State:  5
Tue Sep 19 06:28:37 PDT 2017 ON: 19.99 +20.0 19.58 - 3.1 33.7 07 14 4709 0925 Alarm State:  5
Tue Sep 19 06:27:36 PDT 2017 ON: 19.99 +20.0 19.67 - 4.5 33.4 05 14 470D 0A01 Alarm State:  5